Darstellungsparameter: Aktuell verwendete Einstellungen:
Skalierung der Graphiken ... ?
xyx+y,   Skalierungsfaktor:      Skalierung: Modus: x, Faktor: 1
Darstellungszeitraum ... ?
Vom - - bis: - -   Zeitraum: 19.04.2020 - 25.04.2020
Min/Max/Avg-Anzeige ... ?
Zeige MMA aktuell
Zeige MMA Monat
Zeige MMA alles
Zeige --A aktuell
Zeige --A Monat
Zeige --A alles
Keine MMA-Anzeige
MMA:
Average (ber die Originaldaten)
MMA-Basis: 19.04.2020 - 25.04.2020
Quicknavigation für Darstellung... ?
Tage:      1T, 2T, 3T, 5T -1T -2T -3T -5T +1T +2T +3T +5T
Wochen: 1W, 2W, 3W -1W -2W -3W +1W +2W +3W
Monate: 1M, 3M, 6M -1M -3M -6M +1M +3M +6M
Jahre:    1J, 3J, 5J, 10J -1J -3J -5J -10J +1J +3J +5J +10J
Nutze für die Darstellung ... ?
Originaldaten oder Mittelwerte auf ...
Stundenbasis Tagesbasis Wochenbasis
Monatsbasis Jahresbasis      Datenbasis: Original-Daten
Darstellen als:
Statistik (Auto) Statistik J:M      Darstellung:
Zur Graphik,    zurück zur Übersicht aller Sensoren.
 
Tabellarische Datenbersicht: ?
 
Sensor: Nr:Datum:Temp:Abs-Feuchte:Windchill:Wind:
Aussen-T/F 1 19-04-2020 00:00:00 11.7 C 9.31 g/m*3 11.7 C 0 km/h
2 19-04-2020 00:05:00 11.6 C 9.35 g/m*3 11.6 C 1.6 km/h
3 19-04-2020 00:10:00 11.4 C 9.24 g/m*3 11.4 C 0 km/h
4 19-04-2020 00:15:00 11.3 C 9.18 g/m*3 11.3 C 0 km/h
5 19-04-2020 00:20:00 11.2 C 9.12 g/m*3 11.2 C 0 km/h
6 19-04-2020 00:25:00 11.1 C 9.17 g/m*3 11.1 C 0 km/h
7 19-04-2020 00:30:00 11.1 C 9.17 g/m*3 11.1 C 0 km/h
8 19-04-2020 00:35:00 11 C 9.21 g/m*3 11 C 0 km/h
9 19-04-2020 00:40:00 10.9 C 9.15 g/m*3 10.9 C 0 km/h
10 19-04-2020 00:45:00 10.8 C 9.09 g/m*3 10.8 C 0 km/h
11 19-04-2020 00:50:00 10.8 C 9.09 g/m*3 10.8 C 0 km/h
12 19-04-2020 00:55:00 10.7 C 9.04 g/m*3 10.7 C 0 km/h
13 19-04-2020 01:00:00 10.6 C 8.98 g/m*3 10.6 C 0 km/h
14 19-04-2020 01:05:00 10.5 C 8.92 g/m*3 10.5 C 0 km/h
15 19-04-2020 01:10:00 10.5 C 9.02 g/m*3 10.5 C 0 km/h
16 19-04-2020 01:15:00 10.5 C 9.02 g/m*3 10.5 C 0 km/h
17 19-04-2020 01:20:00 10.4 C 8.96 g/m*3 10.4 C 0 km/h
18 19-04-2020 01:25:00 10.3 C 8.91 g/m*3 10.3 C 0 km/h
19 19-04-2020 01:30:00 10.2 C 8.85 g/m*3 10.2 C 0 km/h
20 19-04-2020 01:35:00 10.2 C 8.85 g/m*3 10.2 C 0 km/h
21 19-04-2020 01:40:00 10.2 C 8.85 g/m*3 10.2 C 0 km/h
22 19-04-2020 01:45:00 10.2 C 8.95 g/m*3 10.2 C 1.6 km/h
23 19-04-2020 01:50:00 10.2 C 8.95 g/m*3 10.2 C 0 km/h
24 19-04-2020 01:55:00 10.1 C 8.89 g/m*3 10.1 C 0 km/h
25 19-04-2020 02:00:00 10 C 8.74 g/m*3 10 C 0 km/h
Sensor: Nr:Datum:Temp:Abs-Feuchte:Windchill:Wind:
Aussen-T/F 26 19-04-2020 02:05:00 9.9 C 8.78 g/m*3 9.9 C 0 km/h
27 19-04-2020 02:10:00 10 C 8.83 g/m*3 10 C 0 km/h
28 19-04-2020 02:15:00 10.1 C 8.89 g/m*3 10.1 C 0 km/h
29 19-04-2020 02:20:00 10.1 C 8.89 g/m*3 10.1 C 0 km/h
30 19-04-2020 02:25:00 10.2 C 8.95 g/m*3 10.2 C 0 km/h
31 19-04-2020 02:30:00 10.2 C 8.95 g/m*3 10.2 C 0 km/h
32 19-04-2020 02:35:00 10.2 C 8.95 g/m*3 10.2 C 4.8 km/h
33 19-04-2020 02:40:00 10.2 C 9.04 g/m*3 10.2 C 1.6 km/h
34 19-04-2020 02:45:00 10.2 C 9.04 g/m*3 10.2 C 0 km/h
35 19-04-2020 02:50:00 10.2 C 8.95 g/m*3 10.2 C 0 km/h
36 19-04-2020 02:55:00 10.2 C 8.95 g/m*3 10.2 C 0 km/h
37 19-04-2020 03:00:00 10.2 C 8.95 g/m*3 10.2 C 0 km/h
38 19-04-2020 03:05:00 10.1 C 8.89 g/m*3 10.1 C 0 km/h
39 19-04-2020 03:10:00 9.9 C 8.78 g/m*3 9.9 C 0 km/h
40 19-04-2020 03:15:00 9.8 C 8.72 g/m*3 9.8 C 1.6 km/h
41 19-04-2020 03:20:00 9.8 C 8.72 g/m*3 9.8 C 0 km/h
42 19-04-2020 03:25:00 9.7 C 8.67 g/m*3 9.7 C 0 km/h
43 19-04-2020 03:30:00 9.7 C 8.67 g/m*3 9.7 C 1.6 km/h
44 19-04-2020 03:35:00 9.6 C 8.61 g/m*3 9.6 C 3.2 km/h
45 19-04-2020 03:40:00 9.4 C 8.5 g/m*3 9.4 C 0 km/h
46 19-04-2020 03:45:00 9.3 C 8.45 g/m*3 9.3 C 0 km/h
47 19-04-2020 03:50:00 9.2 C 8.39 g/m*3 9.2 C 3.2 km/h
48 19-04-2020 03:55:00 9.2 C 8.48 g/m*3 9.2 C 0 km/h
49 19-04-2020 04:00:00 9.2 C 8.39 g/m*3 9.2 C 0 km/h
50 19-04-2020 04:05:00 9.1 C 8.34 g/m*3 9.1 C 0 km/h
Sensor: Nr:Datum:Temp:Abs-Feuchte:Windchill:Wind:
Aussen-T/F 51 19-04-2020 04:10:00 9.2 C 8.48 g/m*3 9.2 C 0 km/h
52 19-04-2020 04:15:00 9.2 C 8.48 g/m*3 9.2 C 1.6 km/h
53 19-04-2020 04:20:00 9.4 C 8.59 g/m*3 9.4 C 1.6 km/h
54 19-04-2020 04:25:00 9.5 C 8.74 g/m*3 9.5 C 1.6 km/h
55 19-04-2020 04:30:00 9.6 C 8.79 g/m*3 9.6 C 0 km/h
56 19-04-2020 04:35:00 9.7 C 8.85 g/m*3 9.7 C 1.6 km/h
57 19-04-2020 04:40:00 9.7 C 8.85 g/m*3 9.7 C 1.6 km/h
58 19-04-2020 04:45:00 9.8 C 8.91 g/m*3 9.8 C 0 km/h
59 19-04-2020 04:50:00 9.8 C 8.91 g/m*3 9.8 C 1.6 km/h
60 19-04-2020 04:55:00 9.8 C 8.91 g/m*3 9.8 C 1.6 km/h
61 19-04-2020 05:00:00 9.8 C 8.91 g/m*3 9.8 C 3.2 km/h
62 19-04-2020 05:05:00 9.9 C 8.96 g/m*3 9.9 C 3.2 km/h
63 19-04-2020 05:10:00 9.9 C 8.96 g/m*3 9.9 C 0 km/h
64 19-04-2020 05:15:00 9.9 C 8.96 g/m*3 9.9 C 1.6 km/h
65 19-04-2020 05:20:00 9.9 C 8.96 g/m*3 9.9 C 0 km/h
66 19-04-2020 05:25:00 9.9 C 8.96 g/m*3 9.9 C 1.6 km/h
67 19-04-2020 05:30:00 9.9 C 8.96 g/m*3 9.9 C 1.6 km/h
68 19-04-2020 05:35:00 9.9 C 8.96 g/m*3 9.9 C 1.6 km/h
69 19-04-2020 05:40:00 9.9 C 8.96 g/m*3 9.9 C 0 km/h
70 19-04-2020 05:45:00 9.9 C 8.96 g/m*3 9.9 C 0 km/h
71 19-04-2020 05:50:00 9.9 C 8.96 g/m*3 9.9 C 0 km/h
72 19-04-2020 05:55:00 9.9 C 8.96 g/m*3 9.9 C 0 km/h
73 19-04-2020 06:00:00 10 C 9.02 g/m*3 10 C 0 km/h
74 19-04-2020 06:05:00 10.1 C 9.08 g/m*3 10.1 C 0 km/h
75 19-04-2020 06:10:00 10.1 C 9.08 g/m*3 10.1 C 0 km/h
Sensor: Nr:Datum:Temp:Abs-Feuchte:Windchill:Wind:
Aussen-T/F 76 19-04-2020 06:15:00 10.1 C 9.08 g/m*3 10.1 C 0 km/h
77 19-04-2020 06:20:00 10.1 C 9.08 g/m*3 10.1 C 0 km/h
78 19-04-2020 06:25:00 10.1 C 9.08 g/m*3 10.1 C 0 km/h
79 19-04-2020 06:30:00 10.2 C 9.14 g/m*3 10.2 C 0 km/h
80 19-04-2020 06:35:00 10.2 C 9.14 g/m*3 10.2 C 0 km/h
81 19-04-2020 06:40:00 10.2 C 9.14 g/m*3 10.2 C 0 km/h
82 19-04-2020 06:45:00 10.2 C 9.14 g/m*3 10.2 C 0 km/h
83 19-04-2020 06:50:00 10.3 C 9.19 g/m*3 10.3 C 0 km/h
84 19-04-2020 06:55:00 10.3 C 9.19 g/m*3 10.3 C 1.6 km/h
85 19-04-2020 07:00:00 10.3 C 9.19 g/m*3 10.3 C 0 km/h
86 19-04-2020 07:05:00 10.3 C 9.19 g/m*3 10.3 C 0 km/h
87 19-04-2020 07:10:00 10.3 C 9.19 g/m*3 10.3 C 0 km/h
88 19-04-2020 07:15:00 10.3 C 9.19 g/m*3 10.3 C 0 km/h
89 19-04-2020 07:20:00 10.4 C 9.25 g/m*3 10.4 C 0 km/h
90 19-04-2020 07:25:00 10.4 C 9.25 g/m*3 10.4 C 0 km/h
91 19-04-2020 07:30:00 10.4 C 9.25 g/m*3 10.4 C 0 km/h
92 19-04-2020 07:35:00 10.4 C 9.25 g/m*3 10.4 C 0 km/h
93 19-04-2020 07:40:00 10.5 C 9.31 g/m*3 10.5 C 0 km/h
94 19-04-2020 07:45:00 10.5 C 9.31 g/m*3 10.5 C 0 km/h
95 19-04-2020 07:50:00 10.5 C 9.31 g/m*3 10.5 C 0 km/h
96 19-04-2020 07:55:00 10.6 C 9.37 g/m*3 10.6 C 0 km/h
97 19-04-2020 08:00:00 10.6 C 9.37 g/m*3 10.6 C 0 km/h
98 19-04-2020 08:05:00 10.6 C 9.37 g/m*3 10.6 C 0 km/h
99 19-04-2020 08:10:00 10.7 C 9.43 g/m*3 10.7 C 0 km/h
100 19-04-2020 08:15:00 10.8 C 9.49 g/m*3 10.8 C 1.6 km/h
Sensor: Nr:Datum:Temp:Abs-Feuchte:Windchill:Wind:
Aussen-T/F 101 19-04-2020 08:20:00 11.1 C 9.67 g/m*3 11.1 C 3.2 km/h
102 19-04-2020 08:25:00 11.1 C 9.67 g/m*3 11.1 C 1.6 km/h
103 19-04-2020 08:30:00 11.2 C 9.73 g/m*3 11.2 C 0 km/h
104 19-04-2020 08:35:00 11.3 C 9.79 g/m*3 11.3 C 0 km/h
105 19-04-2020 08:40:00 11.4 C 9.85 g/m*3 11.4 C 0 km/h
106 19-04-2020 08:45:00 11.7 C 10.04 g/m*3 11.7 C 0 km/h
107 19-04-2020 08:50:00 11.8 C 10.1 g/m*3 11.8 C 3.2 km/h
108 19-04-2020 08:55:00 11.9 C 10.17 g/m*3 11.9 C 3.2 km/h
109 19-04-2020 09:00:00 12 C 10.12 g/m*3 12 C 1.6 km/h
110 19-04-2020 09:05:00 12.1 C 10.19 g/m*3 12.1 C 0 km/h
111 19-04-2020 09:10:00 12.2 C 10.25 g/m*3 12.2 C 0 km/h
112 19-04-2020 09:15:00 12.3 C 10.21 g/m*3 12.3 C 0 km/h
113 19-04-2020 09:20:00 12.3 C 10.1 g/m*3 12.3 C 3.2 km/h
114 19-04-2020 09:25:00 12.4 C 10.05 g/m*3 12.4 C 3.2 km/h
115 19-04-2020 09:30:00 12.6 C 10.18 g/m*3 12.6 C 0 km/h
116 19-04-2020 09:35:00 12.7 C 10.13 g/m*3 12.7 C 0 km/h
117 19-04-2020 09:40:00 12.8 C 10.19 g/m*3 12.8 C 1.6 km/h
118 19-04-2020 09:45:00 12.9 C 10.26 g/m*3 12.9 C 0 km/h
119 19-04-2020 09:50:00 13 C 10.09 g/m*3 13 C 1.6 km/h
120 19-04-2020 09:55:00 13.1 C 10.16 g/m*3 13.1 C 0 km/h
121 19-04-2020 10:00:00 13.2 C 10.1 g/m*3 13.2 C 0 km/h
122 19-04-2020 10:05:00 13.3 C 10.17 g/m*3 13.3 C 0 km/h
123 19-04-2020 10:10:00 13.4 C 10.11 g/m*3 13.4 C 0 km/h
124 19-04-2020 10:15:00 13.5 C 10.18 g/m*3 13.5 C 0 km/h
125 19-04-2020 10:20:00 13.8 C 10.37 g/m*3 13.8 C 3.2 km/h
Sensor: Nr:Datum:Temp:Abs-Feuchte:Windchill:Wind:
Aussen-T/F 126 19-04-2020 10:25:00 14 C 10.37 g/m*3 14 C 0 km/h
127 19-04-2020 10:30:00 14.1 C 10.19 g/m*3 14.1 C 0 km/h
128 19-04-2020 10:35:00 14.1 C 10.19 g/m*3 14.1 C 3.2 km/h
129 19-04-2020 10:40:00 14.3 C 10.32 g/m*3 14.3 C 3.2 km/h
130 19-04-2020 10:45:00 14.4 C 10.26 g/m*3 14.4 C 0 km/h
131 19-04-2020 10:50:00 14.5 C 10.32 g/m*3 14.5 C 1.6 km/h
132 19-04-2020 10:55:00 14.6 C 10.26 g/m*3 14.6 C 3.2 km/h
133 19-04-2020 11:00:00 14.6 C 10.14 g/m*3 14.6 C 4.8 km/h
134 19-04-2020 11:05:00 14.6 C 10.14 g/m*3 14.6 C 4.8 km/h
135 19-04-2020 11:10:00 14.4 C 10.01 g/m*3 14.4 C 6.4 km/h
136 19-04-2020 11:15:00 14.3 C 10.07 g/m*3 14.3 C 11.3 km/h
137 19-04-2020 11:20:00 14.3 C 10.07 g/m*3 14.3 C 6.4 km/h
138 19-04-2020 11:25:00 14.3 C 10.07 g/m*3 14.3 C 8.1 km/h
139 19-04-2020 11:30:00 14.3 C 10.07 g/m*3 14.3 C 4.8 km/h
140 19-04-2020 11:35:00 14.2 C 10.14 g/m*3 14.2 C 6.4 km/h
141 19-04-2020 11:40:00 14.2 C 10.14 g/m*3 14.2 C 6.4 km/h
142 19-04-2020 11:45:00 14.1 C 10.07 g/m*3 14.1 C 9.7 km/h
143 19-04-2020 11:50:00 13.9 C 10.07 g/m*3 13.9 C 6.4 km/h
144 19-04-2020 11:55:00 13.9 C 10.19 g/m*3 13.9 C 1.6 km/h
145 19-04-2020 12:00:00 13.8 C 10.01 g/m*3 13.8 C 4.8 km/h
146 19-04-2020 12:05:00 13.8 C 10.01 g/m*3 13.8 C 8.1 km/h
147 19-04-2020 12:10:00 13.9 C 10.07 g/m*3 13.9 C 6.4 km/h
148 19-04-2020 12:15:00 13.9 C 9.83 g/m*3 13.9 C 6.4 km/h
149 19-04-2020 12:20:00 14.1 C 9.95 g/m*3 14.1 C 6.4 km/h
150 19-04-2020 12:25:00 14.3 C 10.07 g/m*3 14.3 C 3.2 km/h
Sensor: Nr:Datum:Temp:Abs-Feuchte:Windchill:Wind:
Aussen-T/F 151 19-04-2020 12:30:00 14.4 C 9.89 g/m*3 14.4 C 6.4 km/h
152 19-04-2020 12:35:00 14.6 C 10.01 g/m*3 14.6 C 6.4 km/h
153 19-04-2020 12:40:00 14.8 C 9.88 g/m*3 14.8 C 8.1 km/h
154 19-04-2020 12:45:00 14.9 C 9.81 g/m*3 14.9 C 4.8 km/h
155 19-04-2020 12:50:00 15.1 C 9.93 g/m*3 15.1 C 4.8 km/h
156 19-04-2020 12:55:00 15.3 C 9.92 g/m*3 15.3 C 4.8 km/h
157 19-04-2020 13:00:00 15.6 C 9.97 g/m*3 15.6 C 9.7 km/h
158 19-04-2020 13:05:00 15.8 C 9.96 g/m*3 15.8 C 8.1 km/h
159 19-04-2020 13:10:00 15.9 C 10.02 g/m*3 15.9 C 8.1 km/h
160 19-04-2020 13:15:00 15.9 C 9.89 g/m*3 15.9 C 6.4 km/h
161 19-04-2020 13:20:00 16 C 9.95 g/m*3 16 C 6.4 km/h
162 19-04-2020 13:25:00 16.2 C 10.07 g/m*3 16.2 C 4.8 km/h
163 19-04-2020 13:30:00 16.3 C 9.99 g/m*3 16.3 C 4.8 km/h
164 19-04-2020 13:35:00 16.4 C 10.05 g/m*3 16.4 C 4.8 km/h
165 19-04-2020 13:40:00 16.7 C 10.23 g/m*3 16.7 C 0 km/h
166 19-04-2020 13:45:00 16.8 C 10.15 g/m*3 16.8 C 6.4 km/h
167 19-04-2020 13:50:00 16.9 C 10.07 g/m*3 16.9 C 6.4 km/h
168 19-04-2020 13:55:00 17.1 C 10.04 g/m*3 17.1 C 8.1 km/h
169 19-04-2020 14:00:00 17.1 C 10.04 g/m*3 17.1 C 8.1 km/h
170 19-04-2020 14:05:00 17.2 C 9.96 g/m*3 17.2 C 12.9 km/h
171 19-04-2020 14:10:00 17.1 C 9.75 g/m*3 17.1 C 17.7 km/h
172 19-04-2020 14:15:00 17.1 C 9.9 g/m*3 17.1 C 12.9 km/h
173 19-04-2020 14:20:00 17.2 C 9.96 g/m*3 17.2 C 12.9 km/h
174 19-04-2020 14:25:00 17.2 C 9.96 g/m*3 17.2 C 11.3 km/h
175 19-04-2020 14:30:00 17 C 9.84 g/m*3 17 C 14.5 km/h
Sensor: Nr:Datum:Temp:Abs-Feuchte:Windchill:Wind:
Aussen-T/F 176 19-04-2020 14:35:00 16.9 C 9.92 g/m*3 16.9 C 11.3 km/h
177 19-04-2020 14:40:00 16.9 C 10.07 g/m*3 16.9 C 3.2 km/h
178 19-04-2020 14:45:00 17 C 9.98 g/m*3 17 C 4.8 km/h
179 19-04-2020 14:50:00 17 C 9.84 g/m*3 17 C 9.7 km/h
180 19-04-2020 14:55:00 16.8 C 9.87 g/m*3 16.8 C 11.3 km/h
181 19-04-2020 15:00:00 16.6 C 9.61 g/m*3 16.6 C 12.9 km/h
182 19-04-2020 15:05:00 16.5 C 9.69 g/m*3 16.5 C 4.8 km/h
183 19-04-2020 15:10:00 16.4 C 9.35 g/m*3 16.4 C 14.5 km/h
184 19-04-2020 15:15:00 16.3 C 9.3 g/m*3 16.3 C 9.7 km/h
185 19-04-2020 15:20:00 16.3 C 9.16 g/m*3 16.3 C 8.1 km/h
186 19-04-2020 15:25:00 16.2 C 9.1 g/m*3 16.2 C 8.1 km/h
187 19-04-2020 15:30:00 16.3 C 9.02 g/m*3 16.3 C 12.9 km/h
188 19-04-2020 15:35:00 16.3 C 9.02 g/m*3 16.3 C 12.9 km/h
189 19-04-2020 15:40:00 16.4 C 9.07 g/m*3 16.4 C 8.1 km/h
190 19-04-2020 15:45:00 16.6 C 9.18 g/m*3 16.6 C 9.7 km/h
191 19-04-2020 15:50:00 16.6 C 9.04 g/m*3 16.6 C 9.7 km/h
192 19-04-2020 15:55:00 16.7 C 9.1 g/m*3 16.7 C 6.4 km/h
193 19-04-2020 16:00:00 16.9 C 9.35 g/m*3 16.9 C 9.7 km/h
194 19-04-2020 16:05:00 17.1 C 9.17 g/m*3 17.1 C 14.5 km/h
195 19-04-2020 16:10:00 17.3 C 9.13 g/m*3 17.3 C 14.5 km/h
196 19-04-2020 16:15:00 17.6 C 9.15 g/m*3 17.6 C 12.9 km/h
197 19-04-2020 16:20:00 17.8 C 9.11 g/m*3 17.8 C 12.9 km/h
198 19-04-2020 16:25:00 17.8 C 8.95 g/m*3 17.8 C 8.1 km/h
199 19-04-2020 16:30:00 17.6 C 9 g/m*3 17.6 C 11.3 km/h
200 19-04-2020 16:35:00 17.4 C 8.89 g/m*3 17.4 C 12.9 km/h
Sensor: Nr:Datum:Temp:Abs-Feuchte:Windchill:Wind:
Aussen-T/F 201 19-04-2020 16:40:00 17.4 C 8.89 g/m*3 17.4 C 16.1 km/h
202 19-04-2020 16:45:00 17.6 C 9 g/m*3 17.6 C 16.1 km/h
203 19-04-2020 16:50:00 17.8 C 9.26 g/m*3 17.8 C 16.1 km/h
204 19-04-2020 16:55:00 18.1 C 9.12 g/m*3 18.1 C 19.3 km/h
205 19-04-2020 17:00:00 17.6 C 8.7 g/m*3 17.6 C 25.7 km/h
206 19-04-2020 17:05:00 17.1 C 8.88 g/m*3 17.1 C 25.7 km/h
207 19-04-2020 17:10:00 17.2 C 8.93 g/m*3 17.2 C 17.7 km/h
208 19-04-2020 17:15:00 17.2 C 8.64 g/m*3 17.2 C 19.3 km/h
209 19-04-2020 17:20:00 17.4 C 8.74 g/m*3 17.4 C 19.3 km/h
210 19-04-2020 17:25:00 17.6 C 8.7 g/m*3 17.6 C 12.9 km/h
211 19-04-2020 17:30:00 17.8 C 8.65 g/m*3 17.8 C 17.7 km/h
212 19-04-2020 17:35:00 17.4 C 8.3 g/m*3 17.4 C 25.7 km/h
213 19-04-2020 17:40:00 17.3 C 8.54 g/m*3 17.3 C 19.3 km/h
214 19-04-2020 17:45:00 17.5 C 8.5 g/m*3 17.5 C 19.3 km/h
215 19-04-2020 17:50:00 17.4 C 8.3 g/m*3 17.4 C 22.5 km/h
216 19-04-2020 17:55:00 17.3 C 8.25 g/m*3 17.3 C 20.9 km/h
217 19-04-2020 18:00:00 17.2 C 8.2 g/m*3 17.2 C 24.1 km/h
218 19-04-2020 18:05:00 17.3 C 8.25 g/m*3 17.3 C 27.4 km/h
219 19-04-2020 18:10:00 17.2 C 8.35 g/m*3 17.2 C 17.7 km/h
220 19-04-2020 18:15:00 17.3 C 8.1 g/m*3 17.3 C 11.3 km/h
221 19-04-2020 18:20:00 17.4 C 8.15 g/m*3 17.4 C 16.1 km/h
222 19-04-2020 18:25:00 17.5 C 7.9 g/m*3 17.5 C 14.5 km/h
223 19-04-2020 18:30:00 17.4 C 7.85 g/m*3 17.4 C 19.3 km/h
224 19-04-2020 18:35:00 17.3 C 7.81 g/m*3 17.3 C 14.5 km/h
225 19-04-2020 18:40:00 17.3 C 7.66 g/m*3 17.3 C 9.7 km/h
Sensor: Nr:Datum:Temp:Abs-Feuchte:Windchill:Wind:
Aussen-T/F 226 19-04-2020 18:45:00 17.1 C 7.42 g/m*3 17.1 C 14.5 km/h
227 19-04-2020 18:50:00 17.1 C 7.42 g/m*3 17.1 C 12.9 km/h
228 19-04-2020 18:55:00 17.3 C 7.81 g/m*3 17.3 C 9.7 km/h
229 19-04-2020 19:00:00 17.4 C 7.56 g/m*3 17.4 C 6.4 km/h
230 19-04-2020 19:05:00 17.6 C 7.5 g/m*3 17.6 C 11.3 km/h
231 19-04-2020 19:10:00 17.3 C 7.37 g/m*3 17.3 C 11.3 km/h
232 19-04-2020 19:15:00 17.2 C 7.47 g/m*3 17.2 C 8.1 km/h
233 19-04-2020 19:20:00 16.8 C 7.29 g/m*3 16.8 C 17.7 km/h
234 19-04-2020 19:25:00 16.6 C 7.49 g/m*3 16.6 C 6.4 km/h
235 19-04-2020 19:30:00 16.6 C 7.35 g/m*3 16.6 C 6.4 km/h
236 19-04-2020 19:35:00 16.4 C 6.98 g/m*3 16.4 C 6.4 km/h
237 19-04-2020 19:40:00 16.2 C 7.03 g/m*3 16.2 C 4.8 km/h
238 19-04-2020 19:45:00 16 C 7.22 g/m*3 16 C 4.8 km/h
239 19-04-2020 19:50:00 15.8 C 7.27 g/m*3 15.8 C 8.1 km/h
240 19-04-2020 19:55:00 15.7 C 7.23 g/m*3 15.7 C 3.2 km/h
241 19-04-2020 20:00:00 15.4 C 7.36 g/m*3 15.4 C 1.6 km/h
242 19-04-2020 20:05:00 15.3 C 7.44 g/m*3 15.3 C 3.2 km/h
243 19-04-2020 20:10:00 15.1 C 7.61 g/m*3 15.1 C 0 km/h
244 19-04-2020 20:15:00 14.8 C 7.47 g/m*3 14.8 C 1.6 km/h
245 19-04-2020 20:20:00 14.3 C 7.49 g/m*3 14.3 C 1.6 km/h
246 19-04-2020 20:25:00 14 C 7.36 g/m*3 14 C 0 km/h
247 19-04-2020 20:30:00 13.7 C 7.46 g/m*3 13.7 C 0 km/h
248 19-04-2020 20:35:00 13.3 C 7.28 g/m*3 13.3 C 1.6 km/h
249 19-04-2020 20:40:00 13.1 C 7.42 g/m*3 13.1 C 0 km/h
250 19-04-2020 20:45:00 12.8 C 7.39 g/m*3 12.8 C 0 km/h
Sensor: Nr:Datum:Temp:Abs-Feuchte:Windchill:Wind:
Aussen-T/F 251 19-04-2020 20:50:00 12.6 C 7.3 g/m*3 12.6 C 0 km/h
252 19-04-2020 20:55:00 12.4 C 7.21 g/m*3 12.4 C 0 km/h
253 19-04-2020 21:00:00 12.3 C 7.28 g/m*3 12.3 C 0 km/h
254 19-04-2020 21:05:00 12.2 C 7.23 g/m*3 12.2 C 0 km/h
255 19-04-2020 21:10:00 12.1 C 7.08 g/m*3 12.1 C 0 km/h
256 19-04-2020 21:15:00 12 C 7.14 g/m*3 12 C 0 km/h
257 19-04-2020 21:20:00 11.9 C 7.2 g/m*3 11.9 C 0 km/h
258 19-04-2020 21:25:00 11.8 C 7.16 g/m*3 11.8 C 0 km/h
259 19-04-2020 21:30:00 11.7 C 7.11 g/m*3 11.7 C 0 km/h
260 19-04-2020 21:35:00 11.6 C 7.07 g/m*3 11.6 C 0 km/h
261 19-04-2020 21:40:00 11.6 C 7.07 g/m*3 11.6 C 0 km/h
262 19-04-2020 21:45:00 11.4 C 6.98 g/m*3 11.4 C 0 km/h
263 19-04-2020 21:50:00 11.4 C 6.88 g/m*3 11.4 C 0 km/h
264 19-04-2020 21:55:00 11.3 C 6.83 g/m*3 11.3 C 0 km/h
265 19-04-2020 22:00:00 11.3 C 6.63 g/m*3 11.3 C 0 km/h
266 19-04-2020 22:05:00 11.4 C 6.77 g/m*3 11.4 C 0 km/h
267 19-04-2020 22:10:00 11.4 C 6.67 g/m*3 11.4 C 0 km/h
268 19-04-2020 22:15:00 11.4 C 6.77 g/m*3 11.4 C 0 km/h
269 19-04-2020 22:20:00 11.3 C 6.63 g/m*3 11.3 C 0 km/h
270 19-04-2020 22:25:00 11.2 C 6.59 g/m*3 11.2 C 4.8 km/h
271 19-04-2020 22:30:00 11.2 C 6.49 g/m*3 11.2 C 0 km/h
272 19-04-2020 22:35:00 11.1 C 6.45 g/m*3 11.1 C 0 km/h
273 19-04-2020 22:40:00 11 C 6.41 g/m*3 11 C 3.2 km/h
274 19-04-2020 22:45:00 10.8 C 6.42 g/m*3 10.8 C 1.6 km/h
275 19-04-2020 22:50:00 10.7 C 6.19 g/m*3 10.7 C 3.2 km/h
Sensor: Nr:Datum:Temp:Abs-Feuchte:Windchill:Wind:
Aussen-T/F 276 19-04-2020 22:55:00 10.7 C 6.29 g/m*3 10.7 C 0 km/h
277 19-04-2020 23:00:00 10.8 C 5.73 g/m*3 10.29 C 6.4 km/h
278 19-04-2020 23:05:00 11.1 C 6.25 g/m*3 11.1 C 1.6 km/h
279 19-04-2020 23:10:00 11.1 C 6.14 g/m*3 11.1 C 0 km/h
280 19-04-2020 23:15:00 10.8 C 6.13 g/m*3 10.8 C 0 km/h
281 19-04-2020 23:20:00 10.6 C 6.15 g/m*3 10.6 C 0 km/h
282 19-04-2020 23:25:00 10.3 C 6.03 g/m*3 10.3 C 4.8 km/h
283 19-04-2020 23:30:00 10.2 C 6 g/m*3 10.2 C 1.6 km/h
284 19-04-2020 23:35:00 10.3 C 5.84 g/m*3 9.72 C 6.4 km/h
285 19-04-2020 23:40:00 10.4 C 5.69 g/m*3 10.4 C 3.2 km/h
286 19-04-2020 23:45:00 10.6 C 5.66 g/m*3 10.06 C 6.4 km/h
287 19-04-2020 23:50:00 10.8 C 6.03 g/m*3 10.8 C 1.6 km/h
288 19-04-2020 23:55:00 10.7 C 5.89 g/m*3 9.81 C 8.1 km/h
289 20-04-2020 00:00:00 10.7 C 5.7 g/m*3 10.7 C 3.2 km/h
290 20-04-2020 00:05:00 10.6 C 5.86 g/m*3 10.6 C 1.6 km/h
291 20-04-2020 00:10:00 10.4 C 5.88 g/m*3 10.4 C 0 km/h
292 20-04-2020 00:15:00 10.2 C 5.71 g/m*3 10.2 C 1.6 km/h
293 20-04-2020 00:20:00 10.1 C 5.39 g/m*3 10.1 C 3.2 km/h
294 20-04-2020 00:25:00 10.2 C 5.33 g/m*3 9.6 C 6.4 km/h
295 20-04-2020 00:30:00 10.3 C 5.65 g/m*3 10.3 C 1.6 km/h
296 20-04-2020 00:35:00 10.3 C 5.55 g/m*3 10.3 C 4.8 km/h
297 20-04-2020 00:40:00 10.3 C 5.65 g/m*3 10.3 C 3.2 km/h
298 20-04-2020 00:45:00 10.2 C 5.52 g/m*3 10.2 C 3.2 km/h
299 20-04-2020 00:50:00 10.2 C 5.42 g/m*3 10.2 C 1.6 km/h
300 20-04-2020 00:55:00 10.1 C 5.58 g/m*3 10.1 C 1.6 km/h
Sensor: Nr:Datum:Temp:Abs-Feuchte:Windchill:Wind:
Aussen-T/F 301 20-04-2020 01:00:00 9.9 C 5.32 g/m*3 8.56 C 9.7 km/h
302 20-04-2020 01:05:00 10 C 5.36 g/m*3 9.37 C 6.4 km/h
303 20-04-2020 01:10:00 10 C 5.36 g/m*3 10 C 3.2 km/h
304 20-04-2020 01:15:00 9.9 C 5.32 g/m*3 9.25 C 6.4 km/h
305 20-04-2020 01:20:00 9.9 C 5.42 g/m*3 9.9 C 1.6 km/h
306 20-04-2020 01:25:00 9.9 C 5.14 g/m*3 8.06 C 12.9 km/h
307 20-04-2020 01:30:00 10.1 C 5.48 g/m*3 10.1 C 1.6 km/h
308 20-04-2020 01:35:00 9.9 C 5.32 g/m*3 9.9 C 4.8 km/h
309 20-04-2020 01:40:00 9.8 C 5.38 g/m*3 9.8 C 3.2 km/h
310 20-04-2020 01:45:00 9.7 C 5.44 g/m*3 9.7 C 1.6 km/h
311 20-04-2020 01:50:00 9.5 C 5.46 g/m*3 9.5 C 1.6 km/h
312 20-04-2020 01:55:00 9.2 C 5.54 g/m*3 9.2 C 0 km/h
313 20-04-2020 02:00:00 9 C 5.47 g/m*3 9 C 1.6 km/h
314 20-04-2020 02:05:00 8.8 C 5.48 g/m*3 8.8 C 0 km/h
315 20-04-2020 02:10:00 8.5 C 5.29 g/m*3 8.5 C 1.6 km/h
316 20-04-2020 02:15:00 8.4 C 5.34 g/m*3 8.4 C 0 km/h
317 20-04-2020 02:20:00 8.3 C 5.48 g/m*3 8.3 C 0 km/h
318 20-04-2020 02:25:00 8.2 C 5.36 g/m*3 8.2 C 3.2 km/h
319 20-04-2020 02:30:00 7.9 C 5.42 g/m*3 7.9 C 1.6 km/h
320 20-04-2020 02:35:00 7.8 C 5.3 g/m*3 7.8 C 1.6 km/h
321 20-04-2020 02:40:00 7.7 C 5.43 g/m*3 7.7 C 0 km/h
322 20-04-2020 02:45:00 7.6 C 5.32 g/m*3 7.6 C 1.6 km/h
323 20-04-2020 02:50:00 7.6 C 5.48 g/m*3 7.6 C 0 km/h
324 20-04-2020 02:55:00 7.5 C 5.44 g/m*3 7.5 C 0 km/h
325 20-04-2020 03:00:00 7.4 C 5.25 g/m*3 7.4 C 3.2 km/h
Sensor: Nr:Datum:Temp:Abs-Feuchte:Windchill:Wind:
Aussen-T/F 326 20-04-2020 03:05:00 7.4 C 5.33 g/m*3 7.4 C 3.2 km/h
327 20-04-2020 03:10:00 7.4 C 5.41 g/m*3 7.4 C 1.6 km/h
328 20-04-2020 03:15:00 7.3 C 5.37 g/m*3 7.3 C 0 km/h
329 20-04-2020 03:20:00 7.3 C 5.37 g/m*3 7.3 C 1.6 km/h
330 20-04-2020 03:25:00 7.2 C 5.42 g/m*3 7.2 C 1.6 km/h
331 20-04-2020 03:30:00 7.1 C 5.3 g/m*3 7.1 C 3.2 km/h
332 20-04-2020 03:35:00 7.1 C 5.3 g/m*3 7.1 C 0 km/h
333 20-04-2020 03:40:00 7.2 C 5.34 g/m*3 7.2 C 1.6 km/h
334 20-04-2020 03:45:00 7.1 C 5.38 g/m*3 7.1 C 0 km/h
335 20-04-2020 03:50:00 7.1 C 5.38 g/m*3 7.1 C 0 km/h
336 20-04-2020 03:55:00 7 C 5.35 g/m*3 7 C 0 km/h
337 20-04-2020 04:00:00 6.9 C 5.31 g/m*3 6.9 C 0 km/h
338 20-04-2020 04:05:00 6.8 C 5.35 g/m*3 6.8 C 1.6 km/h
339 20-04-2020 04:10:00 6.7 C 5.32 g/m*3 6.7 C 1.6 km/h
340 20-04-2020 04:15:00 6.7 C 5.32 g/m*3 6.7 C 0 km/h
341 20-04-2020 04:20:00 6.6 C 5.28 g/m*3 6.6 C 4.8 km/h
342 20-04-2020 04:25:00 6.6 C 5.28 g/m*3 6.6 C 0 km/h
343 20-04-2020 04:30:00 6.6 C 5.28 g/m*3 6.6 C 0 km/h
344 20-04-2020 04:35:00 6.6 C 5.28 g/m*3 6.6 C 1.6 km/h
345 20-04-2020 04:40:00 6.5 C 5.25 g/m*3 6.5 C 3.2 km/h
346 20-04-2020 04:45:00 6.5 C 5.25 g/m*3 6.5 C 1.6 km/h
347 20-04-2020 04:50:00 6.4 C 5.29 g/m*3 6.4 C 1.6 km/h
348 20-04-2020 04:55:00 6.4 C 5.22 g/m*3 6.4 C 1.6 km/h
349 20-04-2020 05:00:00 6.4 C 5.14 g/m*3 6.4 C 4.8 km/h
350 20-04-2020 05:05:00 6.6 C 5.28 g/m*3 6.6 C 0 km/h
Sensor: Nr:Datum:Temp:Abs-Feuchte:Windchill:Wind:
Aussen-T/F 351 20-04-2020 05:10:00 6.6 C 5.28 g/m*3 6.6 C 1.6 km/h
352 20-04-2020 05:15:00 6.7 C 5.32 g/m*3 6.7 C 0 km/h
353 20-04-2020 05:20:00 6.7 C 5.32 g/m*3 6.7 C 1.6 km/h
354 20-04-2020 05:25:00 6.7 C 5.32 g/m*3 6.7 C 0 km/h
355 20-04-2020 05:30:00 6.6 C 5.28 g/m*3 6.6 C 0 km/h
356 20-04-2020 05:35:00 6.6 C 5.36 g/m*3 6.6 C 1.6 km/h
357 20-04-2020 05:40:00 6.5 C 5.25 g/m*3 6.5 C 1.6 km/h
358 20-04-2020 05:45:00 6.5 C 5.25 g/m*3 6.5 C 1.6 km/h
359 20-04-2020 05:50:00 6.5 C 5.32 g/m*3 6.5 C 3.2 km/h
360 20-04-2020 05:55:00 6.5 C 5.32 g/m*3 6.5 C 3.2 km/h
361 20-04-2020 06:00:00 6.4 C 5.29 g/m*3 6.4 C 0 km/h
362 20-04-2020 06:05:00 6.4 C 5.29 g/m*3 6.4 C 1.6 km/h
363 20-04-2020 06:10:00 6.4 C 5.29 g/m*3 6.4 C 1.6 km/h
364 20-04-2020 06:15:00 6.3 C 5.26 g/m*3 6.3 C 1.6 km/h
365 20-04-2020 06:20:00 6.3 C 5.18 g/m*3 6.3 C 1.6 km/h
366 20-04-2020 06:25:00 6.3 C 5.26 g/m*3 6.3 C 1.6 km/h
367 20-04-2020 06:30:00 6.4 C 5.22 g/m*3 6.4 C 3.2 km/h
368 20-04-2020 06:35:00 6.5 C 5.32 g/m*3 6.5 C 3.2 km/h
369 20-04-2020 06:40:00 6.4 C 5.29 g/m*3 6.4 C 1.6 km/h
370 20-04-2020 06:45:00 6.4 C 5.36 g/m*3 6.4 C 0 km/h
371 20-04-2020 06:50:00 6.3 C 5.33 g/m*3 6.3 C 0 km/h
372 20-04-2020 06:55:00 6.3 C 5.33 g/m*3 6.3 C 3.2 km/h
373 20-04-2020 07:00:00 6.4 C 5.22 g/m*3 6.4 C 3.2 km/h
374 20-04-2020 07:05:00 6.5 C 5.25 g/m*3 6.5 C 3.2 km/h
375 20-04-2020 07:10:00 6.7 C 5.32 g/m*3 6.7 C 1.6 km/h
Sensor: Nr:Datum:Temp:Abs-Feuchte:Windchill:Wind:
Aussen-T/F 376 20-04-2020 07:15:00 6.7 C 5.32 g/m*3 6.7 C 3.2 km/h
377 20-04-2020 07:20:00 6.7 C 5.32 g/m*3 6.7 C 3.2 km/h
378 20-04-2020 07:25:00 6.7 C 5.47 g/m*3 6.7 C 1.6 km/h
379 20-04-2020 07:30:00 6.8 C 5.2 g/m*3 6.8 C 1.6 km/h
380 20-04-2020 07:35:00 6.9 C 5.39 g/m*3 6.9 C 1.6 km/h
381 20-04-2020 07:40:00 7.1 C 5.23 g/m*3 6.02 C 6.4 km/h
382 20-04-2020 07:45:00 7.3 C 5.29 g/m*3 7.3 C 3.2 km/h
383 20-04-2020 07:50:00 7.4 C 5.17 g/m*3 7.4 C 4.8 km/h
384 20-04-2020 07:55:00 7.7 C 5.27 g/m*3 6.28 C 8.1 km/h
385 20-04-2020 08:00:00 7.8 C 5.3 g/m*3 7.8 C 4.8 km/h
386 20-04-2020 08:05:00 7.9 C 5.34 g/m*3 6.18 C 9.7 km/h
387 20-04-2020 08:10:00 8.1 C 5.24 g/m*3 8.1 C 4.8 km/h
388 20-04-2020 08:15:00 8.2 C 5.19 g/m*3 7.29 C 6.4 km/h
389 20-04-2020 08:20:00 8.4 C 5.43 g/m*3 8.4 C 4.8 km/h
390 20-04-2020 08:25:00 8.4 C 5.43 g/m*3 7.52 C 6.4 km/h
391 20-04-2020 08:30:00 8.4 C 5.34 g/m*3 8.4 C 3.2 km/h
392 20-04-2020 08:35:00 8.4 C 5.43 g/m*3 8.4 C 4.8 km/h
393 20-04-2020 08:40:00 8.4 C 5.34 g/m*3 8.4 C 4.8 km/h
394 20-04-2020 08:45:00 8.5 C 5.29 g/m*3 8.5 C 4.8 km/h
395 20-04-2020 08:50:00 8.7 C 5.45 g/m*3 7.87 C 6.4 km/h
396 20-04-2020 08:55:00 8.8 C 5.4 g/m*3 7.25 C 9.7 km/h
397 20-04-2020 09:00:00 8.8 C 5.4 g/m*3 7.58 C 8.1 km/h
398 20-04-2020 09:05:00 8.9 C 5.43 g/m*3 7.69 C 8.1 km/h
399 20-04-2020 09:10:00 8.9 C 5.61 g/m*3 8.9 C 3.2 km/h
400 20-04-2020 09:15:00 9 C 5.38 g/m*3 7.81 C 8.1 km/h
Sensor: Nr:Datum:Temp:Abs-Feuchte:Windchill:Wind:
Aussen-T/F 401 20-04-2020 09:20:00 9 C 5.64 g/m*3 9 C 3.2 km/h
402 20-04-2020 09:25:00 9.1 C 5.77 g/m*3 9.1 C 1.6 km/h
403 20-04-2020 09:30:00 9 C 5.47 g/m*3 8.21 C 6.4 km/h
404 20-04-2020 09:35:00 9.3 C 5.84 g/m*3 7.85 C 9.7 km/h
405 20-04-2020 09:40:00 9.4 C 5.52 g/m*3 8.28 C 8.1 km/h
406 20-04-2020 09:45:00 9.7 C 5.53 g/m*3 9.02 C 6.4 km/h
407 20-04-2020 09:50:00 9.7 C 5.81 g/m*3 9.7 C 3.2 km/h
408 20-04-2020 09:55:00 9.7 C 5.53 g/m*3 8.63 C 8.1 km/h
409 20-04-2020 10:00:00 9.9 C 5.7 g/m*3 8.87 C 8.1 km/h
410 20-04-2020 10:05:00 10.1 C 5.77 g/m*3 10.1 C 3.2 km/h
411 20-04-2020 10:10:00 10.4 C 5.59 g/m*3 8.67 C 12.9 km/h
412 20-04-2020 10:15:00 10.7 C 5.6 g/m*3 9.81 C 8.1 km/h
413 20-04-2020 10:20:00 11.2 C 5.47 g/m*3 11.2 C 12.9 km/h
414 20-04-2020 10:25:00 11.5 C 5.58 g/m*3 11.5 C 11.3 km/h
415 20-04-2020 10:30:00 11.8 C 5.47 g/m*3 11.8 C 9.7 km/h
416 20-04-2020 10:35:00 12.1 C 5.9 g/m*3 12.1 C 9.7 km/h
417 20-04-2020 10:40:00 12.2 C 5.61 g/m*3 12.2 C 12.9 km/h
418 20-04-2020 10:45:00 12.5 C 5.61 g/m*3 12.5 C 11.3 km/h
419 20-04-2020 10:50:00 12.7 C 5.45 g/m*3 12.7 C 11.3 km/h
420 20-04-2020 10:55:00 13 C 5.56 g/m*3 13 C 9.7 km/h
421 20-04-2020 11:00:00 13.3 C 5.31 g/m*3 13.3 C 16.1 km/h
422 20-04-2020 11:05:00 13.4 C 5.35 g/m*3 13.4 C 17.7 km/h
423 20-04-2020 11:10:00 13.7 C 5.45 g/m*3 13.7 C 17.7 km/h
424 20-04-2020 11:15:00 13.8 C 5.36 g/m*3 13.8 C 14.5 km/h
425 20-04-2020 11:20:00 13.9 C 5.63 g/m*3 13.9 C 17.7 km/h
Sensor: Nr:Datum:Temp:Abs-Feuchte:Windchill:Wind:
Aussen-T/F 426 20-04-2020 11:25:00 14.2 C 5.98 g/m*3 14.2 C 16.1 km/h
427 20-04-2020 11:30:00 14.3 C 5.28 g/m*3 14.3 C 14.5 km/h
428 20-04-2020 11:35:00 14.4 C 5.44 g/m*3 14.4 C 14.5 km/h
429 20-04-2020 11:40:00 14.6 C 5.38 g/m*3 14.6 C 14.5 km/h
430 20-04-2020 11:45:00 14.7 C 5.41 g/m*3 14.7 C 12.9 km/h
431 20-04-2020 11:50:00 14.8 C 5.32 g/m*3 14.8 C 12.9 km/h
432 20-04-2020 11:55:00 14.9 C 5.23 g/m*3 14.9 C 22.5 km/h
433 20-04-2020 12:00:00 14.9 C 5.23 g/m*3 14.9 C 19.3 km/h
434 20-04-2020 12:05:00 15 C 5.51 g/m*3 15 C 11.3 km/h
435 20-04-2020 12:10:00 15 C 5.13 g/m*3 15 C 17.7 km/h
436 20-04-2020 12:15:00 14.9 C 5.1 g/m*3 14.9 C 27.4 km/h
437 20-04-2020 12:20:00 14.9 C 5.23 g/m*3 14.9 C 12.9 km/h
438 20-04-2020 12:25:00 15.1 C 5.16 g/m*3 15.1 C 14.5 km/h
439 20-04-2020 12:30:00 15.1 C 5.03 g/m*3 15.1 C 19.3 km/h
440 20-04-2020 12:35:00 15.1 C 5.03 g/m*3 15.1 C 19.3 km/h
441 20-04-2020 12:40:00 15.1 C 5.03 g/m*3 15.1 C 9.7 km/h
442 20-04-2020 12:45:00 15.1 C 5.16 g/m*3 15.1 C 17.7 km/h
443 20-04-2020 12:50:00 15.2 C 5.19 g/m*3 15.2 C 14.5 km/h
444 20-04-2020 12:55:00 15.3 C 5.09 g/m*3 15.3 C 14.5 km/h
445 20-04-2020 13:00:00 15.4 C 5.12 g/m*3 15.4 C 12.9 km/h
446 20-04-2020 13:05:00 15.5 C 5.02 g/m*3 15.5 C 12.9 km/h
447 20-04-2020 13:10:00 15.7 C 5.49 g/m*3 15.7 C 6.4 km/h
448 20-04-2020 13:15:00 15.9 C 5.15 g/m*3 15.9 C 16.1 km/h
449 20-04-2020 13:20:00 15.8 C 5.12 g/m*3 15.8 C 17.7 km/h
450 20-04-2020 13:25:00 15.9 C 5.15 g/m*3 15.9 C 14.5 km/h
Sensor: Nr:Datum:Temp:Abs-Feuchte:Windchill:Wind:
Aussen-T/F 451 20-04-2020 13:30:00 16.1 C 5.07 g/m*3 16.1 C 22.5 km/h
452 20-04-2020 13:35:00 16.2 C 5.24 g/m*3 16.2 C 9.7 km/h
453 20-04-2020 13:40:00 16.3 C 5.13 g/m*3 16.3 C 9.7 km/h
454 20-04-2020 13:45:00 16.4 C 5.16 g/m*3 16.4 C 12.9 km/h
455 20-04-2020 13:50:00 16.4 C 5.3 g/m*3 16.4 C 11.3 km/h
456 20-04-2020 13:55:00 16.7 C 5.12 g/m*3 16.7 C 20.9 km/h
457 20-04-2020 14:00:00 16.8 C 5.29 g/m*3 16.8 C 17.7 km/h
458 20-04-2020 14:05:00 16.9 C 5.18 g/m*3 16.9 C 19.3 km/h
459 20-04-2020 14:10:00 16.9 C 5.03 g/m*3 16.9 C 19.3 km/h
460 20-04-2020 14:15:00 17 C 5.06 g/m*3 17 C 19.3 km/h
461 20-04-2020 14:20:00 17.1 C 5.39 g/m*3 17.1 C 16.1 km/h
462 20-04-2020 14:25:00 17.3 C 4.86 g/m*3 17.3 C 17.7 km/h
463 20-04-2020 14:30:00 17.3 C 5.01 g/m*3 17.3 C 16.1 km/h
464 20-04-2020 14:35:00 17.3 C 5.01 g/m*3 17.3 C 16.1 km/h
465 20-04-2020 14:40:00 17.5 C 5.07 g/m*3 17.5 C 16.1 km/h
466 20-04-2020 14:45:00 17.6 C 5.1 g/m*3 17.6 C 19.3 km/h
467 20-04-2020 14:50:00 17.7 C 5.13 g/m*3 17.7 C 17.7 km/h
468 20-04-2020 14:55:00 17.8 C 5.16 g/m*3 17.8 C 19.3 km/h
469 20-04-2020 15:00:00 17.9 C 5.19 g/m*3 17.9 C 9.7 km/h
470 20-04-2020 15:05:00 18.1 C 4.94 g/m*3 18.1 C 19.3 km/h
471 20-04-2020 15:10:00 18 C 4.92 g/m*3 18 C 20.9 km/h
472 20-04-2020 15:15:00 18.1 C 4.94 g/m*3 18.1 C 12.9 km/h
473 20-04-2020 15:20:00 18.2 C 4.97 g/m*3 18.2 C 20.9 km/h
474 20-04-2020 15:25:00 18.3 C 5.16 g/m*3 18.3 C 16.1 km/h
475 20-04-2020 15:30:00 18.5 C 5.22 g/m*3 18.5 C 16.1 km/h
Sensor: Nr:Datum:Temp:Abs-Feuchte:Windchill:Wind:
Aussen-T/F 476 20-04-2020 15:35:00 18.6 C 5.09 g/m*3 18.6 C 11.3 km/h
477 20-04-2020 15:40:00 18.7 C 4.96 g/m*3 18.7 C 17.7 km/h
478 20-04-2020 15:45:00 18.8 C 4.99 g/m*3 18.8 C 17.7 km/h
479 20-04-2020 15:50:00 18.8 C 4.99 g/m*3 18.8 C 14.5 km/h
480 20-04-2020 15:55:00 18.9 C 5.02 g/m*3 18.9 C 22.5 km/h
481 20-04-2020 16:00:00 19 C 4.89 g/m*3 19 C 19.3 km/h
482 20-04-2020 16:05:00 19.1 C 5.08 g/m*3 19.1 C 19.3 km/h
483 20-04-2020 16:10:00 19.2 C 4.95 g/m*3 19.2 C 20.9 km/h
484 20-04-2020 16:15:00 19.3 C 4.98 g/m*3 19.3 C 17.7 km/h
485 20-04-2020 16:20:00 19.5 C 5.03 g/m*3 19.5 C 14.5 km/h
486 20-04-2020 16:25:00 19.7 C 5.26 g/m*3 19.7 C 24.1 km/h
487 20-04-2020 16:30:00 19.9 C 5.15 g/m*3 19.9 C 27.4 km/h
488 20-04-2020 16:35:00 19.6 C 5.06 g/m*3 19.6 C 27.4 km/h
489 20-04-2020 16:40:00 19.3 C 5.14 g/m*3 19.3 C 19.3 km/h
490 20-04-2020 16:45:00 19.7 C 5.43 g/m*3 19.7 C 14.5 km/h
491 20-04-2020 16:50:00 19.8 C 5.12 g/m*3 19.8 C 19.3 km/h
492 20-04-2020 16:55:00 19.9 C 5.5 g/m*3 19.9 C 12.9 km/h
493 20-04-2020 17:00:00 20.3 C 5.45 g/m*3 20.3 C 8.1 km/h
494 20-04-2020 17:05:00 20.6 C 5.55 g/m*3 20.6 C 11.3 km/h
495 20-04-2020 17:10:00 20.3 C 5.28 g/m*3 20.3 C 17.7 km/h
496 20-04-2020 17:15:00 20.1 C 5.39 g/m*3 20.1 C 22.5 km/h
497 20-04-2020 17:20:00 20.1 C 5.21 g/m*3 20.1 C 22.5 km/h
498 20-04-2020 17:25:00 19.9 C 5.33 g/m*3 19.9 C 25.7 km/h
499 20-04-2020 17:30:00 19.5 C 5.37 g/m*3 19.5 C 22.5 km/h
500 20-04-2020 17:35:00 19.2 C 5.61 g/m*3 19.2 C 33.8 km/h
Sensor: Nr:Datum:Temp:Abs-Feuchte:Windchill:Wind:
Aussen-T/F 501 20-04-2020 17:40:00 19.3 C 5.47 g/m*3 19.3 C 24.1 km/h
502 20-04-2020 17:45:00 19.6 C 5.57 g/m*3 19.6 C 12.9 km/h
503 20-04-2020 17:50:00 19.7 C 5.6 g/m*3 19.7 C 19.3 km/h
504 20-04-2020 17:55:00 19.4 C 6.01 g/m*3 19.4 C 25.7 km/h
505 20-04-2020 18:00:00 19.2 C 6.93 g/m*3 19.2 C 24.1 km/h
506 20-04-2020 18:05:00 18.5 C 5.7 g/m*3 18.5 C 27.4 km/h
507 20-04-2020 18:10:00 18.4 C 6.13 g/m*3 18.4 C 12.9 km/h
508 20-04-2020 18:15:00 18.6 C 5.89 g/m*3 18.6 C 20.9 km/h
509 20-04-2020 18:20:00 18.7 C 5.76 g/m*3 18.7 C 19.3 km/h
510 20-04-2020 18:25:00 18.6 C 5.73 g/m*3 18.6 C 20.9 km/h
511 20-04-2020 18:30:00 18.6 C 5.57 g/m*3 18.6 C 27.4 km/h
512 20-04-2020 18:35:00 18.6 C 5.57 g/m*3 18.6 C 22.5 km/h
513 20-04-2020 18:40:00 18.7 C 5.6 g/m*3 18.7 C 22.5 km/h
514 20-04-2020 18:45:00 18.6 C 5.89 g/m*3 18.6 C 17.7 km/h
515 20-04-2020 18:50:00 18.7 C 5.6 g/m*3 18.7 C 20.9 km/h
516 20-04-2020 18:55:00 18.8 C 5.64 g/m*3 18.8 C 19.3 km/h
517 20-04-2020 19:00:00 18.6 C 5.57 g/m*3 18.6 C 20.9 km/h
518 20-04-2020 19:05:00 18.4 C 5.5 g/m*3 18.4 C 24.1 km/h
519 20-04-2020 19:10:00 18.2 C 5.91 g/m*3 18.2 C 14.5 km/h
520 20-04-2020 19:15:00 18.2 C 5.44 g/m*3 18.2 C 14.5 km/h
521 20-04-2020 19:20:00 17.9 C 5.5 g/m*3 17.9 C 14.5 km/h
522 20-04-2020 19:25:00 17.6 C 5.55 g/m*3 17.6 C 27.4 km/h
523 20-04-2020 19:30:00 17.4 C 5.48 g/m*3 17.4 C 12.9 km/h
524 20-04-2020 19:35:00 17.4 C 5.48 g/m*3 17.4 C 12.9 km/h
525 20-04-2020 19:40:00 17.2 C 5.27 g/m*3 17.2 C 16.1 km/h
Sensor: Nr:Datum:Temp:Abs-Feuchte:Windchill:Wind:
Aussen-T/F 526 20-04-2020 19:45:00 17 C 5.35 g/m*3 17 C 12.9 km/h
527 20-04-2020 19:50:00 16.8 C 5.15 g/m*3 16.8 C 9.7 km/h
528 20-04-2020 19:55:00 16.7 C 5.12 g/m*3 16.7 C 16.1 km/h
529 20-04-2020 20:00:00 16.5 C 5.34 g/m*3 16.5 C 14.5 km/h
530 20-04-2020 20:05:00 16.3 C 5.27 g/m*3 16.3 C 16.1 km/h
531 20-04-2020 20:10:00 16.1 C 5.21 g/m*3 16.1 C 17.7 km/h
532 20-04-2020 20:15:00 15.9 C 5.28 g/m*3 15.9 C 3.2 km/h
533 20-04-2020 20:20:00 15.7 C 5.35 g/m*3 15.7 C 16.1 km/h
534 20-04-2020 20:25:00 15.4 C 5.52 g/m*3 15.4 C 4.8 km/h
535 20-04-2020 20:30:00 15.1 C 5.42 g/m*3 15.1 C 4.8 km/h
536 20-04-2020 20:35:00 14.8 C 5.19 g/m*3 14.8 C 6.4 km/h
537 20-04-2020 20:40:00 14.7 C 5.04 g/m*3 14.7 C 6.4 km/h
538 20-04-2020 20:45:00 14.7 C 5.16 g/m*3 14.7 C 16.1 km/h
539 20-04-2020 20:50:00 14.6 C 5.26 g/m*3 14.6 C 3.2 km/h
540 20-04-2020 20:55:00 14.4 C 5.19 g/m*3 14.4 C 8.1 km/h
541 20-04-2020 21:00:00 14.2 C 5.13 g/m*3 14.2 C 4.8 km/h
542 20-04-2020 21:05:00 14.1 C 4.98 g/m*3 14.1 C 6.4 km/h
543 20-04-2020 21:10:00 13.9 C 5.15 g/m*3 13.9 C 3.2 km/h
544 20-04-2020 21:15:00 13.7 C 5.21 g/m*3 13.7 C 4.8 km/h
545 20-04-2020 21:20:00 13.4 C 5.23 g/m*3 13.4 C 1.6 km/h
546 20-04-2020 21:25:00 13.2 C 5.05 g/m*3 13.2 C 6.4 km/h
547 20-04-2020 21:30:00 13.1 C 5.36 g/m*3 13.1 C 1.6 km/h
548 20-04-2020 21:35:00 12.7 C 5.01 g/m*3 12.7 C 8.1 km/h
549 20-04-2020 21:40:00 12.6 C 5.09 g/m*3 12.6 C 8.1 km/h
550 20-04-2020 21:45:00 12.4 C 5.14 g/m*3 12.4 C 1.6 km/h
Sensor: Nr:Datum:Temp:Abs-Feuchte:Windchill:Wind:
Aussen-T/F 551 20-04-2020 21:50:00 12.6 C 4.98 g/m*3 12.6 C 11.3 km/h
552 20-04-2020 21:55:00 12.7 C 4.9 g/m*3 12.7 C 4.8 km/h
553 20-04-2020 22:00:00 12.7 C 5.23 g/m*3 12.7 C 1.6 km/h
554 20-04-2020 22:05:00 12.6 C 4.98 g/m*3 12.6 C 4.8 km/h
555 20-04-2020 22:10:00 12.6 C 4.98 g/m*3 12.6 C 4.8 km/h
556 20-04-2020 22:15:00 12.5 C 5.28 g/m*3 12.5 C 4.8 km/h
557 20-04-2020 22:20:00 12.3 C 5.1 g/m*3 12.3 C 11.3 km/h
558 20-04-2020 22:25:00 12.4 C 4.92 g/m*3 12.4 C 11.3 km/h
559 20-04-2020 22:30:00 12.4 C 4.92 g/m*3 12.4 C 4.8 km/h
560 20-04-2020 22:35:00 12.4 C 5.03 g/m*3 12.4 C 3.2 km/h
561 20-04-2020 22:40:00 12.4 C 4.92 g/m*3 12.4 C 8.1 km/h
562 20-04-2020 22:45:00 12.4 C 5.03 g/m*3 12.4 C 1.6 km/h
563 20-04-2020 22:50:00 12.2 C 5.07 g/m*3 12.2 C 4.8 km/h
564 20-04-2020 22:55:00 12 C 5.01 g/m*3 12 C 8.1 km/h
565 20-04-2020 23:00:00 11.9 C 4.87 g/m*3 11.9 C 6.4 km/h
566 20-04-2020 23:05:00 11.8 C 4.95 g/m*3 11.8 C 6.4 km/h
567 20-04-2020 23:10:00 11.8 C 4.84 g/m*3 11.8 C 8.1 km/h
568 20-04-2020 23:15:00 11.7 C 4.71 g/m*3 11.7 C 0 km/h
569 20-04-2020 23:20:00 11.8 C 5.05 g/m*3 11.8 C 1.6 km/h
570 20-04-2020 23:25:00 11.6 C 4.89 g/m*3 11.6 C 4.8 km/h
571 20-04-2020 23:30:00 11.6 C 4.78 g/m*3 11.6 C 8.1 km/h
572 20-04-2020 23:35:00 11.7 C 4.81 g/m*3 11.7 C 4.8 km/h
573 20-04-2020 23:40:00 11.7 C 4.71 g/m*3 11.7 C 4.8 km/h
574 20-04-2020 23:45:00 11.6 C 4.68 g/m*3 11.6 C 12.9 km/h
575 20-04-2020 23:50:00 11.6 C 4.89 g/m*3 11.6 C 3.2 km/h
Sensor: Nr:Datum:Temp:Abs-Feuchte:Windchill:Wind:
Aussen-T/F 576 20-04-2020 23:55:00 11.5 C 4.75 g/m*3 11.5 C 9.7 km/h
577 21-04-2020 00:00:00 11.4 C 4.82 g/m*3 11.4 C 4.8 km/h
578 21-04-2020 00:05:00 11.3 C 4.9 g/m*3 11.3 C 8.1 km/h
579 21-04-2020 00:10:00 11.1 C 4.83 g/m*3 11.1 C 3.2 km/h
580 21-04-2020 00:15:00 11.2 C 4.66 g/m*3 11.2 C 20.9 km/h
581 21-04-2020 00:20:00 11.2 C 4.76 g/m*3 11.2 C 0 km/h
582 21-04-2020 00:25:00 11.1 C 4.73 g/m*3 11.1 C 4.8 km/h
583 21-04-2020 00:30:00 10.9 C 4.97 g/m*3 10.41 C 6.4 km/h
584 21-04-2020 00:35:00 10.7 C 4.81 g/m*3 10.7 C 3.2 km/h
585 21-04-2020 00:40:00 10.6 C 4.68 g/m*3 9.4 C 9.7 km/h
586 21-04-2020 00:45:00 10.8 C 4.84 g/m*3 9.64 C 9.7 km/h
587 21-04-2020 00:50:00 10.8 C 4.94 g/m*3 10.8 C 1.6 km/h
588 21-04-2020 00:55:00 10.6 C 4.98 g/m*3 10.6 C 0 km/h
589 21-04-2020 01:00:00 10.3 C 4.88 g/m*3 10.3 C 1.6 km/h
590 21-04-2020 01:05:00 10 C 4.98 g/m*3 10 C 3.2 km/h
591 21-04-2020 01:10:00 9.8 C 5.01 g/m*3 9.8 C 1.6 km/h
592 21-04-2020 01:15:00 9.5 C 5.01 g/m*3 9.5 C 1.6 km/h
593 21-04-2020 01:20:00 9.3 C 4.94 g/m*3 9.3 C 1.6 km/h
594 21-04-2020 01:25:00 9.2 C 5 g/m*3 9.2 C 0 km/h
595 21-04-2020 01:30:00 9.3 C 5.03 g/m*3 7.85 C 9.7 km/h
596 21-04-2020 01:35:00 9.2 C 5 g/m*3 9.2 C 3.2 km/h
597 21-04-2020 01:40:00 9.1 C 5.06 g/m*3 9.1 C 0 km/h
598 21-04-2020 01:45:00 8.9 C 4.91 g/m*3 8.9 C 3.2 km/h
599 21-04-2020 01:50:00 8.9 C 4.99 g/m*3 8.9 C 3.2 km/h
600 21-04-2020 01:55:00 8.8 C 5.05 g/m*3 8.8 C 0 km/h
Sensor: Nr:Datum:Temp:Abs-Feuchte:Windchill:Wind:
Aussen-T/F 601 21-04-2020 02:00:00 8.8 C 4.79 g/m*3 7.58 C 8.1 km/h
602 21-04-2020 02:05:00 9.2 C 5.09 g/m*3 9.2 C 3.2 km/h
603 21-04-2020 02:10:00 9.2 C 5.09 g/m*3 8.45 C 6.4 km/h
604 21-04-2020 02:15:00 9.3 C 4.85 g/m*3 9.3 C 4.8 km/h
605 21-04-2020 02:20:00 9.4 C 4.97 g/m*3 7.7 C 11.3 km/h
606 21-04-2020 02:25:00 9.5 C 4.92 g/m*3 9.5 C 3.2 km/h
607 21-04-2020 02:30:00 9.5 C 4.92 g/m*3 8.79 C 6.4 km/h
608 21-04-2020 02:35:00 9.5 C 5.1 g/m*3 9.5 C 1.6 km/h
609 21-04-2020 02:40:00 9.5 C 5.01 g/m*3 8.79 C 6.4 km/h
610 21-04-2020 02:45:00 9.7 C 4.98 g/m*3 8.33 C 9.7 km/h
611 21-04-2020 02:50:00 9.7 C 4.89 g/m*3 9.7 C 3.2 km/h
612 21-04-2020 02:55:00 9.7 C 4.98 g/m*3 9.7 C 1.6 km/h
613 21-04-2020 03:00:00 9.7 C 4.79 g/m*3 8.33 C 9.7 km/h
614 21-04-2020 03:05:00 9.8 C 4.92 g/m*3 9.8 C 3.2 km/h
615 21-04-2020 03:10:00 9.8 C 5.01 g/m*3 9.14 C 6.4 km/h
616 21-04-2020 03:15:00 9.7 C 5.07 g/m*3 9.7 C 4.8 km/h
617 21-04-2020 03:20:00 9.6 C 4.86 g/m*3 8.52 C 8.1 km/h
618 21-04-2020 03:25:00 9.7 C 4.89 g/m*3 8.06 C 11.3 km/h
619 21-04-2020 03:30:00 9.7 C 5.07 g/m*3 9.7 C 4.8 km/h
620 21-04-2020 03:35:00 9.6 C 5.13 g/m*3 9.6 C 1.6 km/h
621 21-04-2020 03:40:00 9.4 C 5.16 g/m*3 8.68 C 6.4 km/h
622 21-04-2020 03:45:00 9.2 C 5 g/m*3 9.2 C 3.2 km/h
623 21-04-2020 03:50:00 9.1 C 4.88 g/m*3 7.93 C 8.1 km/h
624 21-04-2020 03:55:00 9.2 C 5.18 g/m*3 9.2 C 1.6 km/h
625 21-04-2020 04:00:00 9.1 C 5.15 g/m*3 9.1 C 1.6 km/h
Sensor: Nr:Datum:Temp:Abs-Feuchte:Windchill:Wind:
Aussen-T/F 626 21-04-2020 04:05:00 8.9 C 5.08 g/m*3 8.9 C 4.8 km/h
627 21-04-2020 04:10:00 8.8 C 5.14 g/m*3 8.8 C 1.6 km/h
628 21-04-2020 04:15:00 8.5 C 5.21 g/m*3 8.5 C 3.2 km/h
629 21-04-2020 04:20:00 8.3 C 5.14 g/m*3 7.41 C 6.4 km/h
630 21-04-2020 04:25:00 8.3 C 5.06 g/m*3 6.37 C 11.3 km/h
631 21-04-2020 04:30:00 8.3 C 5.06 g/m*3 8.3 C 3.2 km/h
632 21-04-2020 04:35:00 8.3 C 5.23 g/m*3 8.3 C 0 km/h
633 21-04-2020 04:40:00 8.2 C 5.11 g/m*3 8.2 C 3.2 km/h
634 21-04-2020 04:45:00 8.2 C 5.19 g/m*3 8.2 C 1.6 km/h
635 21-04-2020 04:50:00 8.1 C 5.16 g/m*3 8.1 C 3.2 km/h
636 21-04-2020 04:55:00 8.1 C 5.08 g/m*3 6.42 C 9.7 km/h
637 21-04-2020 05:00:00 8.1 C 5.24 g/m*3 8.1 C 1.6 km/h
638 21-04-2020 05:05:00 8.1 C 5.08 g/m*3 6.42 C 9.7 km/h
639 21-04-2020 05:10:00 8.2 C 5.11 g/m*3 8.2 C 3.2 km/h
640 21-04-2020 05:15:00 8.2 C 5.19 g/m*3 8.2 C 3.2 km/h
641 21-04-2020 05:20:00 8.1 C 5.16 g/m*3 8.1 C 4.8 km/h
642 21-04-2020 05:25:00 8.1 C 5.24 g/m*3 8.1 C 3.2 km/h
643 21-04-2020 05:30:00 7.9 C 5.17 g/m*3 7.9 C 1.6 km/h
644 21-04-2020 05:35:00 7.8 C 5.22 g/m*3 7.8 C 0 km/h
645 21-04-2020 05:40:00 7.6 C 5.32 g/m*3 7.6 C 1.6 km/h
646 21-04-2020 05:45:00 7.3 C 5.14 g/m*3 7.3 C 1.6 km/h
647 21-04-2020 05:50:00 7.3 C 5.21 g/m*3 7.3 C 1.6 km/h
648 21-04-2020 05:55:00 7.2 C 5.26 g/m*3 7.2 C 1.6 km/h
649 21-04-2020 06:00:00 7.1 C 5.23 g/m*3 7.1 C 1.6 km/h
650 21-04-2020 06:05:00 7.2 C 5.26 g/m*3 7.2 C 3.2 km/h
Sensor: Nr:Datum:Temp:Abs-Feuchte:Windchill:Wind:
Aussen-T/F 651 21-04-2020 06:10:00 7.2 C 5.26 g/m*3 7.2 C 0 km/h
652 21-04-2020 06:15:00 7.2 C 5.26 g/m*3 6.13 C 6.4 km/h
653 21-04-2020 06:20:00 7.2 C 5.18 g/m*3 7.2 C 3.2 km/h
654 21-04-2020 06:25:00 7.2 C 5.26 g/m*3 7.2 C 3.2 km/h
655 21-04-2020 06:30:00 7.1 C 5.3 g/m*3 7.1 C 3.2 km/h
656 21-04-2020 06:35:00 6.9 C 5.23 g/m*3 6.9 C 1.6 km/h
657 21-04-2020 06:40:00 6.8 C 5.2 g/m*3 6.8 C 3.2 km/h
658 21-04-2020 06:45:00 6.8 C 5.28 g/m*3 6.8 C 0 km/h
659 21-04-2020 06:50:00 6.8 C 5.28 g/m*3 6.8 C 0 km/h
660 21-04-2020 06:55:00 6.7 C 5.32 g/m*3 6.7 C 0 km/h
661 21-04-2020 07:00:00 6.7 C 5.32 g/m*3 6.7 C 0 km/h
662 21-04-2020 07:05:00 6.7 C 5.32 g/m*3 6.7 C 0 km/h
663 21-04-2020 07:10:00 6.7 C 5.32 g/m*3 6.7 C 0 km/h
664 21-04-2020 07:15:00 6.7 C 5.32 g/m*3 6.7 C 0 km/h
665 21-04-2020 07:20:00 6.8 C 5.35 g/m*3 6.8 C 0 km/h
666 21-04-2020 07:25:00 6.8 C 5.35 g/m*3 6.8 C 3.2 km/h
667 21-04-2020 07:30:00 6.9 C 5.31 g/m*3 6.9 C 1.6 km/h
668 21-04-2020 07:35:00 6.9 C 5.31 g/m*3 5.34 C 8.1 km/h
669 21-04-2020 07:40:00 7.2 C 5.26 g/m*3 7.2 C 3.2 km/h
670 21-04-2020 07:45:00 7.4 C 5.33 g/m*3 7.4 C 4.8 km/h
671 21-04-2020 07:50:00 7.4 C 5.41 g/m*3 7.4 C 3.2 km/h
672 21-04-2020 07:55:00 7.4 C 5.49 g/m*3 7.4 C 1.6 km/h
673 21-04-2020 08:00:00 7.4 C 5.33 g/m*3 7.4 C 4.8 km/h
674 21-04-2020 08:05:00 7.7 C 5.43 g/m*3 6.28 C 8.1 km/h
675 21-04-2020 08:10:00 7.8 C 5.47 g/m*3 6.83 C 6.4 km/h
Sensor: Nr:Datum:Temp:Abs-Feuchte:Windchill:Wind:
Aussen-T/F 676 21-04-2020 08:15:00 7.9 C 5.5 g/m*3 6.52 C 8.1 km/h
677 21-04-2020 08:20:00 8.1 C 5.41 g/m*3 8.1 C 4.8 km/h
678 21-04-2020 08:25:00 8.2 C 5.61 g/m*3 8.2 C 3.2 km/h
679 21-04-2020 08:30:00 8.1 C 5.57 g/m*3 8.1 C 1.6 km/h
680 21-04-2020 08:35:00 8.1 C 5.57 g/m*3 8.1 C 3.2 km/h
681 21-04-2020 08:40:00 8.1 C 5.66 g/m*3 8.1 C 4.8 km/h
682 21-04-2020 08:45:00 8.1 C 5.41 g/m*3 7.17 C 6.4 km/h
683 21-04-2020 08:50:00 8.3 C 5.23 g/m*3 6.37 C 11.3 km/h
684 21-04-2020 08:55:00 8.7 C 5.45 g/m*3 8.7 C 3.2 km/h
685 21-04-2020 09:00:00 8.9 C 5.52 g/m*3 7.69 C 8.1 km/h
686 21-04-2020 09:05:00 9.1 C 5.77 g/m*3 9.1 C 3.2 km/h
687 21-04-2020 09:10:00 9.3 C 5.57 g/m*3 6.92 C 16.1 km/h
688 21-04-2020 09:15:00 9.5 C 5.55 g/m*3 9.5 C 4.8 km/h
689 21-04-2020 09:20:00 9.7 C 5.25 g/m*3 9.02 C 6.4 km/h
690 21-04-2020 09:25:00 10 C 5.45 g/m*3 9.37 C 6.4 km/h
691 21-04-2020 09:30:00 10.2 C 5.23 g/m*3 8.66 C 11.3 km/h
692 21-04-2020 09:35:00 10.5 C 5.53 g/m*3 8.8 C 12.9 km/h
693 21-04-2020 09:40:00 10.7 C 5.3 g/m*3 9.26 C 11.3 km/h
694 21-04-2020 09:45:00 10.8 C 5.24 g/m*3 9.64 C 9.7 km/h
695 21-04-2020 09:50:00 11.1 C 5.34 g/m*3 11.1 C 4.8 km/h
696 21-04-2020 09:55:00 11.2 C 5.47 g/m*3 11.2 C 8.1 km/h
697 21-04-2020 10:00:00 11.3 C 5.51 g/m*3 11.3 C 6.4 km/h
698 21-04-2020 10:05:00 11.4 C 5.34 g/m*3 11.4 C 14.5 km/h
699 21-04-2020 10:10:00 11.7 C 5.54 g/m*3 11.7 C 11.3 km/h
700 21-04-2020 10:15:00 11.7 C 5.44 g/m*3 11.7 C 11.3 km/h
Sensor: Nr:Datum:Temp:Abs-Feuchte:Windchill:Wind:
Aussen-T/F 701 21-04-2020 10:20:00 11.9 C 5.19 g/m*3 11.9 C 17.7 km/h
702 21-04-2020 10:25:00 12.2 C 5.18 g/m*3 12.2 C 11.3 km/h
703 21-04-2020 10:30:00 12.5 C 5.28 g/m*3 12.5 C 12.9 km/h
704 21-04-2020 10:35:00 12.7 C 5.34 g/m*3 12.7 C 9.7 km/h
705 21-04-2020 10:40:00 12.8 C 5.15 g/m*3 12.8 C 20.9 km/h
706 21-04-2020 10:45:00 13.1 C 5.25 g/m*3 13.1 C 11.3 km/h
707 21-04-2020 10:50:00 13.3 C 5.43 g/m*3 13.3 C 16.1 km/h
708 21-04-2020 10:55:00 13.4 C 5.23 g/m*3 13.4 C 6.4 km/h
709 21-04-2020 11:00:00 13.6 C 5.18 g/m*3 13.6 C 16.1 km/h
710 21-04-2020 11:05:00 13.8 C 5.24 g/m*3 13.8 C 14.5 km/h
711 21-04-2020 11:10:00 14 C 5.43 g/m*3 14 C 9.7 km/h
712 21-04-2020 11:15:00 14.2 C 5.25 g/m*3 14.2 C 11.3 km/h
713 21-04-2020 11:20:00 14.4 C 5.19 g/m*3 14.4 C 14.5 km/h
714 21-04-2020 11:25:00 14.5 C 5.35 g/m*3 14.5 C 12.9 km/h
715 21-04-2020 11:30:00 14.6 C 5.26 g/m*3 14.6 C 19.3 km/h
716 21-04-2020 11:35:00 14.7 C 5.29 g/m*3 14.7 C 14.5 km/h
717 21-04-2020 11:40:00 14.8 C 5.32 g/m*3 14.8 C 19.3 km/h
718 21-04-2020 11:45:00 15 C 5.26 g/m*3 15 C 19.3 km/h
719 21-04-2020 11:50:00 15.2 C 5.32 g/m*3 15.2 C 14.5 km/h
720 21-04-2020 11:55:00 15.4 C 5.26 g/m*3 15.4 C 11.3 km/h
721 21-04-2020 12:00:00 15.6 C 5.45 g/m*3 15.6 C 12.9 km/h
722 21-04-2020 12:05:00 15.7 C 5.35 g/m*3 15.7 C 16.1 km/h
723 21-04-2020 12:10:00 15.8 C 5.12 g/m*3 15.8 C 14.5 km/h
724 21-04-2020 12:15:00 15.9 C 5.15 g/m*3 15.9 C 19.3 km/h
725 21-04-2020 12:20:00 16.1 C 5.07 g/m*3 16.1 C 17.7 km/h
Sensor: Nr:Datum:Temp:Abs-Feuchte:Windchill:Wind:
Aussen-T/F 726 21-04-2020 12:25:00 16.1 C 5.21 g/m*3 16.1 C 25.7 km/h
727 21-04-2020 12:30:00 16.2 C 5.1 g/m*3 16.2 C 17.7 km/h
728 21-04-2020 12:35:00 16.3 C 5.13 g/m*3 16.3 C 17.7 km/h
729 21-04-2020 12:40:00 16.3 C 5.13 g/m*3 16.3 C 19.3 km/h
730 21-04-2020 12:45:00 16.4 C 5.16 g/m*3 16.4 C 17.7 km/h
731 21-04-2020 12:50:00 16.6 C 5.23 g/m*3 16.6 C 12.9 km/h
732 21-04-2020 12:55:00 16.7 C 5.26 g/m*3 16.7 C 11.3 km/h
733 21-04-2020 13:00:00 16.8 C 5.15 g/m*3 16.8 C 24.1 km/h
734 21-04-2020 13:05:00 16.9 C 5.18 g/m*3 16.9 C 14.5 km/h
735 21-04-2020 13:10:00 17.1 C 5.24 g/m*3 17.1 C 16.1 km/h
736 21-04-2020 13:15:00 17.2 C 5.27 g/m*3 17.2 C 14.5 km/h
737 21-04-2020 13:20:00 17.2 C 5.13 g/m*3 17.2 C 17.7 km/h
738 21-04-2020 13:25:00 17.3 C 5.3 g/m*3 17.3 C 17.7 km/h
739 21-04-2020 13:30:00 17.4 C 5.34 g/m*3 17.4 C 9.7 km/h
740 21-04-2020 13:35:00 17.4 C 5.19 g/m*3 17.4 C 12.9 km/h
741 21-04-2020 13:40:00 17.7 C 5.28 g/m*3 17.7 C 22.5 km/h
742 21-04-2020 13:45:00 17.8 C 5.16 g/m*3 17.8 C 20.9 km/h
743 21-04-2020 13:50:00 17.9 C 5.04 g/m*3 17.9 C 16.1 km/h
744 21-04-2020 13:55:00 18.1 C 5.25 g/m*3 18.1 C 16.1 km/h
745 21-04-2020 14:00:00 18.3 C 5.32 g/m*3 18.3 C 16.1 km/h
746 21-04-2020 14:05:00 18.4 C 5.19 g/m*3 18.4 C 19.3 km/h
747 21-04-2020 14:10:00 18.5 C 5.22 g/m*3 18.5 C 22.5 km/h
748 21-04-2020 14:15:00 18.7 C 5.12 g/m*3 18.7 C 25.7 km/h
749 21-04-2020 14:20:00 18.8 C 5.31 g/m*3 18.8 C 16.1 km/h
750 21-04-2020 14:25:00 18.8 C 5.15 g/m*3 18.8 C 24.1 km/h
Sensor: Nr:Datum:Temp:Abs-Feuchte:Windchill:Wind:
Aussen-T/F 751 21-04-2020 14:30:00 18.9 C 5.18 g/m*3 18.9 C 24.1 km/h
752 21-04-2020 14:35:00 19.1 C 5.41 g/m*3 19.1 C 17.7 km/h
753 21-04-2020 14:40:00 19.3 C 5.31 g/m*3 19.3 C 19.3 km/h
754 21-04-2020 14:45:00 19.4 C 5.34 g/m*3 19.4 C 17.7 km/h
755 21-04-2020 14:50:00 19.6 C 5.4 g/m*3 19.6 C 17.7 km/h
756 21-04-2020 14:55:00 19.7 C 5.26 g/m*3 19.7 C 14.5 km/h
757 21-04-2020 15:00:00 19.8 C 5.3 g/m*3 19.8 C 12.9 km/h
758 21-04-2020 15:05:00 19.9 C 5.33 g/m*3 19.9 C 14.5 km/h
759 21-04-2020 15:10:00 20 C 5.18 g/m*3 20 C 27.4 km/h
760 21-04-2020 15:15:00 19.9 C 5.33 g/m*3 19.9 C 30.6 km/h
761 21-04-2020 15:20:00 20 C 5.36 g/m*3 20 C 30.6 km/h
762 21-04-2020 15:25:00 20.1 C 5.39 g/m*3 20.1 C 30.6 km/h
763 21-04-2020 15:30:00 20.2 C 5.42 g/m*3 20.2 C 17.7 km/h
764 21-04-2020 15:35:00 20.3 C 5.28 g/m*3 20.3 C 27.4 km/h
765 21-04-2020 15:40:00 20.5 C 5.52 g/m*3 20.5 C 25.7 km/h
766 21-04-2020 15:45:00 20.7 C 5.58 g/m*3 20.7 C 22.5 km/h
767 21-04-2020 15:50:00 20.6 C 5.37 g/m*3 20.6 C 25.7 km/h
768 21-04-2020 15:55:00 20.6 C 5.37 g/m*3 20.6 C 25.7 km/h
769 21-04-2020 16:00:00 20.5 C 5.34 g/m*3 20.5 C 30.6 km/h
770 21-04-2020 16:05:00 20.7 C 5.58 g/m*3 20.7 C 30.6 km/h
771 21-04-2020 16:10:00 20.7 C 5.4 g/m*3 20.7 C 22.5 km/h
772 21-04-2020 16:15:00 20.7 C 5.58 g/m*3 20.7 C 19.3 km/h
773 21-04-2020 16:20:00 20.7 C 5.4 g/m*3 20.7 C 30.6 km/h
774 21-04-2020 16:25:00 20.7 C 5.58 g/m*3 20.7 C 25.7 km/h
775 21-04-2020 16:30:00 20.8 C 5.43 g/m*3 20.8 C 29 km/h
Sensor: Nr:Datum:Temp:Abs-Feuchte:Windchill:Wind:
Aussen-T/F 776 21-04-2020 16:35:00 20.9 C 5.65 g/m*3 20.9 C 25.7 km/h
777 21-04-2020 16:40:00 21 C 5.31 g/m*3 21 C 20.9 km/h
778 21-04-2020 16:45:00 21.1 C 5.53 g/m*3 21.1 C 17.7 km/h
779 21-04-2020 16:50:00 20.9 C 5.28 g/m*3 20.9 C 25.7 km/h
780 21-04-2020 16:55:00 21 C 5.68 g/m*3 21 C 29 km/h
781 21-04-2020 17:00:00 21.1 C 5.53 g/m*3 21.1 C 20.9 km/h
782 21-04-2020 17:05:00 21.3 C 5.59 g/m*3 21.3 C 20.9 km/h
783 21-04-2020 17:10:00 21.5 C 5.85 g/m*3 21.5 C 9.7 km/h
784 21-04-2020 17:15:00 21.8 C 5.76 g/m*3 21.8 C 19.3 km/h
785 21-04-2020 17:20:00 21.7 C 5.53 g/m*3 21.7 C 19.3 km/h
786 21-04-2020 17:25:00 21.2 C 5.56 g/m*3 21.2 C 29 km/h
787 21-04-2020 17:30:00 20.9 C 5.46 g/m*3 20.9 C 27.4 km/h
788 21-04-2020 17:35:00 20.7 C 5.58 g/m*3 20.7 C 24.1 km/h
789 21-04-2020 17:40:00 20.8 C 5.79 g/m*3 20.8 C 19.3 km/h
790 21-04-2020 17:45:00 20.8 C 5.61 g/m*3 20.8 C 16.1 km/h
791 21-04-2020 17:50:00 20.8 C 5.79 g/m*3 20.8 C 22.5 km/h
792 21-04-2020 17:55:00 21.1 C 5.9 g/m*3 21.1 C 19.3 km/h
793 21-04-2020 18:00:00 20.8 C 5.61 g/m*3 20.8 C 27.4 km/h
794 21-04-2020 18:05:00 20.8 C 5.61 g/m*3 20.8 C 17.7 km/h
795 21-04-2020 18:10:00 21.1 C 5.9 g/m*3 21.1 C 12.9 km/h
796 21-04-2020 18:15:00 21.2 C 5.74 g/m*3 21.2 C 16.1 km/h
797 21-04-2020 18:20:00 20.9 C 5.83 g/m*3 20.9 C 14.5 km/h
798 21-04-2020 18:25:00 20.8 C 5.79 g/m*3 20.8 C 20.9 km/h
799 21-04-2020 18:30:00 20.7 C 5.76 g/m*3 20.7 C 24.1 km/h
800 21-04-2020 18:35:00 20.7 C 5.76 g/m*3 20.7 C 14.5 km/h
Sensor: Nr:Datum:Temp:Abs-Feuchte:Windchill:Wind:
Aussen-T/F 801 21-04-2020 18:40:00 20.7 C 5.94 g/m*3 20.7 C 14.5 km/h
802 21-04-2020 18:45:00 20.7 C 5.94 g/m*3 20.7 C 14.5 km/h
803 21-04-2020 18:50:00 20.8 C 5.98 g/m*3 20.8 C 8.1 km/h
804 21-04-2020 18:55:00 20.9 C 6.01 g/m*3 20.9 C 14.5 km/h
805 21-04-2020 19:00:00 20.7 C 5.94 g/m*3 20.7 C 20.9 km/h
806 21-04-2020 19:05:00 20.4 C 5.84 g/m*3 20.4 C 17.7 km/h
807 21-04-2020 19:10:00 20.1 C 5.74 g/m*3 20.1 C 19.3 km/h
808 21-04-2020 19:15:00 20 C 5.88 g/m*3 20 C 19.3 km/h
809 21-04-2020 19:20:00 19.9 C 6.01 g/m*3 19.9 C 16.1 km/h
810 21-04-2020 19:25:00 19.7 C 5.94 g/m*3 19.7 C 16.1 km/h
811 21-04-2020 19:30:00 19.5 C 5.87 g/m*3 19.5 C 17.7 km/h
812 21-04-2020 19:35:00 19.3 C 5.81 g/m*3 19.3 C 16.1 km/h
813 21-04-2020 19:40:00 19.1 C 5.74 g/m*3 19.1 C 16.1 km/h
814 21-04-2020 19:45:00 18.8 C 5.8 g/m*3 18.8 C 9.7 km/h
815 21-04-2020 19:50:00 18.8 C 5.8 g/m*3 18.8 C 14.5 km/h
816 21-04-2020 19:55:00 18.7 C 6.24 g/m*3 18.7 C 8.1 km/h
817 21-04-2020 20:00:00 18.5 C 5.85 g/m*3 18.5 C 11.3 km/h
818 21-04-2020 20:05:00 18.3 C 5.79 g/m*3 18.3 C 8.1 km/h
819 21-04-2020 20:10:00 18.2 C 6.06 g/m*3 18.2 C 6.4 km/h
820 21-04-2020 20:15:00 17.9 C 5.95 g/m*3 17.9 C 8.1 km/h
821 21-04-2020 20:20:00 17.6 C 5.85 g/m*3 17.6 C 8.1 km/h
822 21-04-2020 20:25:00 17.3 C 5.89 g/m*3 17.3 C 4.8 km/h
823 21-04-2020 20:30:00 17.1 C 5.82 g/m*3 17.1 C 6.4 km/h
824 21-04-2020 20:35:00 16.8 C 6.15 g/m*3 16.8 C 3.2 km/h
825 21-04-2020 20:40:00 16.6 C 5.93 g/m*3 16.6 C 4.8 km/h
Sensor: Nr:Datum:Temp:Abs-Feuchte:Windchill:Wind:
Aussen-T/F 826 21-04-2020 20:45:00 16.3 C 5.97 g/m*3 16.3 C 1.6 km/h
827 21-04-2020 20:50:00 16 C 6.13 g/m*3 16 C 3.2 km/h
828 21-04-2020 20:55:00 15.6 C 5.98 g/m*3 15.6 C 4.8 km/h
829 21-04-2020 21:00:00 15.3 C 6.14 g/m*3 15.3 C 1.6 km/h
830 21-04-2020 21:05:00 15.1 C 5.81 g/m*3 15.1 C 1.6 km/h
831 21-04-2020 21:10:00 14.9 C 5.74 g/m*3 14.9 C 4.8 km/h
832 21-04-2020 21:15:00 14.9 C 6.12 g/m*3 14.9 C 1.6 km/h
833 21-04-2020 21:20:00 14.8 C 5.95 g/m*3 14.8 C 3.2 km/h
834 21-04-2020 21:25:00 14.7 C 6.04 g/m*3 14.7 C 1.6 km/h
835 21-04-2020 21:30:00 14.4 C 5.81 g/m*3 14.4 C 3.2 km/h
836 21-04-2020 21:35:00 14.4 C 5.81 g/m*3 14.4 C 1.6 km/h
837 21-04-2020 21:40:00 14.4 C 6.18 g/m*3 14.4 C 0 km/h
838 21-04-2020 21:45:00 14.2 C 6.11 g/m*3 14.2 C 3.2 km/h
839 21-04-2020 21:50:00 13.8 C 6.08 g/m*3 13.8 C 3.2 km/h
840 21-04-2020 21:55:00 13.6 C 5.88 g/m*3 13.6 C 3.2 km/h
841 21-04-2020 22:00:00 13.6 C 6.12 g/m*3 13.6 C 1.6 km/h
842 21-04-2020 22:05:00 13.4 C 6.04 g/m*3 13.4 C 3.2 km/h
843 21-04-2020 22:10:00 13.1 C 6.16 g/m*3 13.1 C 4.8 km/h
844 21-04-2020 22:15:00 13.2 C 5.97 g/m*3 13.2 C 4.8 km/h
845 21-04-2020 22:20:00 13.4 C 5.93 g/m*3 13.4 C 4.8 km/h
846 21-04-2020 22:25:00 13.5 C 6.08 g/m*3 13.5 C 1.6 km/h
847 21-04-2020 22:30:00 13.3 C 5.89 g/m*3 13.3 C 3.2 km/h
848 21-04-2020 22:35:00 13.2 C 6.09 g/m*3 13.2 C 3.2 km/h
849 21-04-2020 22:40:00 12.9 C 5.97 g/m*3 12.9 C 0 km/h
850 21-04-2020 22:45:00 12.6 C 6.08 g/m*3 12.6 C 1.6 km/h
Sensor: Nr:Datum:Temp:Abs-Feuchte:Windchill:Wind:
Aussen-T/F 851 21-04-2020 22:50:00 12.4 C 6.12 g/m*3 12.4 C 1.6 km/h
852 21-04-2020 22:55:00 12.3 C 6.08 g/m*3 12.3 C 1.6 km/h
853 21-04-2020 23:00:00 12.2 C 6.04 g/m*3 12.2 C 0 km/h
854 21-04-2020 23:05:00 12.2 C 6.04 g/m*3 12.2 C 1.6 km/h
855 21-04-2020 23:10:00 12.2 C 5.94 g/m*3 12.2 C 0 km/h
856 21-04-2020 23:15:00 12.2 C 6.15 g/m*3 12.2 C 1.6 km/h
857 21-04-2020 23:20:00 12 C 6.07 g/m*3 12 C 0 km/h
858 21-04-2020 23:25:00 12 C 6.07 g/m*3 12 C 3.2 km/h
859 21-04-2020 23:30:00 11.9 C 6.04 g/m*3 11.9 C 3.2 km/h
860 21-04-2020 23:35:00 11.8 C 6 g/m*3 11.8 C 3.2 km/h
861 21-04-2020 23:40:00 11.7 C 6.07 g/m*3 11.7 C 0 km/h
862 21-04-2020 23:45:00 11.6 C 6.03 g/m*3 11.6 C 4.8 km/h
863 21-04-2020 23:50:00 11.6 C 6.03 g/m*3 11.6 C 1.6 km/h
864 21-04-2020 23:55:00 11.5 C 5.99 g/m*3 11.5 C 3.2 km/h
865 22-04-2020 00:00:00 11.4 C 5.95 g/m*3 11.4 C 3.2 km/h
866 22-04-2020 00:05:00 11.3 C 5.92 g/m*3 11.3 C 0 km/h
867 22-04-2020 00:10:00 11.2 C 6.08 g/m*3 11.2 C 0 km/h
868 22-04-2020 00:15:00 11.1 C 5.94 g/m*3 11.1 C 0 km/h
869 22-04-2020 00:20:00 11 C 5.81 g/m*3 11 C 4.8 km/h
870 22-04-2020 00:25:00 11.2 C 5.88 g/m*3 11.2 C 4.8 km/h
871 22-04-2020 00:30:00 11.4 C 6.06 g/m*3 11.4 C 6.4 km/h
872 22-04-2020 00:35:00 11.4 C 5.95 g/m*3 11.4 C 1.6 km/h
873 22-04-2020 00:40:00 11.4 C 5.85 g/m*3 11.4 C 3.2 km/h
874 22-04-2020 00:45:00 11.4 C 6.06 g/m*3 11.4 C 1.6 km/h
875 22-04-2020 00:50:00 11.3 C 6.02 g/m*3 11.3 C 4.8 km/h
Sensor: Nr:Datum:Temp:Abs-Feuchte:Windchill:Wind:
Aussen-T/F 876 22-04-2020 00:55:00 11.3 C 5.81 g/m*3 11.3 C 4.8 km/h
877 22-04-2020 01:00:00 11.3 C 5.92 g/m*3 11.3 C 1.6 km/h
878 22-04-2020 01:05:00 11.2 C 5.88 g/m*3 11.2 C 9.7 km/h
879 22-04-2020 01:10:00 11.1 C 5.94 g/m*3 11.1 C 1.6 km/h
880 22-04-2020 01:15:00 10.9 C 5.97 g/m*3 10.9 C 1.6 km/h
881 22-04-2020 01:20:00 10.7 C 5.99 g/m*3 10.7 C 3.2 km/h
882 22-04-2020 01:25:00 10.4 C 5.98 g/m*3 10.4 C 0 km/h
883 22-04-2020 01:30:00 10.2 C 5.9 g/m*3 10.2 C 0 km/h
884 22-04-2020 01:35:00 10.1 C 5.96 g/m*3 10.1 C 0 km/h
885 22-04-2020 01:40:00 10.1 C 5.96 g/m*3 10.1 C 0 km/h
886 22-04-2020 01:45:00 10.1 C 5.96 g/m*3 10.1 C 0 km/h
887 22-04-2020 01:50:00 10.1 C 5.96 g/m*3 10.1 C 4.8 km/h
888 22-04-2020 01:55:00 10.2 C 6 g/m*3 10.2 C 3.2 km/h
889 22-04-2020 02:00:00 10.3 C 5.94 g/m*3 9.72 C 6.4 km/h
890 22-04-2020 02:05:00 10.3 C 5.94 g/m*3 10.3 C 1.6 km/h
891 22-04-2020 02:10:00 10.2 C 5.9 g/m*3 10.2 C 1.6 km/h
892 22-04-2020 02:15:00 10.2 C 6 g/m*3 10.2 C 1.6 km/h
893 22-04-2020 02:20:00 10.1 C 5.96 g/m*3 10.1 C 0 km/h
894 22-04-2020 02:25:00 9.9 C 5.88 g/m*3 9.9 C 4.8 km/h
895 22-04-2020 02:30:00 9.8 C 5.94 g/m*3 9.8 C 1.6 km/h
896 22-04-2020 02:35:00 9.8 C 5.85 g/m*3 9.8 C 4.8 km/h
897 22-04-2020 02:40:00 9.8 C 5.94 g/m*3 9.8 C 4.8 km/h
898 22-04-2020 02:45:00 9.9 C 5.88 g/m*3 9.9 C 4.8 km/h
899 22-04-2020 02:50:00 9.8 C 5.94 g/m*3 9.8 C 1.6 km/h
900 22-04-2020 02:55:00 9.7 C 5.9 g/m*3 9.7 C 1.6 km/h
Sensor: Nr:Datum:Temp:Abs-Feuchte:Windchill:Wind:
Aussen-T/F 901 22-04-2020 03:00:00 9.6 C 5.86 g/m*3 9.6 C 4.8 km/h
902 22-04-2020 03:05:00 9.6 C 5.86 g/m*3 9.6 C 1.6 km/h
903 22-04-2020 03:10:00 9.5 C 5.92 g/m*3 9.5 C 3.2 km/h
904 22-04-2020 03:15:00 9.5 C 5.92 g/m*3 9.5 C 1.6 km/h
905 22-04-2020 03:20:00 9.5 C 5.92 g/m*3 9.5 C 0 km/h
906 22-04-2020 03:25:00 9.4 C 5.88 g/m*3 9.4 C 0 km/h
907 22-04-2020 03:30:00 9.3 C 5.84 g/m*3 9.3 C 0 km/h
908 22-04-2020 03:35:00 9.2 C 5.89 g/m*3 9.2 C 0 km/h
909 22-04-2020 03:40:00 9.1 C 5.94 g/m*3 9.1 C 0 km/h
910 22-04-2020 03:45:00 8.9 C 5.87 g/m*3 8.9 C 0 km/h
911 22-04-2020 03:50:00 8.8 C 5.83 g/m*3 8.8 C 0 km/h
912 22-04-2020 03:55:00 8.7 C 5.88 g/m*3 8.7 C 0 km/h
913 22-04-2020 04:00:00 8.7 C 5.79 g/m*3 8.7 C 0 km/h
914 22-04-2020 04:05:00 8.7 C 5.88 g/m*3 8.7 C 0 km/h
915 22-04-2020 04:10:00 8.7 C 5.79 g/m*3 8.7 C 0 km/h
916 22-04-2020 04:15:00 8.6 C 5.84 g/m*3 8.6 C 0 km/h
917 22-04-2020 04:20:00 8.5 C 5.81 g/m*3 8.5 C 0 km/h
918 22-04-2020 04:25:00 8.4 C 5.77 g/m*3 8.4 C 1.6 km/h
919 22-04-2020 04:30:00 8.4 C 5.77 g/m*3 8.4 C 1.6 km/h
920 22-04-2020 04:35:00 8.3 C 5.73 g/m*3 8.3 C 0 km/h
921 22-04-2020 04:40:00 8.3 C 5.73 g/m*3 8.3 C 1.6 km/h
922 22-04-2020 04:45:00 8.2 C 5.78 g/m*3 8.2 C 1.6 km/h
923 22-04-2020 04:50:00 8.1 C 5.74 g/m*3 8.1 C 1.6 km/h
924 22-04-2020 04:55:00 8.1 C 5.74 g/m*3 8.1 C 1.6 km/h
925 22-04-2020 05:00:00 7.9 C 5.75 g/m*3 7.9 C 1.6 km/h
Sensor: Nr:Datum:Temp:Abs-Feuchte:Windchill:Wind:
Aussen-T/F 926 22-04-2020 05:05:00 7.8 C 5.71 g/m*3 7.8 C 0 km/h
927 22-04-2020 05:10:00 7.8 C 5.79 g/m*3 7.8 C 0 km/h
928 22-04-2020 05:15:00 7.7 C 5.76 g/m*3 7.7 C 0 km/h
929 22-04-2020 05:20:00 7.6 C 5.72 g/m*3 7.6 C 1.6 km/h
930 22-04-2020 05:25:00 7.5 C 5.68 g/m*3 7.5 C 0 km/h
931 22-04-2020 05:30:00 7.4 C 5.73 g/m*3 7.4 C 0 km/h
932 22-04-2020 05:35:00 7.3 C 5.69 g/m*3 7.3 C 1.6 km/h
933 22-04-2020 05:40:00 7.3 C 5.69 g/m*3 7.3 C 1.6 km/h
934 22-04-2020 05:45:00 7.2 C 5.65 g/m*3 7.2 C 1.6 km/h
935 22-04-2020 05:50:00 7.2 C 5.73 g/m*3 7.2 C 3.2 km/h
936 22-04-2020 05:55:00 7.2 C 5.65 g/m*3 7.2 C 1.6 km/h
937 22-04-2020 06:00:00 7.1 C 5.69 g/m*3 7.1 C 1.6 km/h
938 22-04-2020 06:05:00 7 C 5.66 g/m*3 7 C 1.6 km/h
939 22-04-2020 06:10:00 6.9 C 5.62 g/m*3 6.9 C 0 km/h
940 22-04-2020 06:15:00 6.8 C 5.58 g/m*3 6.8 C 3.2 km/h
941 22-04-2020 06:20:00 6.7 C 5.62 g/m*3 6.7 C 0 km/h
942 22-04-2020 06:25:00 6.6 C 5.66 g/m*3 6.6 C 0 km/h
943 22-04-2020 06:30:00 6.5 C 5.62 g/m*3 6.5 C 0 km/h
944 22-04-2020 06:35:00 6.4 C 5.59 g/m*3 6.4 C 0 km/h
945 22-04-2020 06:40:00 6.3 C 5.63 g/m*3 6.3 C 0 km/h
946 22-04-2020 06:45:00 6.2 C 5.66 g/m*3 4.98 C 6.4 km/h
947 22-04-2020 06:50:00 6.2 C 5.74 g/m*3 6.2 C 1.6 km/h
948 22-04-2020 06:55:00 6.2 C 5.74 g/m*3 6.2 C 3.2 km/h
949 22-04-2020 07:00:00 6.2 C 5.74 g/m*3 6.2 C 1.6 km/h
950 22-04-2020 07:05:00 6.2 C 5.74 g/m*3 6.2 C 4.8 km/h
Sensor: Nr:Datum:Temp:Abs-Feuchte:Windchill:Wind:
Aussen-T/F 951 22-04-2020 07:10:00 6.1 C 5.77 g/m*3 6.1 C 1.6 km/h
952 22-04-2020 07:15:00 6.2 C 5.81 g/m*3 6.2 C 3.2 km/h
953 22-04-2020 07:20:00 6.1 C 5.77 g/m*3 6.1 C 1.6 km/h
954 22-04-2020 07:25:00 6.2 C 5.81 g/m*3 6.2 C 4.8 km/h
955 22-04-2020 07:30:00 6.2 C 5.88 g/m*3 6.2 C 0 km/h
956 22-04-2020 07:35:00 6.2 C 5.88 g/m*3 6.2 C 0 km/h
957 22-04-2020 07:40:00 6.2 C 5.88 g/m*3 6.2 C 1.6 km/h
958 22-04-2020 07:45:00 6.2 C 5.88 g/m*3 6.2 C 3.2 km/h
959 22-04-2020 07:50:00 6.2 C 5.88 g/m*3 6.2 C 3.2 km/h
960 22-04-2020 07:55:00 6.3 C 5.92 g/m*3 6.3 C 4.8 km/h
961 22-04-2020 08:00:00 6.4 C 5.89 g/m*3 6.4 C 3.2 km/h
962 22-04-2020 08:05:00 6.6 C 5.96 g/m*3 6.6 C 1.6 km/h
963 22-04-2020 08:10:00 6.7 C 6 g/m*3 6.7 C 3.2 km/h
964 22-04-2020 08:15:00 6.8 C 6.04 g/m*3 6.8 C 0 km/h
965 22-04-2020 08:20:00 6.9 C 6.08 g/m*3 6.9 C 4.8 km/h
966 22-04-2020 08:25:00 7.1 C 6.08 g/m*3 7.1 C 3.2 km/h
967 22-04-2020 08:30:00 7.2 C 6.12 g/m*3 7.2 C 3.2 km/h
968 22-04-2020 08:35:00 7.6 C 5.96 g/m*3 6.16 C 8.1 km/h
969 22-04-2020 08:40:00 8 C 6.12 g/m*3 8 C 3.2 km/h
970 22-04-2020 08:45:00 8.2 C 6.2 g/m*3 8.2 C 1.6 km/h
971 22-04-2020 08:50:00 8.3 C 6.15 g/m*3 8.3 C 3.2 km/h
972 22-04-2020 08:55:00 8.5 C 5.89 g/m*3 6.9 C 9.7 km/h
973 22-04-2020 09:00:00 9.1 C 6.12 g/m*3 6.87 C 14.5 km/h
974 22-04-2020 09:05:00 9.4 C 5.97 g/m*3 9.4 C 4.8 km/h
975 22-04-2020 09:10:00 9.6 C 6.14 g/m*3 9.6 C 3.2 km/h
Sensor: Nr:Datum:Temp:Abs-Feuchte:Windchill:Wind:
Aussen-T/F 976 22-04-2020 09:15:00 9.7 C 6.08 g/m*3 9.7 C 3.2 km/h
977 22-04-2020 09:20:00 9.9 C 5.79 g/m*3 9.9 C 4.8 km/h
978 22-04-2020 09:25:00 10.4 C 6.07 g/m*3 9.46 C 8.1 km/h
979 22-04-2020 09:30:00 10.7 C 6.09 g/m*3 9.81 C 8.1 km/h
980 22-04-2020 09:35:00 10.8 C 6.03 g/m*3 10.8 C 3.2 km/h
981 22-04-2020 09:40:00 10.9 C 6.07 g/m*3 10.9 C 4.8 km/h
982 22-04-2020 09:45:00 11.1 C 5.84 g/m*3 11.1 C 6.4 km/h
983 22-04-2020 09:50:00 11.3 C 5.81 g/m*3 11.3 C 3.2 km/h
984 22-04-2020 09:55:00 11.5 C 6.09 g/m*3 11.5 C 1.6 km/h
985 22-04-2020 10:00:00 11.6 C 5.82 g/m*3 11.6 C 4.8 km/h
986 22-04-2020 10:05:00 11.8 C 6.1 g/m*3 11.8 C 8.1 km/h
987 22-04-2020 10:10:00 12.1 C 5.9 g/m*3 12.1 C 6.4 km/h
988 22-04-2020 10:15:00 12.4 C 6.12 g/m*3 12.4 C 11.3 km/h
989 22-04-2020 10:20:00 12.8 C 5.6 g/m*3 12.8 C 9.7 km/h
990 22-04-2020 10:25:00 13.1 C 6.05 g/m*3 13.1 C 1.6 km/h
991 22-04-2020 10:30:00 13.2 C 5.97 g/m*3 13.2 C 4.8 km/h
992 22-04-2020 10:35:00 13.5 C 5.85 g/m*3 13.5 C 8.1 km/h
993 22-04-2020 10:40:00 13.7 C 5.8 g/m*3 13.7 C 9.7 km/h
994 22-04-2020 10:45:00 14 C 5.79 g/m*3 14 C 9.7 km/h
995 22-04-2020 10:50:00 14.3 C 5.65 g/m*3 14.3 C 12.9 km/h
996 22-04-2020 10:55:00 14.6 C 5.76 g/m*3 14.6 C 9.7 km/h
997 22-04-2020 11:00:00 14.8 C 5.57 g/m*3 14.8 C 9.7 km/h
998 22-04-2020 11:05:00 15.1 C 5.68 g/m*3 15.1 C 14.5 km/h
999 22-04-2020 11:10:00 15.3 C 5.75 g/m*3 15.3 C 9.7 km/h
1000 22-04-2020 11:15:00 15.4 C 5.78 g/m*3 15.4 C 14.5 km/h
Sensor: Nr:Datum:Temp:Abs-Feuchte:Windchill:Wind:
Aussen-T/F 1001 22-04-2020 11:20:00 15.7 C 5.75 g/m*3 15.7 C 14.5 km/h
1002 22-04-2020 11:25:00 15.8 C 5.79 g/m*3 15.8 C 11.3 km/h
1003 22-04-2020 11:30:00 15.9 C 5.82 g/m*3 15.9 C 4.8 km/h
1004 22-04-2020 11:35:00 16.1 C 5.48 g/m*3 16.1 C 14.5 km/h
1005 22-04-2020 11:40:00 16.3 C 5.55 g/m*3 16.3 C 12.9 km/h
1006 22-04-2020 11:45:00 16.6 C 5.79 g/m*3 16.6 C 8.1 km/h
1007 22-04-2020 11:50:00 16.7 C 5.54 g/m*3 16.7 C 12.9 km/h
1008 22-04-2020 11:55:00 16.8 C 5.58 g/m*3 16.8 C 6.4 km/h
1009 22-04-2020 12:00:00 17 C 5.5 g/m*3 17 C 19.3 km/h
1010 22-04-2020 12:05:00 17.2 C 5.42 g/m*3 17.2 C 19.3 km/h
1011 22-04-2020 12:10:00 17.3 C 5.45 g/m*3 17.3 C 11.3 km/h
1012 22-04-2020 12:15:00 17.5 C 5.52 g/m*3 17.5 C 14.5 km/h
1013 22-04-2020 12:20:00 17.7 C 5.43 g/m*3 17.7 C 19.3 km/h
1014 22-04-2020 12:25:00 17.8 C 5.46 g/m*3 17.8 C 14.5 km/h
1015 22-04-2020 12:30:00 17.9 C 5.19 g/m*3 17.9 C 24.1 km/h
1016 22-04-2020 12:35:00 17.8 C 5.31 g/m*3 17.8 C 24.1 km/h
1017 22-04-2020 12:40:00 17.8 C 5.16 g/m*3 17.8 C 12.9 km/h
1018 22-04-2020 12:45:00 17.8 C 5.16 g/m*3 17.8 C 16.1 km/h
1019 22-04-2020 12:50:00 17.9 C 5.34 g/m*3 17.9 C 14.5 km/h
1020 22-04-2020 12:55:00 18.1 C 5.25 g/m*3 18.1 C 12.9 km/h
1021 22-04-2020 13:00:00 18.2 C 5.44 g/m*3 18.2 C 9.7 km/h
1022 22-04-2020 13:05:00 18.4 C 5.5 g/m*3 18.4 C 11.3 km/h
1023 22-04-2020 13:10:00 18.6 C 5.41 g/m*3 18.6 C 14.5 km/h
1024 22-04-2020 13:15:00 18.8 C 5.64 g/m*3 18.8 C 14.5 km/h
1025 22-04-2020 13:20:00 18.8 C 5.48 g/m*3 18.8 C 12.9 km/h
Sensor: Nr:Datum:Temp:Abs-Feuchte:Windchill:Wind:
Aussen-T/F 1026 22-04-2020 13:25:00 18.9 C 5.83 g/m*3 18.9 C 9.7 km/h
1027 22-04-2020 13:30:00 19 C 5.7 g/m*3 19 C 8.1 km/h
1028 22-04-2020 13:35:00 19.1 C 5.57 g/m*3 19.1 C 9.7 km/h
1029 22-04-2020 13:40:00 19.2 C 5.44 g/m*3 19.2 C 11.3 km/h
1030 22-04-2020 13:45:00 19.3 C 5.47 g/m*3 19.3 C 17.7 km/h
1031 22-04-2020 13:50:00 19.4 C 5.51 g/m*3 19.4 C 19.3 km/h
1032 22-04-2020 13:55:00 19.5 C 5.54 g/m*3 19.5 C 12.9 km/h
1033 22-04-2020 14:00:00 19.6 C 5.57 g/m*3 19.6 C 17.7 km/h
1034 22-04-2020 14:05:00 19.7 C 5.77 g/m*3 19.7 C 12.9 km/h
1035 22-04-2020 14:10:00 19.8 C 5.98 g/m*3 19.8 C 14.5 km/h
1036 22-04-2020 14:15:00 20 C 5.7 g/m*3 20 C 12.9 km/h
1037 22-04-2020 14:20:00 20 C 5.7 g/m*3 20 C 16.1 km/h
1038 22-04-2020 14:25:00 20.1 C 5.74 g/m*3 20.1 C 12.9 km/h
1039 22-04-2020 14:30:00 20.3 C 5.8 g/m*3 20.3 C 12.9 km/h
1040 22-04-2020 14:35:00 20.4 C 5.66 g/m*3 20.4 C 9.7 km/h
1041 22-04-2020 14:40:00 20.4 C 5.66 g/m*3 20.4 C 11.3 km/h
1042 22-04-2020 14:45:00 20.6 C 5.73 g/m*3 20.6 C 14.5 km/h
1043 22-04-2020 14:50:00 20.6 C 5.55 g/m*3 20.6 C 22.5 km/h
1044 22-04-2020 14:55:00 20.7 C 5.94 g/m*3 20.7 C 12.9 km/h
1045 22-04-2020 15:00:00 20.8 C 5.61 g/m*3 20.8 C 16.1 km/h
1046 22-04-2020 15:05:00 20.9 C 5.83 g/m*3 20.9 C 19.3 km/h
1047 22-04-2020 15:10:00 21.1 C 5.71 g/m*3 21.1 C 16.1 km/h
1048 22-04-2020 15:15:00 21.1 C 5.71 g/m*3 21.1 C 17.7 km/h
1049 22-04-2020 15:20:00 21.2 C 5.74 g/m*3 21.2 C 12.9 km/h
1050 22-04-2020 15:25:00 21.3 C 5.78 g/m*3 21.3 C 11.3 km/h
Sensor: Nr:Datum:Temp:Abs-Feuchte:Windchill:Wind:
Aussen-T/F 1051 22-04-2020 15:30:00 21.4 C 5.81 g/m*3 21.4 C 16.1 km/h
1052 22-04-2020 15:35:00 21.7 C 5.72 g/m*3 21.7 C 12.9 km/h
1053 22-04-2020 15:40:00 21.7 C 5.91 g/m*3 21.7 C 11.3 km/h
1054 22-04-2020 15:45:00 21.7 C 5.72 g/m*3 21.7 C 19.3 km/h
1055 22-04-2020 15:50:00 21.9 C 5.79 g/m*3 21.9 C 19.3 km/h
1056 22-04-2020 15:55:00 22.1 C 5.66 g/m*3 22.1 C 14.5 km/h
1057 22-04-2020 16:00:00 22.2 C 5.89 g/m*3 22.2 C 17.7 km/h
1058 22-04-2020 16:05:00 22.2 C 5.69 g/m*3 22.2 C 20.9 km/h
1059 22-04-2020 16:10:00 22.2 C 5.69 g/m*3 22.2 C 17.7 km/h
1060 22-04-2020 16:15:00 22.3 C 5.73 g/m*3 22.3 C 14.5 km/h
1061 22-04-2020 16:20:00 22.6 C 6.03 g/m*3 22.6 C 14.5 km/h
1062 22-04-2020 16:25:00 22.7 C 5.86 g/m*3 22.7 C 20.9 km/h
1063 22-04-2020 16:30:00 22.9 C 5.93 g/m*3 22.9 C 11.3 km/h
1064 22-04-2020 16:35:00 23.1 C 5.58 g/m*3 23.1 C 12.9 km/h
1065 22-04-2020 16:40:00 22.8 C 5.69 g/m*3 22.8 C 20.9 km/h
1066 22-04-2020 16:45:00 22.5 C 5.59 g/m*3 22.5 C 24.1 km/h
1067 22-04-2020 16:50:00 22.6 C 5.62 g/m*3 22.6 C 19.3 km/h
1068 22-04-2020 16:55:00 22.8 C 5.89 g/m*3 22.8 C 12.9 km/h
1069 22-04-2020 17:00:00 22.9 C 5.72 g/m*3 22.9 C 27.4 km/h
1070 22-04-2020 17:05:00 22.7 C 5.66 g/m*3 22.7 C 27.4 km/h
1071 22-04-2020 17:10:00 22.5 C 5.79 g/m*3 22.5 C 20.9 km/h
1072 22-04-2020 17:15:00 22.4 C 5.56 g/m*3 22.4 C 22.5 km/h
1073 22-04-2020 17:20:00 22.3 C 5.53 g/m*3 22.3 C 22.5 km/h
1074 22-04-2020 17:25:00 22.3 C 5.73 g/m*3 22.3 C 20.9 km/h
1075 22-04-2020 17:30:00 22.6 C 5.83 g/m*3 22.6 C 22.5 km/h
Sensor: Nr:Datum:Temp:Abs-Feuchte:Windchill:Wind:
Aussen-T/F 1076 22-04-2020 17:35:00 22.8 C 5.69 g/m*3 22.8 C 14.5 km/h
1077 22-04-2020 17:40:00 22.9 C 5.72 g/m*3 22.9 C 17.7 km/h
1078 22-04-2020 17:45:00 23 C 5.76 g/m*3 23 C 11.3 km/h
1079 22-04-2020 17:50:00 22.8 C 5.69 g/m*3 22.8 C 17.7 km/h
1080 22-04-2020 17:55:00 22.7 C 5.66 g/m*3 22.7 C 16.1 km/h
1081 22-04-2020 18:00:00 22.7 C 5.66 g/m*3 22.7 C 22.5 km/h
1082 22-04-2020 18:05:00 22.7 C 5.66 g/m*3 22.7 C 14.5 km/h
1083 22-04-2020 18:10:00 22.6 C 5.62 g/m*3 22.6 C 27.4 km/h
1084 22-04-2020 18:15:00 22.4 C 5.56 g/m*3 22.4 C 19.3 km/h
1085 22-04-2020 18:20:00 22.2 C 5.5 g/m*3 22.2 C 20.9 km/h
1086 22-04-2020 18:25:00 22.2 C 5.5 g/m*3 22.2 C 17.7 km/h
1087 22-04-2020 18:30:00 22.3 C 5.73 g/m*3 22.3 C 16.1 km/h
1088 22-04-2020 18:35:00 22.3 C 5.53 g/m*3 22.3 C 16.1 km/h
1089 22-04-2020 18:40:00 22.3 C 5.73 g/m*3 22.3 C 17.7 km/h
1090 22-04-2020 18:45:00 22.4 C 5.56 g/m*3 22.4 C 17.7 km/h
1091 22-04-2020 18:50:00 22.3 C 5.53 g/m*3 22.3 C 16.1 km/h
1092 22-04-2020 18:55:00 22.2 C 5.5 g/m*3 22.2 C 16.1 km/h
1093 22-04-2020 19:00:00 22.2 C 5.5 g/m*3 22.2 C 17.7 km/h
1094 22-04-2020 19:05:00 21.8 C 5.76 g/m*3 21.8 C 17.7 km/h
1095 22-04-2020 19:10:00 21.8 C 5.76 g/m*3 21.8 C 14.5 km/h
1096 22-04-2020 19:15:00 21.8 C 5.56 g/m*3 21.8 C 9.7 km/h
1097 22-04-2020 19:20:00 21.7 C 5.53 g/m*3 21.7 C 16.1 km/h
1098 22-04-2020 19:25:00 21.4 C 5.62 g/m*3 21.4 C 8.1 km/h
1099 22-04-2020 19:30:00 21.2 C 5.56 g/m*3 21.2 C 14.5 km/h
1100 22-04-2020 19:35:00 20.9 C 5.46 g/m*3 20.9 C 11.3 km/h
Sensor: Nr:Datum:Temp:Abs-Feuchte:Windchill:Wind:
Aussen-T/F 1101 22-04-2020 19:40:00 20.8 C 5.43 g/m*3 20.8 C 6.4 km/h
1102 22-04-2020 19:45:00 20.7 C 5.58 g/m*3 20.7 C 11.3 km/h
1103 22-04-2020 19:50:00 20.6 C 5.73 g/m*3 20.6 C 8.1 km/h
1104 22-04-2020 19:55:00 20.4 C 5.48 g/m*3 20.4 C 9.7 km/h
1105 22-04-2020 20:00:00 20.3 C 5.8 g/m*3 20.3 C 8.1 km/h
1106 22-04-2020 20:05:00 20.3 C 5.8 g/m*3 20.3 C 1.6 km/h
1107 22-04-2020 20:10:00 20.1 C 6.26 g/m*3 20.1 C 1.6 km/h
1108 22-04-2020 20:15:00 19.7 C 6.45 g/m*3 19.7 C 3.2 km/h
1109 22-04-2020 20:20:00 19.2 C 5.77 g/m*3 19.2 C 4.8 km/h
1110 22-04-2020 20:25:00 18.7 C 6.08 g/m*3 18.7 C 0 km/h
1111 22-04-2020 20:30:00 18.1 C 6.18 g/m*3 18.1 C 0 km/h
1112 22-04-2020 20:35:00 17.4 C 5.63 g/m*3 17.4 C 3.2 km/h
1113 22-04-2020 20:40:00 17.2 C 6.15 g/m*3 17.2 C 3.2 km/h
1114 22-04-2020 20:45:00 16.8 C 6.15 g/m*3 16.8 C 1.6 km/h
1115 22-04-2020 20:50:00 16.5 C 6.04 g/m*3 16.5 C 3.2 km/h
1116 22-04-2020 20:55:00 16.3 C 5.83 g/m*3 16.3 C 4.8 km/h
1117 22-04-2020 21:00:00 16.1 C 5.62 g/m*3 16.1 C 3.2 km/h
1118 22-04-2020 21:05:00 16.1 C 6.03 g/m*3 16.1 C 0 km/h
1119 22-04-2020 21:10:00 15.8 C 5.92 g/m*3 15.8 C 3.2 km/h
1120 22-04-2020 21:15:00 15.6 C 6.12 g/m*3 15.6 C 1.6 km/h
1121 22-04-2020 21:20:00 15.2 C 5.97 g/m*3 15.2 C 0 km/h
1122 22-04-2020 21:25:00 14.9 C 5.86 g/m*3 14.9 C 0 km/h
1123 22-04-2020 21:30:00 14.7 C 6.04 g/m*3 14.7 C 0 km/h
1124 22-04-2020 21:35:00 14.4 C 6.06 g/m*3 14.4 C 0 km/h
1125 22-04-2020 21:40:00 14.3 C 6.14 g/m*3 14.3 C 0 km/h
Sensor: Nr:Datum:Temp:Abs-Feuchte:Windchill:Wind:
Aussen-T/F 1126 22-04-2020 21:45:00 14.2 C 6.11 g/m*3 14.2 C 4.8 km/h
1127 22-04-2020 21:50:00 14.2 C 6.11 g/m*3 14.2 C 3.2 km/h
1128 22-04-2020 21:55:00 14.1 C 6.19 g/m*3 14.1 C 1.6 km/h
1129 22-04-2020 22:00:00 14 C 6.15 g/m*3 14 C 1.6 km/h
1130 22-04-2020 22:05:00 13.8 C 6.08 g/m*3 13.8 C 0 km/h
1131 22-04-2020 22:10:00 13.7 C 5.92 g/m*3 13.7 C 1.6 km/h
1132 22-04-2020 22:15:00 13.7 C 6.16 g/m*3 13.7 C 1.6 km/h
1133 22-04-2020 22:20:00 13.7 C 6.04 g/m*3 13.7 C 4.8 km/h
1134 22-04-2020 22:25:00 13.8 C 6.08 g/m*3 13.8 C 4.8 km/h
1135 22-04-2020 22:30:00 13.9 C 6.23 g/m*3 13.9 C 3.2 km/h
1136 22-04-2020 22:35:00 13.9 C 6.23 g/m*3 13.9 C 0 km/h
1137 22-04-2020 22:40:00 13.8 C 5.84 g/m*3 13.8 C 3.2 km/h
1138 22-04-2020 22:45:00 13.8 C 6.08 g/m*3 13.8 C 1.6 km/h
1139 22-04-2020 22:50:00 13.8 C 6.08 g/m*3 13.8 C 3.2 km/h
1140 22-04-2020 22:55:00 13.9 C 6.11 g/m*3 13.9 C 3.2 km/h
1141 22-04-2020 23:00:00 13.8 C 6.2 g/m*3 13.8 C 1.6 km/h
1142 22-04-2020 23:05:00 13.8 C 6.08 g/m*3 13.8 C 4.8 km/h
1143 22-04-2020 23:10:00 14 C 6.27 g/m*3 14 C 6.4 km/h
1144 22-04-2020 23:15:00 13.9 C 5.87 g/m*3 13.9 C 3.2 km/h
1145 22-04-2020 23:20:00 14 C 6.15 g/m*3 14 C 4.8 km/h
1146 22-04-2020 23:25:00 13.9 C 6.11 g/m*3 13.9 C 1.6 km/h
1147 22-04-2020 23:30:00 13.8 C 6.08 g/m*3 13.8 C 1.6 km/h
1148 22-04-2020 23:35:00 13.7 C 6.04 g/m*3 13.7 C 6.4 km/h
1149 22-04-2020 23:40:00 13.6 C 6.24 g/m*3 13.6 C 3.2 km/h
1150 22-04-2020 23:45:00 13.6 C 6 g/m*3 13.6 C 3.2 km/h
Sensor: Nr:Datum:Temp:Abs-Feuchte:Windchill:Wind:
Aussen-T/F 1151 22-04-2020 23:50:00 13.5 C 6.08 g/m*3 13.5 C 3.2 km/h
1152 22-04-2020 23:55:00 13.3 C 6.12 g/m*3 13.3 C 0 km/h
1153 23-04-2020 00:00:00 13.1 C 6.05 g/m*3 13.1 C 4.8 km/h
1154 23-04-2020 00:05:00 13 C 6.24 g/m*3 13 C 3.2 km/h
1155 23-04-2020 00:10:00 12.9 C 6.2 g/m*3 12.9 C 4.8 km/h
1156 23-04-2020 00:15:00 12.9 C 6.09 g/m*3 12.9 C 1.6 km/h
1157 23-04-2020 00:20:00 12.8 C 6.05 g/m*3 12.8 C 3.2 km/h
1158 23-04-2020 00:25:00 12.8 C 6.05 g/m*3 12.8 C 1.6 km/h
1159 23-04-2020 00:30:00 12.8 C 6.16 g/m*3 12.8 C 4.8 km/h
1160 23-04-2020 00:35:00 12.8 C 6.16 g/m*3 12.8 C 4.8 km/h
1161 23-04-2020 00:40:00 12.9 C 6.2 g/m*3 12.9 C 3.2 km/h
1162 23-04-2020 00:45:00 12.8 C 6.16 g/m*3 12.8 C 3.2 km/h
1163 23-04-2020 00:50:00 12.7 C 6.01 g/m*3 12.7 C 6.4 km/h
1164 23-04-2020 00:55:00 12.7 C 6.12 g/m*3 12.7 C 0 km/h
1165 23-04-2020 01:00:00 12.6 C 6.2 g/m*3 12.6 C 1.6 km/h
1166 23-04-2020 01:05:00 12.6 C 6.08 g/m*3 12.6 C 6.4 km/h
1167 23-04-2020 01:10:00 12.6 C 6.2 g/m*3 12.6 C 3.2 km/h
1168 23-04-2020 01:15:00 12.4 C 6.12 g/m*3 12.4 C 3.2 km/h
1169 23-04-2020 01:20:00 12.2 C 6.15 g/m*3 12.2 C 3.2 km/h
1170 23-04-2020 01:25:00 12.1 C 6.01 g/m*3 12.1 C 8.1 km/h
1171 23-04-2020 01:30:00 12.1 C 6.01 g/m*3 12.1 C 1.6 km/h
1172 23-04-2020 01:35:00 12.2 C 6.26 g/m*3 12.2 C 6.4 km/h
1173 23-04-2020 01:40:00 11.9 C 6.14 g/m*3 11.9 C 1.6 km/h
1174 23-04-2020 01:45:00 11.7 C 6.17 g/m*3 11.7 C 0 km/h
1175 23-04-2020 01:50:00 11.4 C 6.16 g/m*3 11.4 C 3.2 km/h
Sensor: Nr:Datum:Temp:Abs-Feuchte:Windchill:Wind:
Aussen-T/F 1176 23-04-2020 01:55:00 11.2 C 6.18 g/m*3 11.2 C 1.6 km/h
1177 23-04-2020 02:00:00 11 C 6.21 g/m*3 11 C 1.6 km/h
1178 23-04-2020 02:05:00 10.7 C 6.09 g/m*3 10.7 C 3.2 km/h
1179 23-04-2020 02:10:00 10.5 C 6.11 g/m*3 10.5 C 0 km/h
1180 23-04-2020 02:15:00 10.3 C 6.13 g/m*3 10.3 C 0 km/h
1181 23-04-2020 02:20:00 10.2 C 6.19 g/m*3 10.2 C 0 km/h
1182 23-04-2020 02:25:00 10.2 C 6.19 g/m*3 10.2 C 3.2 km/h
1183 23-04-2020 02:30:00 10.3 C 6.13 g/m*3 10.3 C 3.2 km/h
1184 23-04-2020 02:35:00 10.4 C 6.17 g/m*3 10.4 C 1.6 km/h
1185 23-04-2020 02:40:00 10.4 C 6.17 g/m*3 10.4 C 1.6 km/h
1186 23-04-2020 02:45:00 10.3 C 6.22 g/m*3 10.3 C 1.6 km/h
1187 23-04-2020 02:50:00 10.1 C 6.15 g/m*3 10.1 C 4.8 km/h
1188 23-04-2020 02:55:00 9.9 C 6.07 g/m*3 9.9 C 3.2 km/h
1189 23-04-2020 03:00:00 9.9 C 6.16 g/m*3 9.9 C 1.6 km/h
1190 23-04-2020 03:05:00 9.8 C 6.12 g/m*3 9.8 C 0 km/h
1191 23-04-2020 03:10:00 9.7 C 6.18 g/m*3 9.7 C 0 km/h
1192 23-04-2020 03:15:00 9.7 C 6.18 g/m*3 9.7 C 1.6 km/h
1193 23-04-2020 03:20:00 9.6 C 6.14 g/m*3 9.6 C 3.2 km/h
1194 23-04-2020 03:25:00 9.5 C 6.1 g/m*3 9.5 C 1.6 km/h
1195 23-04-2020 03:30:00 9.4 C 6.15 g/m*3 9.4 C 4.8 km/h
1196 23-04-2020 03:35:00 9.4 C 6.15 g/m*3 9.4 C 1.6 km/h
1197 23-04-2020 03:40:00 9.3 C 6.11 g/m*3 9.3 C 0 km/h
1198 23-04-2020 03:45:00 9.3 C 6.11 g/m*3 9.3 C 0 km/h
1199 23-04-2020 03:50:00 9.3 C 6.02 g/m*3 9.3 C 3.2 km/h
1200 23-04-2020 03:55:00 9.3 C 6.11 g/m*3 9.3 C 1.6 km/h
Sensor: Nr:Datum:Temp:Abs-Feuchte:Windchill:Wind:
Aussen-T/F 1201 23-04-2020 04:00:00 9.2 C 6.07 g/m*3 9.2 C 4.8 km/h
1202 23-04-2020 04:05:00 9.1 C 6.03 g/m*3 9.1 C 0 km/h
1203 23-04-2020 04:10:00 8.9 C 6.04 g/m*3 8.9 C 1.6 km/h
1204 23-04-2020 04:15:00 8.8 C 6.01 g/m*3 8.8 C 0 km/h
1205 23-04-2020 04:20:00 8.6 C 6.02 g/m*3 8.6 C 0 km/h
1206 23-04-2020 04:25:00 8.4 C 6.02 g/m*3 8.4 C 0 km/h
1207 23-04-2020 04:30:00 8.3 C 6.07 g/m*3 8.3 C 0 km/h
1208 23-04-2020 04:35:00 8.1 C 6.07 g/m*3 8.1 C 0 km/h
1209 23-04-2020 04:40:00 7.9 C 6 g/m*3 7.9 C 3.2 km/h
1210 23-04-2020 04:45:00 7.8 C 6.04 g/m*3 7.8 C 0 km/h
1211 23-04-2020 04:50:00 7.8 C 6.04 g/m*3 7.8 C 0 km/h
1212 23-04-2020 04:55:00 7.8 C 6.12 g/m*3 7.8 C 0 km/h
1213 23-04-2020 05:00:00 7.6 C 6.04 g/m*3 7.6 C 0 km/h
1214 23-04-2020 05:05:00 7.4 C 5.96 g/m*3 7.4 C 0 km/h
1215 23-04-2020 05:10:00 7.3 C 6 g/m*3 7.3 C 0 km/h
1216 23-04-2020 05:15:00 7.2 C 5.97 g/m*3 7.2 C 0 km/h
1217 23-04-2020 05:20:00 7.1 C 6.01 g/m*3 7.1 C 0 km/h
1218 23-04-2020 05:25:00 6.9 C 5.93 g/m*3 6.9 C 3.2 km/h
1219 23-04-2020 05:30:00 6.8 C 5.97 g/m*3 6.8 C 0 km/h
1220 23-04-2020 05:35:00 6.7 C 5.93 g/m*3 6.7 C 0 km/h
1221 23-04-2020 05:40:00 6.7 C 5.93 g/m*3 6.7 C 0 km/h
1222 23-04-2020 05:45:00 6.7 C 5.93 g/m*3 6.7 C 0 km/h
1223 23-04-2020 05:50:00 6.7 C 6 g/m*3 6.7 C 0 km/h
1224 23-04-2020 05:55:00 6.6 C 5.96 g/m*3 6.6 C 0 km/h
1225 23-04-2020 06:00:00 6.6 C 5.96 g/m*3 6.6 C 0 km/h
Sensor: Nr:Datum:Temp:Abs-Feuchte:Windchill:Wind:
Aussen-T/F 1226 23-04-2020 06:05:00 6.5 C 5.92 g/m*3 6.5 C 0 km/h
1227 23-04-2020 06:10:00 6.5 C 5.92 g/m*3 6.5 C 0 km/h
1228 23-04-2020 06:15:00 6.4 C 5.89 g/m*3 6.4 C 1.6 km/h
1229 23-04-2020 06:20:00 6.3 C 5.85 g/m*3 6.3 C 0 km/h
1230 23-04-2020 06:25:00 6.3 C 5.92 g/m*3 6.3 C 0 km/h
1231 23-04-2020 06:30:00 6.2 C 5.88 g/m*3 6.2 C 0 km/h
1232 23-04-2020 06:35:00 6.2 C 5.88 g/m*3 6.2 C 0 km/h
1233 23-04-2020 06:40:00 6.2 C 5.88 g/m*3 6.2 C 0 km/h
1234 23-04-2020 06:45:00 6.2 C 5.88 g/m*3 6.2 C 0 km/h
1235 23-04-2020 06:50:00 6.1 C 5.92 g/m*3 6.1 C 0 km/h
1236 23-04-2020 06:55:00 6.1 C 5.92 g/m*3 6.1 C 0 km/h
1237 23-04-2020 07:00:00 6.1 C 5.92 g/m*3 6.1 C 0 km/h
1238 23-04-2020 07:05:00 6.1 C 5.99 g/m*3 6.1 C 0 km/h
1239 23-04-2020 07:10:00 6.1 C 5.99 g/m*3 6.1 C 0 km/h
1240 23-04-2020 07:15:00 6 C 5.95 g/m*3 6 C 0 km/h
1241 23-04-2020 07:20:00 5.9 C 5.98 g/m*3 5.9 C 0 km/h
1242 23-04-2020 07:25:00 5.9 C 6.06 g/m*3 5.9 C 0 km/h
1243 23-04-2020 07:30:00 5.9 C 6.06 g/m*3 5.9 C 0 km/h
1244 23-04-2020 07:35:00 5.9 C 6.13 g/m*3 5.9 C 0 km/h
1245 23-04-2020 07:40:00 5.9 C 6.13 g/m*3 5.9 C 0 km/h
1246 23-04-2020 07:45:00 5.9 C 6.13 g/m*3 5.9 C 0 km/h
1247 23-04-2020 07:50:00 5.9 C 6.13 g/m*3 5.9 C 0 km/h
1248 23-04-2020 07:55:00 5.9 C 6.2 g/m*3 5.9 C 1.6 km/h
1249 23-04-2020 08:00:00 5.9 C 6.2 g/m*3 5.9 C 0 km/h
1250 23-04-2020 08:05:00 5.9 C 6.2 g/m*3 5.9 C 0 km/h
Sensor: Nr:Datum:Temp:Abs-Feuchte:Windchill:Wind:
Aussen-T/F 1251 23-04-2020 08:10:00 5.9 C 6.2 g/m*3 5.9 C 0 km/h
1252 23-04-2020 08:15:00 6 C 6.31 g/m*3 6 C 1.6 km/h
1253 23-04-2020 08:20:00 6.1 C 6.36 g/m*3 6.1 C 1.6 km/h
1254 23-04-2020 08:25:00 6.2 C 6.4 g/m*3 6.2 C 0 km/h
1255 23-04-2020 08:30:00 6.2 C 6.4 g/m*3 6.2 C 0 km/h
1256 23-04-2020 08:35:00 6.3 C 6.44 g/m*3 6.3 C 3.2 km/h
1257 23-04-2020 08:40:00 6.4 C 6.48 g/m*3 6.4 C 0 km/h
1258 23-04-2020 08:45:00 6.6 C 6.57 g/m*3 6.6 C 1.6 km/h
1259 23-04-2020 08:50:00 6.8 C 6.65 g/m*3 6.8 C 1.6 km/h
1260 23-04-2020 08:55:00 6.9 C 6.7 g/m*3 6.9 C 0 km/h
1261 23-04-2020 09:00:00 7.1 C 6.71 g/m*3 7.1 C 0 km/h
1262 23-04-2020 09:05:00 7.3 C 6.79 g/m*3 7.3 C 0 km/h
1263 23-04-2020 09:10:00 7.5 C 6.88 g/m*3 7.5 C 0 km/h
1264 23-04-2020 09:15:00 7.8 C 6.94 g/m*3 7.8 C 3.2 km/h
1265 23-04-2020 09:20:00 8 C 6.94 g/m*3 8 C 4.8 km/h
1266 23-04-2020 09:25:00 8.2 C 6.95 g/m*3 8.2 C 3.2 km/h
1267 23-04-2020 09:30:00 8.5 C 7.09 g/m*3 8.5 C 3.2 km/h
1268 23-04-2020 09:35:00 8.7 C 7.09 g/m*3 8.7 C 0 km/h
1269 23-04-2020 09:40:00 8.9 C 7.18 g/m*3 8.9 C 0 km/h
1270 23-04-2020 09:45:00 9.2 C 7.14 g/m*3 9.2 C 3.2 km/h
1271 23-04-2020 09:50:00 9.4 C 7.24 g/m*3 9.4 C 0 km/h
1272 23-04-2020 09:55:00 9.6 C 7.24 g/m*3 9.6 C 0 km/h
1273 23-04-2020 10:00:00 9.9 C 7.28 g/m*3 9.9 C 0 km/h
1274 23-04-2020 10:05:00 10.2 C 7.42 g/m*3 10.2 C 0 km/h
1275 23-04-2020 10:10:00 10.4 C 7.42 g/m*3 10.4 C 0 km/h
Sensor: Nr:Datum:Temp:Abs-Feuchte:Windchill:Wind:
Aussen-T/F 1276 23-04-2020 10:15:00 10.6 C 7.42 g/m*3 10.6 C 3.2 km/h
1277 23-04-2020 10:20:00 11 C 7.21 g/m*3 11 C 1.6 km/h
1278 23-04-2020 10:25:00 11.4 C 7.29 g/m*3 11.4 C 1.6 km/h
1279 23-04-2020 10:30:00 11.8 C 7.37 g/m*3 11.8 C 0 km/h
1280 23-04-2020 10:35:00 12.1 C 7.51 g/m*3 12.1 C 3.2 km/h
1281 23-04-2020 10:40:00 12.4 C 7.65 g/m*3 12.4 C 1.6 km/h
1282 23-04-2020 10:45:00 12.7 C 7.12 g/m*3 12.7 C 1.6 km/h
1283 23-04-2020 10:50:00 13.1 C 7.3 g/m*3 13.1 C 3.2 km/h
1284 23-04-2020 10:55:00 13.8 C 6.91 g/m*3 13.8 C 8.1 km/h
1285 23-04-2020 11:00:00 14.9 C 6.88 g/m*3 14.9 C 9.7 km/h
1286 23-04-2020 11:05:00 15.3 C 7.7 g/m*3 15.3 C 3.2 km/h
1287 23-04-2020 11:10:00 15.6 C 7.05 g/m*3 15.6 C 4.8 km/h
1288 23-04-2020 11:15:00 15.8 C 6.87 g/m*3 15.8 C 8.1 km/h
1289 23-04-2020 11:20:00 16.2 C 6.76 g/m*3 16.2 C 8.1 km/h
1290 23-04-2020 11:25:00 16.4 C 6.56 g/m*3 16.4 C 9.7 km/h
1291 23-04-2020 11:30:00 16.8 C 6.58 g/m*3 16.8 C 12.9 km/h
1292 23-04-2020 11:35:00 16.9 C 7.48 g/m*3 16.9 C 6.4 km/h
1293 23-04-2020 11:40:00 16.9 C 6.9 g/m*3 16.9 C 6.4 km/h
1294 23-04-2020 11:45:00 17.1 C 6.84 g/m*3 17.1 C 6.4 km/h
1295 23-04-2020 11:50:00 17.2 C 6.88 g/m*3 17.2 C 9.7 km/h
1296 23-04-2020 11:55:00 17.3 C 6.63 g/m*3 17.3 C 12.9 km/h
1297 23-04-2020 12:00:00 17.5 C 6.86 g/m*3 17.5 C 8.1 km/h
1298 23-04-2020 12:05:00 17.7 C 6.64 g/m*3 17.7 C 11.3 km/h
1299 23-04-2020 12:10:00 17.7 C 6.64 g/m*3 17.7 C 17.7 km/h
1300 23-04-2020 12:15:00 17.9 C 6.87 g/m*3 17.9 C 14.5 km/h
Sensor: Nr:Datum:Temp:Abs-Feuchte:Windchill:Wind:
Aussen-T/F 1301 23-04-2020 12:20:00 18 C 6.76 g/m*3 18 C 9.7 km/h
1302 23-04-2020 12:25:00 18.1 C 6.8 g/m*3 18.1 C 11.3 km/h
1303 23-04-2020 12:30:00 18.2 C 6.68 g/m*3 18.2 C 12.9 km/h
1304 23-04-2020 12:35:00 18.3 C 6.72 g/m*3 18.3 C 9.7 km/h
1305 23-04-2020 12:40:00 18.3 C 6.72 g/m*3 18.3 C 11.3 km/h
1306 23-04-2020 12:45:00 18.4 C 6.76 g/m*3 18.4 C 8.1 km/h
1307 23-04-2020 12:50:00 18.4 C 6.61 g/m*3 18.4 C 4.8 km/h
1308 23-04-2020 12:55:00 18.5 C 6.49 g/m*3 18.5 C 6.4 km/h
1309 23-04-2020 13:00:00 18.7 C 6.08 g/m*3 18.7 C 12.9 km/h
1310 23-04-2020 13:05:00 18.9 C 5.67 g/m*3 18.9 C 11.3 km/h
1311 23-04-2020 13:10:00 19 C 5.87 g/m*3 19 C 6.4 km/h
1312 23-04-2020 13:15:00 19.2 C 5.77 g/m*3 19.2 C 9.7 km/h
1313 23-04-2020 13:20:00 19.3 C 5.81 g/m*3 19.3 C 4.8 km/h
1314 23-04-2020 13:25:00 19.3 C 5.81 g/m*3 19.3 C 3.2 km/h
1315 23-04-2020 13:30:00 19.4 C 6.01 g/m*3 19.4 C 11.3 km/h
1316 23-04-2020 13:35:00 19.6 C 5.91 g/m*3 19.6 C 9.7 km/h
1317 23-04-2020 13:40:00 19.7 C 5.77 g/m*3 19.7 C 11.3 km/h
1318 23-04-2020 13:45:00 19.8 C 5.98 g/m*3 19.8 C 9.7 km/h
1319 23-04-2020 13:50:00 20.1 C 5.74 g/m*3 20.1 C 11.3 km/h
1320 23-04-2020 13:55:00 20.1 C 6.08 g/m*3 20.1 C 14.5 km/h
1321 23-04-2020 14:00:00 20.1 C 5.74 g/m*3 20.1 C 16.1 km/h
1322 23-04-2020 14:05:00 20.2 C 5.77 g/m*3 20.2 C 9.7 km/h
1323 23-04-2020 14:10:00 20.3 C 5.8 g/m*3 20.3 C 6.4 km/h
1324 23-04-2020 14:15:00 20.3 C 6.16 g/m*3 20.3 C 8.1 km/h
1325 23-04-2020 14:20:00 20.4 C 5.84 g/m*3 20.4 C 9.7 km/h
Sensor: Nr:Datum:Temp:Abs-Feuchte:Windchill:Wind:
Aussen-T/F 1326 23-04-2020 14:25:00 20.6 C 5.91 g/m*3 20.6 C 8.1 km/h
1327 23-04-2020 14:30:00 20.8 C 5.98 g/m*3 20.8 C 9.7 km/h
1328 23-04-2020 14:35:00 20.9 C 6.01 g/m*3 20.9 C 9.7 km/h
1329 23-04-2020 14:40:00 21 C 5.86 g/m*3 21 C 9.7 km/h
1330 23-04-2020 14:45:00 21 C 6.05 g/m*3 21 C 9.7 km/h
1331 23-04-2020 14:50:00 21.1 C 6.08 g/m*3 21.1 C 8.1 km/h
1332 23-04-2020 14:55:00 21.3 C 5.96 g/m*3 21.3 C 9.7 km/h
1333 23-04-2020 15:00:00 21.4 C 6.19 g/m*3 21.4 C 8.1 km/h
1334 23-04-2020 15:05:00 21.6 C 6.07 g/m*3 21.6 C 3.2 km/h
1335 23-04-2020 15:10:00 21.7 C 5.91 g/m*3 21.7 C 6.4 km/h
1336 23-04-2020 15:15:00 21.6 C 5.69 g/m*3 21.6 C 9.7 km/h
1337 23-04-2020 15:20:00 21.7 C 6.1 g/m*3 21.7 C 8.1 km/h
1338 23-04-2020 15:25:00 21.8 C 5.95 g/m*3 21.8 C 8.1 km/h
1339 23-04-2020 15:30:00 22.1 C 6.05 g/m*3 22.1 C 11.3 km/h
1340 23-04-2020 15:35:00 22.2 C 5.89 g/m*3 22.2 C 9.7 km/h
1341 23-04-2020 15:40:00 22.3 C 5.73 g/m*3 22.3 C 9.7 km/h
1342 23-04-2020 15:45:00 22.4 C 6.16 g/m*3 22.4 C 6.4 km/h
1343 23-04-2020 15:50:00 22.6 C 6.03 g/m*3 22.6 C 9.7 km/h
1344 23-04-2020 15:55:00 22.6 C 5.83 g/m*3 22.6 C 11.3 km/h
1345 23-04-2020 16:00:00 22.6 C 6.03 g/m*3 22.6 C 12.9 km/h
1346 23-04-2020 16:05:00 22.7 C 6.06 g/m*3 22.7 C 12.9 km/h
1347 23-04-2020 16:10:00 22.7 C 6.06 g/m*3 22.7 C 8.1 km/h
1348 23-04-2020 16:15:00 22.7 C 6.06 g/m*3 22.7 C 9.7 km/h
1349 23-04-2020 16:20:00 22.8 C 6.1 g/m*3 22.8 C 8.1 km/h
1350 23-04-2020 16:25:00 23.2 C 6.03 g/m*3 23.2 C 12.9 km/h
Sensor: Nr:Datum:Temp:Abs-Feuchte:Windchill:Wind:
Aussen-T/F 1351 23-04-2020 16:30:00 23.5 C 5.92 g/m*3 23.5 C 12.9 km/h
1352 23-04-2020 16:35:00 23.4 C 5.89 g/m*3 23.4 C 9.7 km/h
1353 23-04-2020 16:40:00 23.3 C 5.85 g/m*3 23.3 C 11.3 km/h
1354 23-04-2020 16:45:00 23.4 C 6.31 g/m*3 23.4 C 6.4 km/h
1355 23-04-2020 16:50:00 23.9 C 6.27 g/m*3 23.9 C 9.7 km/h
1356 23-04-2020 16:55:00 24.3 C 6.2 g/m*3 24.3 C 8.1 km/h
1357 23-04-2020 17:00:00 24.2 C 6.16 g/m*3 24.2 C 4.8 km/h
1358 23-04-2020 17:05:00 24.4 C 6.23 g/m*3 24.4 C 8.1 km/h
1359 23-04-2020 17:10:00 24.2 C 6.16 g/m*3 24.2 C 14.5 km/h
1360 23-04-2020 17:15:00 24.1 C 6.13 g/m*3 24.1 C 4.8 km/h
1361 23-04-2020 17:20:00 24.2 C 6.16 g/m*3 24.2 C 11.3 km/h
1362 23-04-2020 17:25:00 24.5 C 5.82 g/m*3 24.5 C 4.8 km/h
1363 23-04-2020 17:30:00 24.7 C 6.11 g/m*3 24.7 C 4.8 km/h
1364 23-04-2020 17:35:00 24.7 C 5.88 g/m*3 24.7 C 11.3 km/h
1365 23-04-2020 17:40:00 24.3 C 5.97 g/m*3 24.3 C 9.7 km/h
1366 23-04-2020 17:45:00 24.2 C 6.16 g/m*3 24.2 C 3.2 km/h
1367 23-04-2020 17:50:00 24.2 C 6.16 g/m*3 24.2 C 4.8 km/h
1368 23-04-2020 17:55:00 24.6 C 6.53 g/m*3 24.6 C 4.8 km/h
1369 23-04-2020 18:00:00 24.8 C 5.69 g/m*3 24.8 C 6.4 km/h
1370 23-04-2020 18:05:00 25.1 C 6.25 g/m*3 25.1 C 3.2 km/h
1371 23-04-2020 18:10:00 25.3 C 5.85 g/m*3 25.3 C 8.1 km/h
1372 23-04-2020 18:15:00 25.2 C 6.75 g/m*3 25.2 C 8.1 km/h
1373 23-04-2020 18:20:00 25.5 C 6.39 g/m*3 25.5 C 1.6 km/h
1374 23-04-2020 18:25:00 25.7 C 5.99 g/m*3 25.7 C 1.6 km/h
1375 23-04-2020 18:30:00 25.8 C 6.02 g/m*3 25.8 C 3.2 km/h
Sensor: Nr:Datum:Temp:Abs-Feuchte:Windchill:Wind:
Aussen-T/F 1376 23-04-2020 18:35:00 25.7 C 5.99 g/m*3 25.7 C 8.1 km/h
1377 23-04-2020 18:40:00 25.6 C 6.43 g/m*3 25.6 C 6.4 km/h
1378 23-04-2020 18:45:00 25.4 C 6.36 g/m*3 25.4 C 3.2 km/h
1379 23-04-2020 18:50:00 25.3 C 6.32 g/m*3 25.3 C 6.4 km/h
1380 23-04-2020 18:55:00 24.9 C 6.18 g/m*3 24.9 C 8.1 km/h
1381 23-04-2020 19:00:00 24.7 C 6.79 g/m*3 24.7 C 6.4 km/h
1382 23-04-2020 19:05:00 24.7 C 6.56 g/m*3 24.7 C 1.6 km/h
1383 23-04-2020 19:10:00 24.8 C 5.92 g/m*3 24.8 C 1.6 km/h
1384 23-04-2020 19:15:00 24.8 C 6.37 g/m*3 24.8 C 1.6 km/h
1385 23-04-2020 19:20:00 24.7 C 7.02 g/m*3 24.7 C 1.6 km/h
1386 23-04-2020 19:25:00 24.4 C 7.34 g/m*3 24.4 C 3.2 km/h
1387 23-04-2020 19:30:00 24.2 C 7.92 g/m*3 24.2 C 3.2 km/h
1388 23-04-2020 19:35:00 22.9 C 11.85 g/m*3 22.9 C 4.8 km/h
1389 23-04-2020 19:40:00 20.8 C 11.05 g/m*3 20.8 C 4.8 km/h
1390 23-04-2020 19:45:00 19 C 10.92 g/m*3 19 C 4.8 km/h
1391 23-04-2020 19:50:00 17.6 C 10.05 g/m*3 17.6 C 4.8 km/h
1392 23-04-2020 19:55:00 16.4 C 9.21 g/m*3 16.4 C 8.1 km/h
1393 23-04-2020 20:00:00 15.7 C 8.83 g/m*3 15.7 C 8.1 km/h
1394 23-04-2020 20:05:00 15.3 C 8.62 g/m*3 15.3 C 9.7 km/h
1395 23-04-2020 20:10:00 15.2 C 8.57 g/m*3 15.2 C 8.1 km/h
1396 23-04-2020 20:15:00 14.9 C 8.28 g/m*3 14.9 C 8.1 km/h
1397 23-04-2020 20:20:00 14.8 C 8.36 g/m*3 14.8 C 8.1 km/h
1398 23-04-2020 20:25:00 14.7 C 8.44 g/m*3 14.7 C 8.1 km/h
1399 23-04-2020 20:30:00 14.6 C 8.51 g/m*3 14.6 C 8.1 km/h
1400 23-04-2020 20:35:00 14.4 C 8.53 g/m*3 14.4 C 6.4 km/h
Sensor: Nr:Datum:Temp:Abs-Feuchte:Windchill:Wind:
Aussen-T/F 1401 23-04-2020 20:40:00 14.3 C 8.6 g/m*3 14.3 C 4.8 km/h
1402 23-04-2020 20:45:00 14.1 C 8.37 g/m*3 14.1 C 3.2 km/h
1403 23-04-2020 20:50:00 13.9 C 7.91 g/m*3 13.9 C 4.8 km/h
1404 23-04-2020 20:55:00 13.8 C 7.86 g/m*3 13.8 C 4.8 km/h
1405 23-04-2020 21:00:00 13.6 C 7.65 g/m*3 13.6 C 4.8 km/h
1406 23-04-2020 21:05:00 13.4 C 7.44 g/m*3 13.4 C 4.8 km/h
1407 23-04-2020 21:10:00 13.4 C 7.56 g/m*3 13.4 C 4.8 km/h
1408 23-04-2020 21:15:00 13.3 C 7.63 g/m*3 13.3 C 3.2 km/h
1409 23-04-2020 21:20:00 13.2 C 7.46 g/m*3 13.2 C 1.6 km/h
1410 23-04-2020 21:25:00 13.1 C 7.42 g/m*3 13.1 C 0 km/h
1411 23-04-2020 21:30:00 12.9 C 7.33 g/m*3 12.9 C 0 km/h
1412 23-04-2020 21:35:00 12.8 C 7.17 g/m*3 12.8 C 0 km/h
1413 23-04-2020 21:40:00 12.7 C 7.24 g/m*3 12.7 C 0 km/h
1414 23-04-2020 21:45:00 12.6 C 7.3 g/m*3 12.6 C 0 km/h
1415 23-04-2020 21:50:00 12.4 C 7.21 g/m*3 12.4 C 0 km/h
1416 23-04-2020 21:55:00 12.3 C 7.06 g/m*3 12.3 C 0 km/h
1417 23-04-2020 22:00:00 12.2 C 7.23 g/m*3 12.2 C 0 km/h
1418 23-04-2020 22:05:00 12.1 C 7.18 g/m*3 12.1 C 0 km/h
1419 23-04-2020 22:10:00 11.9 C 7.2 g/m*3 11.9 C 0 km/h
1420 23-04-2020 22:15:00 11.7 C 7.01 g/m*3 11.7 C 0 km/h
1421 23-04-2020 22:20:00 11.7 C 7.11 g/m*3 11.7 C 0 km/h
1422 23-04-2020 22:25:00 11.6 C 6.96 g/m*3 11.6 C 0 km/h
1423 23-04-2020 22:30:00 11.4 C 6.98 g/m*3 11.4 C 0 km/h
1424 23-04-2020 22:35:00 11.3 C 6.94 g/m*3 11.3 C 0 km/h
1425 23-04-2020 22:40:00 11.2 C 6.89 g/m*3 11.2 C 0 km/h
Sensor: Nr:Datum:Temp:Abs-Feuchte:Windchill:Wind:
Aussen-T/F 1426 23-04-2020 22:45:00 11.2 C 6.99 g/m*3 11.2 C 0 km/h
1427 23-04-2020 22:50:00 11.1 C 6.85 g/m*3 11.1 C 0 km/h
1428 23-04-2020 22:55:00 10.9 C 6.86 g/m*3 10.9 C 0 km/h
1429 23-04-2020 23:00:00 10.8 C 6.92 g/m*3 10.8 C 0 km/h
1430 23-04-2020 23:05:00 10.7 C 6.88 g/m*3 10.7 C 0 km/h
1431 23-04-2020 23:10:00 10.6 C 6.83 g/m*3 10.6 C 0 km/h
1432 23-04-2020 23:15:00 10.4 C 6.84 g/m*3 10.4 C 0 km/h
1433 23-04-2020 23:20:00 10.3 C 6.8 g/m*3 10.3 C 0 km/h
1434 23-04-2020 23:25:00 10.1 C 6.71 g/m*3 10.1 C 0 km/h
1435 23-04-2020 23:30:00 10.1 C 6.81 g/m*3 10.1 C 0 km/h
1436 23-04-2020 23:35:00 10 C 6.77 g/m*3 10 C 0 km/h
1437 23-04-2020 23:40:00 9.8 C 6.68 g/m*3 9.8 C 0 km/h
1438 23-04-2020 23:45:00 9.7 C 6.64 g/m*3 9.7 C 0 km/h
1439 23-04-2020 23:50:00 9.7 C 6.64 g/m*3 9.7 C 0 km/h
1440 23-04-2020 23:55:00 9.7 C 6.64 g/m*3 9.7 C 0 km/h
1441 24-04-2020 00:00:00 9.6 C 6.6 g/m*3 9.6 C 0 km/h
1442 24-04-2020 00:05:00 9.6 C 6.6 g/m*3 9.6 C 0 km/h
1443 24-04-2020 00:10:00 9.6 C 6.69 g/m*3 9.6 C 0 km/h
1444 24-04-2020 00:15:00 9.6 C 6.78 g/m*3 9.6 C 1.6 km/h
1445 24-04-2020 00:20:00 9.6 C 6.69 g/m*3 9.6 C 0 km/h
1446 24-04-2020 00:25:00 9.5 C 6.64 g/m*3 9.5 C 0 km/h
1447 24-04-2020 00:30:00 9.4 C 6.69 g/m*3 9.4 C 0 km/h
1448 24-04-2020 00:35:00 9.3 C 6.65 g/m*3 9.3 C 0 km/h
1449 24-04-2020 00:40:00 9.1 C 6.57 g/m*3 9.1 C 1.6 km/h
1450 24-04-2020 00:45:00 9 C 6.52 g/m*3 9 C 1.6 km/h
Sensor: Nr:Datum:Temp:Abs-Feuchte:Windchill:Wind:
Aussen-T/F 1451 24-04-2020 00:50:00 8.9 C 6.57 g/m*3 8.9 C 0 km/h
1452 24-04-2020 00:55:00 8.8 C 6.53 g/m*3 8.8 C 0 km/h
1453 24-04-2020 01:00:00 8.8 C 6.61 g/m*3 8.8 C 0 km/h
1454 24-04-2020 01:05:00 8.7 C 6.57 g/m*3 8.7 C 0 km/h
1455 24-04-2020 01:10:00 8.7 C 6.66 g/m*3 8.7 C 1.6 km/h
1456 24-04-2020 01:15:00 8.6 C 6.62 g/m*3 8.6 C 3.2 km/h
1457 24-04-2020 01:20:00 8.6 C 6.62 g/m*3 8.6 C 0 km/h
1458 24-04-2020 01:25:00 8.5 C 6.49 g/m*3 8.5 C 0 km/h
1459 24-04-2020 01:30:00 8.4 C 6.45 g/m*3 8.4 C 0 km/h
1460 24-04-2020 01:35:00 8.4 C 6.53 g/m*3 8.4 C 3.2 km/h
1461 24-04-2020 01:40:00 8.4 C 6.62 g/m*3 8.4 C 0 km/h
1462 24-04-2020 01:45:00 8.4 C 6.62 g/m*3 8.4 C 0 km/h
1463 24-04-2020 01:50:00 8.3 C 6.57 g/m*3 8.3 C 0 km/h
1464 24-04-2020 01:55:00 8.2 C 6.53 g/m*3 8.2 C 1.6 km/h
1465 24-04-2020 02:00:00 8.2 C 6.53 g/m*3 8.2 C 0 km/h
1466 24-04-2020 02:05:00 8.1 C 6.57 g/m*3 8.1 C 0 km/h
1467 24-04-2020 02:10:00 7.9 C 6.41 g/m*3 7.9 C 0 km/h
1468 24-04-2020 02:15:00 7.8 C 6.37 g/m*3 7.8 C 0 km/h
1469 24-04-2020 02:20:00 7.7 C 6.41 g/m*3 7.7 C 0 km/h
1470 24-04-2020 02:25:00 7.7 C 6.49 g/m*3 7.7 C 1.6 km/h
1471 24-04-2020 02:30:00 7.7 C 6.49 g/m*3 7.7 C 1.6 km/h
1472 24-04-2020 02:35:00 7.7 C 6.57 g/m*3 7.7 C 0 km/h
1473 24-04-2020 02:40:00 7.6 C 6.44 g/m*3 7.6 C 0 km/h
1474 24-04-2020 02:45:00 7.4 C 6.36 g/m*3 7.4 C 1.6 km/h
1475 24-04-2020 02:50:00 7.4 C 6.44 g/m*3 7.4 C 0 km/h
Sensor: Nr:Datum:Temp:Abs-Feuchte:Windchill:Wind:
Aussen-T/F 1476 24-04-2020 02:55:00 7.3 C 6.48 g/m*3 7.3 C 0 km/h
1477 24-04-2020 03:00:00 7.3 C 6.48 g/m*3 7.3 C 1.6 km/h
1478 24-04-2020 03:05:00 7.3 C 6.48 g/m*3 7.3 C 1.6 km/h
1479 24-04-2020 03:10:00 7.3 C 6.48 g/m*3 7.3 C 0 km/h
1480 24-04-2020 03:15:00 7.2 C 6.44 g/m*3 7.2 C 0 km/h
1481 24-04-2020 03:20:00 7.1 C 6.4 g/m*3 7.1 C 0 km/h
1482 24-04-2020 03:25:00 6.9 C 6.39 g/m*3 6.9 C 0 km/h
1483 24-04-2020 03:30:00 6.9 C 6.39 g/m*3 6.9 C 0 km/h
1484 24-04-2020 03:35:00 6.8 C 6.35 g/m*3 6.8 C 0 km/h
1485 24-04-2020 03:40:00 6.8 C 6.42 g/m*3 6.8 C 0 km/h
1486 24-04-2020 03:45:00 6.7 C 6.38 g/m*3 6.7 C 1.6 km/h
1487 24-04-2020 03:50:00 6.7 C 6.38 g/m*3 6.7 C 0 km/h
1488 24-04-2020 03:55:00 6.7 C 6.38 g/m*3 6.7 C 0 km/h
1489 24-04-2020 04:00:00 6.7 C 6.38 g/m*3 6.7 C 0 km/h
1490 24-04-2020 04:05:00 6.6 C 6.34 g/m*3 6.6 C 0 km/h
1491 24-04-2020 04:10:00 6.5 C 6.37 g/m*3 6.5 C 0 km/h
1492 24-04-2020 04:15:00 6.5 C 6.37 g/m*3 6.5 C 0 km/h
1493 24-04-2020 04:20:00 6.4 C 6.33 g/m*3 6.4 C 0 km/h
1494 24-04-2020 04:25:00 6.3 C 6.29 g/m*3 6.3 C 1.6 km/h
1495 24-04-2020 04:30:00 6.3 C 6.29 g/m*3 6.3 C 0 km/h
1496 24-04-2020 04:35:00 6.3 C 6.37 g/m*3 6.3 C 1.6 km/h
1497 24-04-2020 04:40:00 6.5 C 6.45 g/m*3 6.5 C 1.6 km/h
1498 24-04-2020 04:45:00 6.6 C 6.49 g/m*3 6.6 C 1.6 km/h
1499 24-04-2020 04:50:00 6.7 C 6.53 g/m*3 6.7 C 0 km/h
1500 24-04-2020 04:55:00 6.7 C 6.46 g/m*3 6.7 C 0 km/h
Sensor: Nr:Datum:Temp:Abs-Feuchte:Windchill:Wind:
Aussen-T/F 1501 24-04-2020 05:00:00 6.7 C 6.46 g/m*3 6.7 C 1.6 km/h
1502 24-04-2020 05:05:00 6.6 C 6.42 g/m*3 6.6 C 0 km/h
1503 24-04-2020 05:10:00 6.5 C 6.37 g/m*3 6.5 C 1.6 km/h
1504 24-04-2020 05:15:00 6.4 C 6.33 g/m*3 6.4 C 0 km/h
1505 24-04-2020 05:20:00 6.3 C 6.37 g/m*3 6.3 C 0 km/h
1506 24-04-2020 05:25:00 6.3 C 6.37 g/m*3 6.3 C 1.6 km/h
1507 24-04-2020 05:30:00 6.3 C 6.44 g/m*3 6.3 C 0 km/h
1508 24-04-2020 05:35:00 6.3 C 6.44 g/m*3 6.3 C 0 km/h
1509 24-04-2020 05:40:00 6.4 C 6.48 g/m*3 6.4 C 0 km/h
1510 24-04-2020 05:45:00 6.4 C 6.48 g/m*3 6.4 C 0 km/h
1511 24-04-2020 05:50:00 6.4 C 6.48 g/m*3 6.4 C 0 km/h
1512 24-04-2020 05:55:00 6.4 C 6.48 g/m*3 6.4 C 0 km/h
1513 24-04-2020 06:00:00 6.4 C 6.48 g/m*3 6.4 C 0 km/h
1514 24-04-2020 06:05:00 6.4 C 6.48 g/m*3 6.4 C 0 km/h
1515 24-04-2020 06:10:00 6.3 C 6.44 g/m*3 6.3 C 3.2 km/h
1516 24-04-2020 06:15:00 6.3 C 6.44 g/m*3 6.3 C 1.6 km/h
1517 24-04-2020 06:20:00 6.3 C 6.44 g/m*3 6.3 C 1.6 km/h
1518 24-04-2020 06:25:00 6.4 C 6.48 g/m*3 6.4 C 1.6 km/h
1519 24-04-2020 06:30:00 6.4 C 6.48 g/m*3 6.4 C 0 km/h
1520 24-04-2020 06:35:00 6.4 C 6.48 g/m*3 6.4 C 0 km/h
1521 24-04-2020 06:40:00 6.3 C 6.44 g/m*3 6.3 C 0 km/h
1522 24-04-2020 06:45:00 6.4 C 6.48 g/m*3 6.4 C 0 km/h
1523 24-04-2020 06:50:00 6.4 C 6.48 g/m*3 6.4 C 0 km/h
1524 24-04-2020 06:55:00 6.4 C 6.48 g/m*3 6.4 C 0 km/h
1525 24-04-2020 07:00:00 6.4 C 6.48 g/m*3 6.4 C 0 km/h
Sensor: Nr:Datum:Temp:Abs-Feuchte:Windchill:Wind:
Aussen-T/F 1526 24-04-2020 07:05:00 6.4 C 6.48 g/m*3 6.4 C 0 km/h
1527 24-04-2020 07:10:00 6.5 C 6.6 g/m*3 6.5 C 0 km/h
1528 24-04-2020 07:15:00 6.5 C 6.6 g/m*3 6.5 C 0 km/h
1529 24-04-2020 07:20:00 6.6 C 6.64 g/m*3 6.6 C 0 km/h
1530 24-04-2020 07:25:00 6.6 C 6.64 g/m*3 6.6 C 0 km/h
1531 24-04-2020 07:30:00 6.6 C 6.64 g/m*3 6.6 C 0 km/h
1532 24-04-2020 07:35:00 6.6 C 6.64 g/m*3 6.6 C 1.6 km/h
1533 24-04-2020 07:40:00 6.6 C 6.64 g/m*3 6.6 C 0 km/h
1534 24-04-2020 07:45:00 6.7 C 6.69 g/m*3 6.7 C 0 km/h
1535 24-04-2020 07:50:00 6.8 C 6.73 g/m*3 6.8 C 0 km/h
1536 24-04-2020 07:55:00 6.8 C 6.73 g/m*3 6.8 C 0 km/h
1537 24-04-2020 08:00:00 6.9 C 6.77 g/m*3 6.9 C 0 km/h
1538 24-04-2020 08:05:00 6.9 C 6.77 g/m*3 6.9 C 0 km/h
1539 24-04-2020 08:10:00 7.1 C 6.86 g/m*3 7.1 C 0 km/h
1540 24-04-2020 08:15:00 7.2 C 6.91 g/m*3 7.2 C 0 km/h
1541 24-04-2020 08:20:00 7.3 C 6.87 g/m*3 7.3 C 1.6 km/h
1542 24-04-2020 08:25:00 7.6 C 7.01 g/m*3 7.6 C 1.6 km/h
1543 24-04-2020 08:30:00 7.8 C 7.02 g/m*3 7.8 C 0 km/h
1544 24-04-2020 08:35:00 8.1 C 7.07 g/m*3 8.1 C 0 km/h
1545 24-04-2020 08:40:00 8.3 C 7.16 g/m*3 8.3 C 0 km/h
1546 24-04-2020 08:45:00 8.7 C 7.35 g/m*3 8.7 C 1.6 km/h
1547 24-04-2020 08:50:00 8.9 C 7.27 g/m*3 8.9 C 0 km/h
1548 24-04-2020 08:55:00 9.2 C 7.41 g/m*3 9.2 C 0 km/h
1549 24-04-2020 09:00:00 9.4 C 7.42 g/m*3 9.4 C 0 km/h
1550 24-04-2020 09:05:00 9.6 C 7.33 g/m*3 9.6 C 0 km/h
Sensor: Nr:Datum:Temp:Abs-Feuchte:Windchill:Wind:
Aussen-T/F 1551 24-04-2020 09:10:00 9.9 C 7.38 g/m*3 9.9 C 1.6 km/h
1552 24-04-2020 09:15:00 10.1 C 7.38 g/m*3 10.1 C 0 km/h
1553 24-04-2020 09:20:00 10.3 C 7.57 g/m*3 10.3 C 0 km/h
1554 24-04-2020 09:25:00 10.6 C 7.61 g/m*3 10.6 C 0 km/h
1555 24-04-2020 09:30:00 10.8 C 7.61 g/m*3 10.8 C 0 km/h
1556 24-04-2020 09:35:00 11.1 C 7.76 g/m*3 11.1 C 0 km/h
1557 24-04-2020 09:40:00 11.3 C 7.75 g/m*3 11.3 C 1.6 km/h
1558 24-04-2020 09:45:00 11.4 C 7.7 g/m*3 11.4 C 0 km/h
1559 24-04-2020 09:50:00 11.7 C 7.84 g/m*3 11.7 C 0 km/h
1560 24-04-2020 09:55:00 11.8 C 7.89 g/m*3 11.8 C 0 km/h
1561 24-04-2020 10:00:00 12.1 C 7.94 g/m*3 12.1 C 1.6 km/h
1562 24-04-2020 10:05:00 12.2 C 7.88 g/m*3 12.2 C 1.6 km/h
1563 24-04-2020 10:10:00 12.3 C 7.93 g/m*3 12.3 C 1.6 km/h
1564 24-04-2020 10:15:00 12.3 C 7.82 g/m*3 12.3 C 0 km/h
1565 24-04-2020 10:20:00 12.5 C 7.92 g/m*3 12.5 C 0 km/h
1566 24-04-2020 10:25:00 12.7 C 8.01 g/m*3 12.7 C 0 km/h
1567 24-04-2020 10:30:00 12.9 C 8.11 g/m*3 12.9 C 1.6 km/h
1568 24-04-2020 10:35:00 13.2 C 8.15 g/m*3 13.2 C 4.8 km/h
1569 24-04-2020 10:40:00 13.6 C 8.36 g/m*3 13.6 C 4.8 km/h
1570 24-04-2020 10:45:00 13.8 C 8.22 g/m*3 13.8 C 4.8 km/h
1571 24-04-2020 10:50:00 13.9 C 8.39 g/m*3 13.9 C 1.6 km/h
1572 24-04-2020 10:55:00 14.2 C 8.3 g/m*3 14.2 C 3.2 km/h
1573 24-04-2020 11:00:00 14.3 C 8.23 g/m*3 14.3 C 1.6 km/h
1574 24-04-2020 11:05:00 14.6 C 8.38 g/m*3 14.6 C 0 km/h
1575 24-04-2020 11:10:00 14.7 C 8.31 g/m*3 14.7 C 3.2 km/h
Sensor: Nr:Datum:Temp:Abs-Feuchte:Windchill:Wind:
Aussen-T/F 1576 24-04-2020 11:15:00 14.8 C 8.49 g/m*3 14.8 C 1.6 km/h
1577 24-04-2020 11:20:00 15 C 8.33 g/m*3 15 C 3.2 km/h
1578 24-04-2020 11:25:00 15.2 C 8.44 g/m*3 15.2 C 1.6 km/h
1579 24-04-2020 11:30:00 15.3 C 8.36 g/m*3 15.3 C 3.2 km/h
1580 24-04-2020 11:35:00 15.4 C 8.28 g/m*3 15.4 C 0 km/h
1581 24-04-2020 11:40:00 15.6 C 8.51 g/m*3 15.6 C 1.6 km/h
1582 24-04-2020 11:45:00 15.7 C 8.43 g/m*3 15.7 C 1.6 km/h
1583 24-04-2020 11:50:00 15.9 C 8.4 g/m*3 15.9 C 0 km/h
1584 24-04-2020 11:55:00 16.1 C 8.5 g/m*3 16.1 C 0 km/h
1585 24-04-2020 12:00:00 16.2 C 8.55 g/m*3 16.2 C 4.8 km/h
1586 24-04-2020 12:05:00 16.4 C 8.79 g/m*3 16.4 C 1.6 km/h
1587 24-04-2020 12:10:00 16.6 C 8.76 g/m*3 16.6 C 1.6 km/h
1588 24-04-2020 12:15:00 16.9 C 8.63 g/m*3 16.9 C 1.6 km/h
1589 24-04-2020 12:20:00 17.3 C 9.28 g/m*3 17.3 C 0 km/h
1590 24-04-2020 12:25:00 17.7 C 8.75 g/m*3 17.7 C 6.4 km/h
1591 24-04-2020 12:30:00 17.9 C 8.4 g/m*3 17.9 C 3.2 km/h
1592 24-04-2020 12:35:00 18.1 C 8.65 g/m*3 18.1 C 9.7 km/h
1593 24-04-2020 12:40:00 18.2 C 8.55 g/m*3 18.2 C 9.7 km/h
1594 24-04-2020 12:45:00 18.3 C 7.97 g/m*3 18.3 C 8.1 km/h
1595 24-04-2020 12:50:00 18.6 C 8.28 g/m*3 18.6 C 6.4 km/h
1596 24-04-2020 12:55:00 18.8 C 7.89 g/m*3 18.8 C 8.1 km/h
1597 24-04-2020 13:00:00 19.2 C 7.75 g/m*3 19.2 C 8.1 km/h
1598 24-04-2020 13:05:00 19.3 C 7.96 g/m*3 19.3 C 8.1 km/h
1599 24-04-2020 13:10:00 19.4 C 7.67 g/m*3 19.4 C 6.4 km/h
1600 24-04-2020 13:15:00 19.7 C 7.47 g/m*3 19.7 C 9.7 km/h
Sensor: Nr:Datum:Temp:Abs-Feuchte:Windchill:Wind:
Aussen-T/F 1601 24-04-2020 13:20:00 20 C 7.26 g/m*3 20 C 14.5 km/h
1602 24-04-2020 13:25:00 20.1 C 6.78 g/m*3 20.1 C 9.7 km/h
1603 24-04-2020 13:30:00 20.2 C 6.64 g/m*3 20.2 C 9.7 km/h
1604 24-04-2020 13:35:00 20.2 C 6.99 g/m*3 20.2 C 9.7 km/h
1605 24-04-2020 13:40:00 20.3 C 6.86 g/m*3 20.3 C 9.7 km/h
1606 24-04-2020 13:45:00 20.5 C 6.76 g/m*3 20.5 C 11.3 km/h
1607 24-04-2020 13:50:00 20.7 C 6.84 g/m*3 20.7 C 12.9 km/h
1608 24-04-2020 13:55:00 20.7 C 7.02 g/m*3 20.7 C 8.1 km/h
1609 24-04-2020 14:00:00 20.8 C 7.24 g/m*3 20.8 C 12.9 km/h
1610 24-04-2020 14:05:00 21.1 C 7.55 g/m*3 21.1 C 8.1 km/h
1611 24-04-2020 14:10:00 21.1 C 7.37 g/m*3 21.1 C 9.7 km/h
1612 24-04-2020 14:15:00 21.1 C 7.37 g/m*3 21.1 C 8.1 km/h
1613 24-04-2020 14:20:00 21.2 C 7.6 g/m*3 21.2 C 11.3 km/h
1614 24-04-2020 14:25:00 21.4 C 7.69 g/m*3 21.4 C 9.7 km/h
1615 24-04-2020 14:30:00 21.4 C 7.69 g/m*3 21.4 C 8.1 km/h
1616 24-04-2020 14:35:00 21.4 C 7.87 g/m*3 21.4 C 8.1 km/h
1617 24-04-2020 14:40:00 21.5 C 7.92 g/m*3 21.5 C 14.5 km/h
1618 24-04-2020 14:45:00 21.6 C 7.97 g/m*3 21.6 C 9.7 km/h
1619 24-04-2020 14:50:00 21.6 C 7.97 g/m*3 21.6 C 8.1 km/h
1620 24-04-2020 14:55:00 21.7 C 7.82 g/m*3 21.7 C 14.5 km/h
1621 24-04-2020 15:00:00 21.7 C 8.01 g/m*3 21.7 C 14.5 km/h
1622 24-04-2020 15:05:00 21.8 C 7.67 g/m*3 21.8 C 11.3 km/h
1623 24-04-2020 15:10:00 21.9 C 7.91 g/m*3 21.9 C 8.1 km/h
1624 24-04-2020 15:15:00 21.9 C 7.53 g/m*3 21.9 C 8.1 km/h
1625 24-04-2020 15:20:00 22 C 7.57 g/m*3 22 C 8.1 km/h
Sensor: Nr:Datum:Temp:Abs-Feuchte:Windchill:Wind:
Aussen-T/F 1626 24-04-2020 15:25:00 21.9 C 7.33 g/m*3 21.9 C 14.5 km/h
1627 24-04-2020 15:30:00 22 C 7.18 g/m*3 22 C 12.9 km/h
1628 24-04-2020 15:35:00 22.1 C 7.03 g/m*3 22.1 C 11.3 km/h
1629 24-04-2020 15:40:00 22.2 C 7.07 g/m*3 22.2 C 9.7 km/h
1630 24-04-2020 15:45:00 22.3 C 7.11 g/m*3 22.3 C 9.7 km/h
1631 24-04-2020 15:50:00 22.4 C 6.95 g/m*3 22.4 C 11.3 km/h
1632 24-04-2020 15:55:00 22.6 C 6.83 g/m*3 22.6 C 12.9 km/h
1633 24-04-2020 16:00:00 22.6 C 6.83 g/m*3 22.6 C 12.9 km/h
1634 24-04-2020 16:05:00 22.5 C 6.99 g/m*3 22.5 C 8.1 km/h
1635 24-04-2020 16:10:00 22.6 C 6.83 g/m*3 22.6 C 12.9 km/h
1636 24-04-2020 16:15:00 22.7 C 6.67 g/m*3 22.7 C 14.5 km/h
1637 24-04-2020 16:20:00 22.8 C 6.71 g/m*3 22.8 C 11.3 km/h
1638 24-04-2020 16:25:00 22.8 C 6.3 g/m*3 22.8 C 12.9 km/h
1639 24-04-2020 16:30:00 22.9 C 6.13 g/m*3 22.9 C 11.3 km/h
1640 24-04-2020 16:35:00 23.1 C 6.61 g/m*3 23.1 C 4.8 km/h
1641 24-04-2020 16:40:00 23.2 C 6.24 g/m*3 23.2 C 16.1 km/h
1642 24-04-2020 16:45:00 23.1 C 5.99 g/m*3 23.1 C 12.9 km/h
1643 24-04-2020 16:50:00 22.9 C 6.34 g/m*3 22.9 C 9.7 km/h
1644 24-04-2020 16:55:00 22.9 C 6.13 g/m*3 22.9 C 12.9 km/h
1645 24-04-2020 17:00:00 22.8 C 6.3 g/m*3 22.8 C 14.5 km/h
1646 24-04-2020 17:05:00 22.6 C 6.23 g/m*3 22.6 C 11.3 km/h
1647 24-04-2020 17:10:00 22.6 C 6.43 g/m*3 22.6 C 14.5 km/h
1648 24-04-2020 17:15:00 22.6 C 6.03 g/m*3 22.6 C 16.1 km/h
1649 24-04-2020 17:20:00 22.6 C 5.83 g/m*3 22.6 C 16.1 km/h
1650 24-04-2020 17:25:00 22.7 C 5.86 g/m*3 22.7 C 12.9 km/h
Sensor: Nr:Datum:Temp:Abs-Feuchte:Windchill:Wind:
Aussen-T/F 1651 24-04-2020 17:30:00 22.8 C 5.89 g/m*3 22.8 C 14.5 km/h
1652 24-04-2020 17:35:00 22.7 C 5.66 g/m*3 22.7 C 14.5 km/h
1653 24-04-2020 17:40:00 22.4 C 5.76 g/m*3 22.4 C 12.9 km/h
1654 24-04-2020 17:45:00 22.2 C 5.89 g/m*3 22.2 C 14.5 km/h
1655 24-04-2020 17:50:00 22.2 C 5.89 g/m*3 22.2 C 14.5 km/h
1656 24-04-2020 17:55:00 22.4 C 5.96 g/m*3 22.4 C 16.1 km/h
1657 24-04-2020 18:00:00 22.4 C 6.16 g/m*3 22.4 C 9.7 km/h
1658 24-04-2020 18:05:00 22.1 C 6.05 g/m*3 22.1 C 19.3 km/h
1659 24-04-2020 18:10:00 21.9 C 5.98 g/m*3 21.9 C 14.5 km/h
1660 24-04-2020 18:15:00 21.7 C 6.29 g/m*3 21.7 C 14.5 km/h
1661 24-04-2020 18:20:00 21.4 C 6.37 g/m*3 21.4 C 14.5 km/h
1662 24-04-2020 18:25:00 21.4 C 6.56 g/m*3 21.4 C 16.1 km/h
1663 24-04-2020 18:30:00 21.6 C 7.02 g/m*3 21.6 C 14.5 km/h
1664 24-04-2020 18:35:00 21.6 C 7.02 g/m*3 21.6 C 11.3 km/h
1665 24-04-2020 18:40:00 21.4 C 7.12 g/m*3 21.4 C 14.5 km/h
1666 24-04-2020 18:45:00 21.3 C 7.08 g/m*3 21.3 C 16.1 km/h
1667 24-04-2020 18:50:00 21.2 C 7.23 g/m*3 21.2 C 12.9 km/h
1668 24-04-2020 18:55:00 21.1 C 7.19 g/m*3 21.1 C 12.9 km/h
1669 24-04-2020 19:00:00 21.1 C 7.19 g/m*3 21.1 C 16.1 km/h
1670 24-04-2020 19:05:00 20.9 C 7.1 g/m*3 20.9 C 17.7 km/h
1671 24-04-2020 19:10:00 20.8 C 7.06 g/m*3 20.8 C 12.9 km/h
1672 24-04-2020 19:15:00 20.7 C 7.2 g/m*3 20.7 C 12.9 km/h
1673 24-04-2020 19:20:00 20.5 C 7.12 g/m*3 20.5 C 17.7 km/h
1674 24-04-2020 19:25:00 20.4 C 7.25 g/m*3 20.4 C 8.1 km/h
1675 24-04-2020 19:30:00 20.3 C 7.21 g/m*3 20.3 C 11.3 km/h
Sensor: Nr:Datum:Temp:Abs-Feuchte:Windchill:Wind:
Aussen-T/F 1676 24-04-2020 19:35:00 20.1 C 7.3 g/m*3 20.1 C 12.9 km/h
1677 24-04-2020 19:40:00 19.9 C 7.39 g/m*3 19.9 C 8.1 km/h
1678 24-04-2020 19:45:00 19.8 C 7.34 g/m*3 19.8 C 12.9 km/h
1679 24-04-2020 19:50:00 19.7 C 7.3 g/m*3 19.7 C 11.3 km/h
1680 24-04-2020 19:55:00 19.6 C 7.43 g/m*3 19.6 C 12.9 km/h
1681 24-04-2020 20:00:00 19.4 C 7.51 g/m*3 19.4 C 9.7 km/h
1682 24-04-2020 20:05:00 19.2 C 7.42 g/m*3 19.2 C 9.7 km/h
1683 24-04-2020 20:10:00 19.1 C 7.21 g/m*3 19.1 C 9.7 km/h
1684 24-04-2020 20:15:00 18.9 C 7.45 g/m*3 18.9 C 8.1 km/h
1685 24-04-2020 20:20:00 18.7 C 7.52 g/m*3 18.7 C 0 km/h
1686 24-04-2020 20:25:00 18.3 C 7.35 g/m*3 18.3 C 9.7 km/h
1687 24-04-2020 20:30:00 18.2 C 7.46 g/m*3 18.2 C 3.2 km/h
1688 24-04-2020 20:35:00 17.8 C 7.59 g/m*3 17.8 C 1.6 km/h
1689 24-04-2020 20:40:00 17.5 C 7.45 g/m*3 17.5 C 4.8 km/h
1690 24-04-2020 20:45:00 17.2 C 7.32 g/m*3 17.2 C 6.4 km/h
1691 24-04-2020 20:50:00 16.9 C 7.34 g/m*3 16.9 C 1.6 km/h
1692 24-04-2020 20:55:00 16.7 C 7.39 g/m*3 16.7 C 1.6 km/h
1693 24-04-2020 21:00:00 16.4 C 7.26 g/m*3 16.4 C 6.4 km/h
1694 24-04-2020 21:05:00 16.3 C 7.35 g/m*3 16.3 C 1.6 km/h
1695 24-04-2020 21:10:00 16.2 C 7.31 g/m*3 16.2 C 6.4 km/h
1696 24-04-2020 21:15:00 16 C 7.08 g/m*3 16 C 1.6 km/h
1697 24-04-2020 21:20:00 15.8 C 7.13 g/m*3 15.8 C 3.2 km/h
1698 24-04-2020 21:25:00 15.7 C 7.23 g/m*3 15.7 C 3.2 km/h
1699 24-04-2020 21:30:00 15.6 C 7.05 g/m*3 15.6 C 4.8 km/h
1700 24-04-2020 21:35:00 15.6 C 7.18 g/m*3 15.6 C 6.4 km/h
Sensor: Nr:Datum:Temp:Abs-Feuchte:Windchill:Wind:
Aussen-T/F 1701 24-04-2020 21:40:00 15.7 C 7.23 g/m*3 15.7 C 3.2 km/h
1702 24-04-2020 21:45:00 15.6 C 7.05 g/m*3 15.6 C 0 km/h
1703 24-04-2020 21:50:00 15.5 C 7.27 g/m*3 15.5 C 0 km/h
1704 24-04-2020 21:55:00 15.3 C 7.18 g/m*3 15.3 C 1.6 km/h
1705 24-04-2020 22:00:00 15.2 C 7.14 g/m*3 15.2 C 3.2 km/h
1706 24-04-2020 22:05:00 15.1 C 7.1 g/m*3 15.1 C 3.2 km/h
1707 24-04-2020 22:10:00 15 C 7.18 g/m*3 15 C 8.1 km/h
1708 24-04-2020 22:15:00 14.8 C 7.09 g/m*3 14.8 C 1.6 km/h
1709 24-04-2020 22:20:00 14.7 C 7.18 g/m*3 14.7 C 4.8 km/h
1710 24-04-2020 22:25:00 14.6 C 6.76 g/m*3 14.6 C 6.4 km/h
1711 24-04-2020 22:30:00 14.6 C 7.01 g/m*3 14.6 C 1.6 km/h
1712 24-04-2020 22:35:00 14.6 C 6.88 g/m*3 14.6 C 0 km/h
1713 24-04-2020 22:40:00 14.6 C 7.01 g/m*3 14.6 C 0 km/h
1714 24-04-2020 22:45:00 14.4 C 6.92 g/m*3 14.4 C 3.2 km/h
1715 24-04-2020 22:50:00 14.2 C 6.84 g/m*3 14.2 C 3.2 km/h
1716 24-04-2020 22:55:00 13.9 C 6.83 g/m*3 13.9 C 3.2 km/h
1717 24-04-2020 23:00:00 13.7 C 6.63 g/m*3 13.7 C 3.2 km/h
1718 24-04-2020 23:05:00 13.5 C 6.67 g/m*3 13.5 C 1.6 km/h
1719 24-04-2020 23:10:00 13.3 C 6.12 g/m*3 13.3 C 4.8 km/h
1720 24-04-2020 23:15:00 13.3 C 6.47 g/m*3 13.3 C 3.2 km/h
1721 24-04-2020 23:20:00 13.2 C 5.97 g/m*3 13.2 C 0 km/h
1722 24-04-2020 23:25:00 13.1 C 6.05 g/m*3 13.1 C 0 km/h
1723 24-04-2020 23:30:00 12.9 C 5.86 g/m*3 12.9 C 1.6 km/h
1724 24-04-2020 23:35:00 12.8 C 5.6 g/m*3 12.8 C 8.1 km/h
1725 24-04-2020 23:40:00 12.9 C 5.75 g/m*3 12.9 C 3.2 km/h
Sensor: Nr:Datum:Temp:Abs-Feuchte:Windchill:Wind:
Aussen-T/F 1726 24-04-2020 23:45:00 12.9 C 5.75 g/m*3 12.9 C 3.2 km/h
1727 24-04-2020 23:50:00 12.9 C 5.97 g/m*3 12.9 C 0 km/h
1728 24-04-2020 23:55:00 12.8 C 5.6 g/m*3 12.8 C 3.2 km/h
1729 25-04-2020 00:00:00 12.8 C 5.71 g/m*3 12.8 C 6.4 km/h
1730 25-04-2020 00:05:00 12.8 C 5.94 g/m*3 12.8 C 4.8 km/h
1731 25-04-2020 00:10:00 13.1 C 5.82 g/m*3 13.1 C 8.1 km/h
1732 25-04-2020 00:15:00 13.1 C 5.82 g/m*3 13.1 C 4.8 km/h
1733 25-04-2020 00:20:00 13.2 C 5.97 g/m*3 13.2 C 6.4 km/h
1734 25-04-2020 00:25:00 13.1 C 5.93 g/m*3 13.1 C 6.4 km/h
1735 25-04-2020 00:30:00 13.1 C 6.05 g/m*3 13.1 C 8.1 km/h
1736 25-04-2020 00:35:00 13.1 C 6.05 g/m*3 13.1 C 4.8 km/h
1737 25-04-2020 00:40:00 12.9 C 6.2 g/m*3 12.9 C 4.8 km/h
1738 25-04-2020 00:45:00 12.7 C 6.23 g/m*3 12.7 C 8.1 km/h
1739 25-04-2020 00:50:00 12.4 C 6.23 g/m*3 12.4 C 3.2 km/h
1740 25-04-2020 00:55:00 12.3 C 6.41 g/m*3 12.3 C 4.8 km/h
1741 25-04-2020 01:00:00 12.1 C 6.43 g/m*3 12.1 C 4.8 km/h
1742 25-04-2020 01:05:00 11.9 C 6.46 g/m*3 11.9 C 3.2 km/h
1743 25-04-2020 01:10:00 11.9 C 6.35 g/m*3 11.9 C 11.3 km/h
1744 25-04-2020 01:15:00 12 C 6.5 g/m*3 12 C 6.4 km/h
1745 25-04-2020 01:20:00 11.9 C 6.46 g/m*3 11.9 C 1.6 km/h
1746 25-04-2020 01:25:00 11.8 C 6.53 g/m*3 11.8 C 6.4 km/h
1747 25-04-2020 01:30:00 11.7 C 6.59 g/m*3 11.7 C 6.4 km/h
1748 25-04-2020 01:35:00 11.6 C 6.55 g/m*3 11.6 C 6.4 km/h
1749 25-04-2020 01:40:00 11.5 C 6.61 g/m*3 11.5 C 8.1 km/h
1750 25-04-2020 01:45:00 11.4 C 6.57 g/m*3 11.4 C 4.8 km/h
Sensor: Nr:Datum:Temp:Abs-Feuchte:Windchill:Wind:
Aussen-T/F 1751 25-04-2020 01:50:00 11.4 C 6.57 g/m*3 11.4 C 4.8 km/h
1752 25-04-2020 01:55:00 11.5 C 6.71 g/m*3 11.5 C 3.2 km/h
1753 25-04-2020 02:00:00 11.4 C 6.67 g/m*3 11.4 C 4.8 km/h
1754 25-04-2020 02:05:00 11.2 C 6.59 g/m*3 11.2 C 4.8 km/h
1755 25-04-2020 02:10:00 11.1 C 6.65 g/m*3 11.1 C 4.8 km/h
1756 25-04-2020 02:15:00 10.9 C 6.56 g/m*3 10.9 C 1.6 km/h
1757 25-04-2020 02:20:00 10.8 C 6.62 g/m*3 10.8 C 1.6 km/h
1758 25-04-2020 02:25:00 10.5 C 6.6 g/m*3 10.5 C 0 km/h
1759 25-04-2020 02:30:00 10.3 C 6.61 g/m*3 10.3 C 4.8 km/h
1760 25-04-2020 02:35:00 10.2 C 6.66 g/m*3 10.2 C 1.6 km/h
1761 25-04-2020 02:40:00 10.1 C 6.62 g/m*3 10.1 C 4.8 km/h
1762 25-04-2020 02:45:00 10 C 6.58 g/m*3 10 C 3.2 km/h
1763 25-04-2020 02:50:00 9.9 C 6.54 g/m*3 9.25 C 6.4 km/h
1764 25-04-2020 02:55:00 10 C 6.67 g/m*3 8.99 C 8.1 km/h
1765 25-04-2020 03:00:00 10.1 C 6.62 g/m*3 9.1 C 8.1 km/h
1766 25-04-2020 03:05:00 10.3 C 6.7 g/m*3 9.72 C 6.4 km/h
1767 25-04-2020 03:10:00 10.4 C 6.65 g/m*3 10.4 C 4.8 km/h
1768 25-04-2020 03:15:00 10.5 C 6.69 g/m*3 9.95 C 6.4 km/h
1769 25-04-2020 03:20:00 10.6 C 6.73 g/m*3 9.4 C 9.7 km/h
1770 25-04-2020 03:25:00 10.5 C 6.69 g/m*3 9.28 C 9.7 km/h
1771 25-04-2020 03:30:00 10.4 C 6.65 g/m*3 10.4 C 1.6 km/h
1772 25-04-2020 03:35:00 10.3 C 6.7 g/m*3 9.04 C 9.7 km/h
1773 25-04-2020 03:40:00 10.1 C 6.62 g/m*3 10.1 C 1.6 km/h
1774 25-04-2020 03:45:00 9.9 C 6.63 g/m*3 9.9 C 1.6 km/h
1775 25-04-2020 03:50:00 9.7 C 6.55 g/m*3 9.7 C 4.8 km/h
Sensor: Nr:Datum:Temp:Abs-Feuchte:Windchill:Wind:
Aussen-T/F 1776 25-04-2020 03:55:00 9.7 C 6.45 g/m*3 9.02 C 6.4 km/h
1777 25-04-2020 04:00:00 9.7 C 6.45 g/m*3 9.02 C 6.4 km/h
1778 25-04-2020 04:05:00 9.7 C 6.45 g/m*3 9.7 C 3.2 km/h
1779 25-04-2020 04:10:00 9.6 C 6.5 g/m*3 8.91 C 6.4 km/h
1780 25-04-2020 04:15:00 9.5 C 6.46 g/m*3 8.09 C 9.7 km/h
1781 25-04-2020 04:20:00 9.6 C 6.6 g/m*3 7.94 C 11.3 km/h
1782 25-04-2020 04:25:00 9.6 C 6.6 g/m*3 8.21 C 9.7 km/h
1783 25-04-2020 04:30:00 9.6 C 6.6 g/m*3 9.6 C 4.8 km/h
1784 25-04-2020 04:35:00 9.5 C 6.64 g/m*3 8.09 C 9.7 km/h
1785 25-04-2020 04:40:00 9.4 C 6.6 g/m*3 9.4 C 4.8 km/h
1786 25-04-2020 04:45:00 9.2 C 6.61 g/m*3 9.2 C 3.2 km/h
1787 25-04-2020 04:50:00 9 C 6.61 g/m*3 8.21 C 6.4 km/h
1788 25-04-2020 04:55:00 8.9 C 6.66 g/m*3 7.37 C 9.7 km/h
1789 25-04-2020 05:00:00 8.8 C 6.7 g/m*3 8.8 C 3.2 km/h
1790 25-04-2020 05:05:00 8.7 C 6.66 g/m*3 8.7 C 3.2 km/h
1791 25-04-2020 05:10:00 8.7 C 6.75 g/m*3 7.87 C 6.4 km/h
1792 25-04-2020 05:15:00 8.6 C 6.7 g/m*3 8.6 C 1.6 km/h
1793 25-04-2020 05:20:00 8.4 C 6.62 g/m*3 8.4 C 0 km/h
1794 25-04-2020 05:25:00 8.2 C 6.62 g/m*3 8.2 C 3.2 km/h
1795 25-04-2020 05:30:00 8.1 C 6.74 g/m*3 7.17 C 6.4 km/h
1796 25-04-2020 05:35:00 8 C 6.78 g/m*3 8 C 1.6 km/h
1797 25-04-2020 05:40:00 7.9 C 6.82 g/m*3 6.94 C 6.4 km/h
1798 25-04-2020 05:45:00 7.9 C 6.9 g/m*3 6.18 C 9.7 km/h
1799 25-04-2020 05:50:00 8 C 6.94 g/m*3 6.01 C 11.3 km/h
1800 25-04-2020 05:55:00 8.1 C 6.99 g/m*3 8.1 C 3.2 km/h
Sensor: Nr:Datum:Temp:Abs-Feuchte:Windchill:Wind:
Aussen-T/F 1801 25-04-2020 06:00:00 8.1 C 6.99 g/m*3 8.1 C 3.2 km/h
1802 25-04-2020 06:05:00 8.2 C 7.03 g/m*3 8.2 C 4.8 km/h
1803 25-04-2020 06:10:00 8.2 C 6.95 g/m*3 8.2 C 4.8 km/h
1804 25-04-2020 06:15:00 8.3 C 7 g/m*3 6.99 C 8.1 km/h
1805 25-04-2020 06:20:00 8.3 C 7 g/m*3 7.41 C 6.4 km/h
1806 25-04-2020 06:25:00 8.4 C 7.04 g/m*3 8.4 C 4.8 km/h
1807 25-04-2020 06:30:00 8.4 C 7.04 g/m*3 6.78 C 9.7 km/h
1808 25-04-2020 06:35:00 8.4 C 6.96 g/m*3 6.49 C 11.3 km/h
1809 25-04-2020 06:40:00 8.5 C 6.92 g/m*3 5.92 C 16.1 km/h
1810 25-04-2020 06:45:00 8.5 C 6.92 g/m*3 6.61 C 11.3 km/h
1811 25-04-2020 06:50:00 8.5 C 6.83 g/m*3 6.9 C 9.7 km/h
1812 25-04-2020 06:55:00 8.5 C 6.83 g/m*3 8.5 C 4.8 km/h
1813 25-04-2020 07:00:00 8.4 C 6.79 g/m*3 8.4 C 4.8 km/h
1814 25-04-2020 07:05:00 8.4 C 6.79 g/m*3 7.11 C 8.1 km/h
1815 25-04-2020 07:10:00 8.5 C 6.83 g/m*3 7.22 C 8.1 km/h
1816 25-04-2020 07:15:00 8.5 C 6.74 g/m*3 7.22 C 8.1 km/h
1817 25-04-2020 07:20:00 8.5 C 6.74 g/m*3 6.61 C 11.3 km/h
1818 25-04-2020 07:25:00 8.5 C 6.74 g/m*3 6.9 C 9.7 km/h
1819 25-04-2020 07:30:00 8.5 C 6.74 g/m*3 8.5 C 4.8 km/h
1820 25-04-2020 07:35:00 8.5 C 6.74 g/m*3 6.61 C 11.3 km/h
1821 25-04-2020 07:40:00 8.5 C 6.74 g/m*3 7.22 C 8.1 km/h
1822 25-04-2020 07:45:00 8.5 C 6.74 g/m*3 7.64 C 6.4 km/h
1823 25-04-2020 07:50:00 8.6 C 6.79 g/m*3 8.6 C 4.8 km/h
1824 25-04-2020 07:55:00 8.5 C 6.74 g/m*3 7.64 C 6.4 km/h
1825 25-04-2020 08:00:00 8.5 C 6.66 g/m*3 6.61 C 11.3 km/h
Sensor: Nr:Datum:Temp:Abs-Feuchte:Windchill:Wind:
Aussen-T/F 1826 25-04-2020 08:05:00 8.5 C 6.66 g/m*3 6.61 C 11.3 km/h
1827 25-04-2020 08:10:00 8.6 C 6.7 g/m*3 8.6 C 4.8 km/h
1828 25-04-2020 08:15:00 8.6 C 6.7 g/m*3 7.34 C 8.1 km/h
1829 25-04-2020 08:20:00 8.6 C 6.62 g/m*3 7.75 C 6.4 km/h
1830 25-04-2020 08:25:00 8.6 C 6.62 g/m*3 7.34 C 8.1 km/h
1831 25-04-2020 08:30:00 8.6 C 6.62 g/m*3 8.6 C 4.8 km/h
1832 25-04-2020 08:35:00 8.6 C 6.62 g/m*3 7.34 C 8.1 km/h
1833 25-04-2020 08:40:00 8.7 C 6.66 g/m*3 7.46 C 8.1 km/h
1834 25-04-2020 08:45:00 8.6 C 6.53 g/m*3 6.48 C 12.9 km/h
1835 25-04-2020 08:50:00 8.6 C 6.44 g/m*3 6.73 C 11.3 km/h
1836 25-04-2020 08:55:00 8.6 C 6.44 g/m*3 7.01 C 9.7 km/h
1837 25-04-2020 09:00:00 8.7 C 6.49 g/m*3 7.46 C 8.1 km/h
1838 25-04-2020 09:05:00 8.7 C 6.4 g/m*3 7.13 C 9.7 km/h
1839 25-04-2020 09:10:00 8.8 C 6.44 g/m*3 7.58 C 8.1 km/h
1840 25-04-2020 09:15:00 8.9 C 6.48 g/m*3 7.09 C 11.3 km/h
1841 25-04-2020 09:20:00 8.9 C 6.39 g/m*3 7.09 C 11.3 km/h
1842 25-04-2020 09:25:00 9.1 C 6.48 g/m*3 8.33 C 6.4 km/h
1843 25-04-2020 09:30:00 9.2 C 6.52 g/m*3 7.73 C 9.7 km/h
1844 25-04-2020 09:35:00 9.2 C 6.43 g/m*3 8.05 C 8.1 km/h
1845 25-04-2020 09:40:00 9.2 C 6.43 g/m*3 7.73 C 9.7 km/h
1846 25-04-2020 09:45:00 9.2 C 6.43 g/m*3 8.05 C 8.1 km/h
1847 25-04-2020 09:50:00 9.2 C 6.43 g/m*3 7.73 C 9.7 km/h
1848 25-04-2020 09:55:00 9.2 C 6.43 g/m*3 8.45 C 6.4 km/h
1849 25-04-2020 10:00:00 9.3 C 6.47 g/m*3 8.16 C 8.1 km/h
1850 25-04-2020 10:05:00 9.4 C 6.42 g/m*3 9.4 C 4.8 km/h
Sensor: Nr:Datum:Temp:Abs-Feuchte:Windchill:Wind:
Aussen-T/F 1851 25-04-2020 10:10:00 9.4 C 6.33 g/m*3 8.28 C 8.1 km/h
1852 25-04-2020 10:15:00 9.5 C 6.37 g/m*3 8.4 C 8.1 km/h
1853 25-04-2020 10:20:00 9.6 C 6.32 g/m*3 8.21 C 9.7 km/h
1854 25-04-2020 10:25:00 9.6 C 6.41 g/m*3 8.91 C 6.4 km/h
1855 25-04-2020 10:30:00 9.7 C 6.36 g/m*3 8.33 C 9.7 km/h
1856 25-04-2020 10:35:00 9.7 C 6.36 g/m*3 8.63 C 8.1 km/h
1857 25-04-2020 10:40:00 9.8 C 6.4 g/m*3 9.14 C 6.4 km/h
1858 25-04-2020 10:45:00 9.8 C 6.31 g/m*3 9.14 C 6.4 km/h
1859 25-04-2020 10:50:00 9.8 C 6.31 g/m*3 8.45 C 9.7 km/h
1860 25-04-2020 10:55:00 9.9 C 6.35 g/m*3 9.9 C 3.2 km/h
1861 25-04-2020 11:00:00 10.1 C 6.34 g/m*3 8.8 C 9.7 km/h
1862 25-04-2020 11:05:00 10.3 C 6.42 g/m*3 9.72 C 6.4 km/h
1863 25-04-2020 11:10:00 10.5 C 6.4 g/m*3 9.02 C 11.3 km/h
1864 25-04-2020 11:15:00 10.5 C 6.5 g/m*3 9.02 C 11.3 km/h
1865 25-04-2020 11:20:00 10.5 C 6.4 g/m*3 9.57 C 8.1 km/h
1866 25-04-2020 11:25:00 10.5 C 6.4 g/m*3 9.57 C 8.1 km/h
1867 25-04-2020 11:30:00 10.5 C 6.4 g/m*3 9.57 C 8.1 km/h
1868 25-04-2020 11:35:00 10.4 C 6.17 g/m*3 10.4 C 4.8 km/h
1869 25-04-2020 11:40:00 10.3 C 6.32 g/m*3 9.34 C 8.1 km/h
1870 25-04-2020 11:45:00 10.4 C 6.36 g/m*3 10.4 C 4.8 km/h
1871 25-04-2020 11:50:00 10.5 C 6.4 g/m*3 9.57 C 8.1 km/h
1872 25-04-2020 11:55:00 10.7 C 6.38 g/m*3 9.81 C 8.1 km/h
1873 25-04-2020 12:00:00 10.7 C 6.29 g/m*3 9.26 C 11.3 km/h
1874 25-04-2020 12:05:00 10.7 C 6.29 g/m*3 10.7 C 4.8 km/h
1875 25-04-2020 12:10:00 10.8 C 6.42 g/m*3 10.8 C 4.8 km/h
Sensor: Nr:Datum:Temp:Abs-Feuchte:Windchill:Wind:
Aussen-T/F 1876 25-04-2020 12:15:00 11 C 6.51 g/m*3 9.63 C 11.3 km/h
1877 25-04-2020 12:20:00 11.2 C 6.28 g/m*3 11.2 C 11.3 km/h
1878 25-04-2020 12:25:00 11.3 C 6.32 g/m*3 11.3 C 9.7 km/h
1879 25-04-2020 12:30:00 11.3 C 6.43 g/m*3 11.3 C 4.8 km/h
1880 25-04-2020 12:35:00 11.3 C 6.32 g/m*3 11.3 C 6.4 km/h
1881 25-04-2020 12:40:00 11.3 C 6.22 g/m*3 11.3 C 12.9 km/h
1882 25-04-2020 12:45:00 11.4 C 6.47 g/m*3 11.4 C 4.8 km/h
1883 25-04-2020 12:50:00 11.7 C 6.48 g/m*3 11.7 C 11.3 km/h
1884 25-04-2020 12:55:00 11.9 C 6.35 g/m*3 11.9 C 11.3 km/h
1885 25-04-2020 13:00:00 11.9 C 6.35 g/m*3 11.9 C 1.6 km/h
1886 25-04-2020 13:05:00 11.9 C 6.35 g/m*3 11.9 C 1.6 km/h
1887 25-04-2020 13:10:00 11.9 C 6.35 g/m*3 11.9 C 8.1 km/h
1888 25-04-2020 13:15:00 12.1 C 6.54 g/m*3 12.1 C 8.1 km/h
1889 25-04-2020 13:20:00 12.6 C 6.53 g/m*3 12.6 C 14.5 km/h
1890 25-04-2020 13:25:00 12.7 C 6.57 g/m*3 12.7 C 8.1 km/h
1891 25-04-2020 13:30:00 12.7 C 6.57 g/m*3 12.7 C 9.7 km/h
1892 25-04-2020 13:35:00 12.7 C 6.57 g/m*3 12.7 C 6.4 km/h
1893 25-04-2020 13:40:00 12.8 C 6.5 g/m*3 12.8 C 6.4 km/h
1894 25-04-2020 13:45:00 13.1 C 6.39 g/m*3 13.1 C 11.3 km/h
1895 25-04-2020 13:50:00 13.2 C 6.32 g/m*3 13.2 C 8.1 km/h
1896 25-04-2020 13:55:00 13.3 C 6.35 g/m*3 13.3 C 8.1 km/h
1897 25-04-2020 14:00:00 13.3 C 6.35 g/m*3 13.3 C 11.3 km/h
1898 25-04-2020 14:05:00 13.4 C 6.63 g/m*3 13.4 C 4.8 km/h
1899 25-04-2020 14:10:00 13.5 C 6.55 g/m*3 13.5 C 4.8 km/h
1900 25-04-2020 14:15:00 13.6 C 6.71 g/m*3 13.6 C 6.4 km/h
Sensor: Nr:Datum:Temp:Abs-Feuchte:Windchill:Wind:
Aussen-T/F 1901 25-04-2020 14:20:00 13.7 C 6.51 g/m*3 13.7 C 4.8 km/h
1902 25-04-2020 14:25:00 13.9 C 6.47 g/m*3 13.9 C 11.3 km/h
1903 25-04-2020 14:30:00 14.1 C 6.43 g/m*3 14.1 C 6.4 km/h
1904 25-04-2020 14:35:00 14.1 C 6.55 g/m*3 14.1 C 14.5 km/h
1905 25-04-2020 14:40:00 14.3 C 6.51 g/m*3 14.3 C 8.1 km/h
1906 25-04-2020 14:45:00 14.3 C 6.39 g/m*3 14.3 C 6.4 km/h
1907 25-04-2020 14:50:00 14.4 C 6.43 g/m*3 14.4 C 9.7 km/h
1908 25-04-2020 14:55:00 14.5 C 6.59 g/m*3 14.5 C 9.7 km/h
1909 25-04-2020 15:00:00 14.8 C 6.59 g/m*3 14.8 C 9.7 km/h
1910 25-04-2020 15:05:00 14.9 C 6.63 g/m*3 14.9 C 4.8 km/h
1911 25-04-2020 15:10:00 15.2 C 6.49 g/m*3 15.2 C 4.8 km/h
1912 25-04-2020 15:15:00 15.2 C 6.62 g/m*3 15.2 C 8.1 km/h
1913 25-04-2020 15:20:00 15.3 C 6.66 g/m*3 15.3 C 6.4 km/h
1914 25-04-2020 15:25:00 15.4 C 6.7 g/m*3 15.4 C 11.3 km/h
1915 25-04-2020 15:30:00 15.7 C 6.82 g/m*3 15.7 C 8.1 km/h
1916 25-04-2020 15:35:00 15.8 C 6.46 g/m*3 15.8 C 4.8 km/h
1917 25-04-2020 15:40:00 16.1 C 6.58 g/m*3 16.1 C 8.1 km/h
1918 25-04-2020 15:45:00 16.4 C 6.7 g/m*3 16.4 C 11.3 km/h
1919 25-04-2020 15:50:00 16.7 C 6.82 g/m*3 16.7 C 6.4 km/h
1920 25-04-2020 15:55:00 17.1 C 6.7 g/m*3 17.1 C 9.7 km/h
1921 25-04-2020 16:00:00 17.1 C 6.7 g/m*3 17.1 C 6.4 km/h
1922 25-04-2020 16:05:00 16.9 C 6.33 g/m*3 16.9 C 11.3 km/h
1923 25-04-2020 16:10:00 16.9 C 6.47 g/m*3 16.9 C 4.8 km/h
1924 25-04-2020 16:15:00 17.1 C 6.7 g/m*3 17.1 C 6.4 km/h
1925 25-04-2020 16:20:00 17.3 C 6.63 g/m*3 17.3 C 4.8 km/h
Sensor: Nr:Datum:Temp:Abs-Feuchte:Windchill:Wind:
Aussen-T/F 1926 25-04-2020 16:25:00 17.6 C 6.6 g/m*3 17.6 C 11.3 km/h
1927 25-04-2020 16:30:00 17.8 C 6.68 g/m*3 17.8 C 8.1 km/h
1928 25-04-2020 16:35:00 18 C 6.76 g/m*3 18 C 8.1 km/h
1929 25-04-2020 16:40:00 18.2 C 6.84 g/m*3 18.2 C 6.4 km/h
1930 25-04-2020 16:45:00 18.5 C 6.65 g/m*3 18.5 C 8.1 km/h
1931 25-04-2020 16:50:00 18.3 C 6.57 g/m*3 18.3 C 14.5 km/h
1932 25-04-2020 16:55:00 18.3 C 6.41 g/m*3 18.3 C 8.1 km/h
1933 25-04-2020 17:00:00 18.4 C 6.45 g/m*3 18.4 C 8.1 km/h
1934 25-04-2020 17:05:00 18.6 C 6.53 g/m*3 18.6 C 9.7 km/h
1935 25-04-2020 17:10:00 18.8 C 6.6 g/m*3 18.8 C 8.1 km/h
1936 25-04-2020 17:15:00 19 C 6.68 g/m*3 19 C 9.7 km/h
1937 25-04-2020 17:20:00 19.1 C 6.56 g/m*3 19.1 C 8.1 km/h
1938 25-04-2020 17:25:00 19.2 C 6.76 g/m*3 19.2 C 6.4 km/h
1939 25-04-2020 17:30:00 19.3 C 6.47 g/m*3 19.3 C 8.1 km/h
1940 25-04-2020 17:35:00 19.2 C 6.43 g/m*3 19.2 C 6.4 km/h
1941 25-04-2020 17:40:00 19.1 C 6.39 g/m*3 19.1 C 6.4 km/h
1942 25-04-2020 17:45:00 19.2 C 6.6 g/m*3 19.2 C 6.4 km/h
1943 25-04-2020 17:50:00 19.3 C 6.63 g/m*3 19.3 C 8.1 km/h
1944 25-04-2020 17:55:00 19.3 C 6.47 g/m*3 19.3 C 8.1 km/h
1945 25-04-2020 18:00:00 19.3 C 6.47 g/m*3 19.3 C 8.1 km/h
1946 25-04-2020 18:05:00 19.3 C 6.63 g/m*3 19.3 C 4.8 km/h
1947 25-04-2020 18:10:00 19.3 C 6.63 g/m*3 19.3 C 12.9 km/h
1948 25-04-2020 18:15:00 19.1 C 6.56 g/m*3 19.1 C 11.3 km/h
1949 25-04-2020 18:20:00 18.9 C 6.48 g/m*3 18.9 C 9.7 km/h
1950 25-04-2020 18:25:00 18.8 C 6.6 g/m*3 18.8 C 9.7 km/h
Sensor: Nr:Datum:Temp:Abs-Feuchte:Windchill:Wind:
Aussen-T/F 1951 25-04-2020 18:30:00 18.8 C 6.76 g/m*3 18.8 C 8.1 km/h
1952 25-04-2020 18:35:00 18.7 C 6.56 g/m*3 18.7 C 11.3 km/h
1953 25-04-2020 18:40:00 18.6 C 6.53 g/m*3 18.6 C 12.9 km/h
1954 25-04-2020 18:45:00 18.4 C 6.76 g/m*3 18.4 C 9.7 km/h
1955 25-04-2020 18:50:00 18.4 C 6.76 g/m*3 18.4 C 4.8 km/h
1956 25-04-2020 18:55:00 18.3 C 7.51 g/m*3 18.3 C 8.1 km/h
1957 25-04-2020 19:00:00 18.2 C 6.84 g/m*3 18.2 C 4.8 km/h
1958 25-04-2020 19:05:00 18.1 C 6.8 g/m*3 18.1 C 8.1 km/h
1959 25-04-2020 19:10:00 17.9 C 6.87 g/m*3 17.9 C 8.1 km/h
1960 25-04-2020 19:15:00 17.7 C 6.94 g/m*3 17.7 C 8.1 km/h
1961 25-04-2020 19:20:00 17.4 C 6.82 g/m*3 17.4 C 6.4 km/h
1962 25-04-2020 19:25:00 17.2 C 6.59 g/m*3 17.2 C 9.7 km/h
1963 25-04-2020 19:30:00 16.9 C 6.33 g/m*3 16.9 C 6.4 km/h
1964 25-04-2020 19:35:00 16.7 C 6.54 g/m*3 16.7 C 4.8 km/h
1965 25-04-2020 19:40:00 16.6 C 6.5 g/m*3 16.6 C 6.4 km/h
1966 25-04-2020 19:45:00 16.4 C 6.42 g/m*3 16.4 C 6.4 km/h
1967 25-04-2020 19:50:00 16.3 C 6.38 g/m*3 16.3 C 6.4 km/h
1968 25-04-2020 19:55:00 16.1 C 6.31 g/m*3 16.1 C 8.1 km/h
1969 25-04-2020 20:00:00 15.9 C 6.23 g/m*3 15.9 C 6.4 km/h
1970 25-04-2020 20:05:00 15.8 C 6.19 g/m*3 15.8 C 3.2 km/h
1971 25-04-2020 20:10:00 15.8 C 6.87 g/m*3 15.8 C 1.6 km/h
1972 25-04-2020 20:15:00 15.6 C 6.65 g/m*3 15.6 C 1.6 km/h
1973 25-04-2020 20:20:00 15.3 C 6.66 g/m*3 15.3 C 1.6 km/h
1974 25-04-2020 20:25:00 14.9 C 6.75 g/m*3 14.9 C 1.6 km/h
1975 25-04-2020 20:30:00 14.3 C 6.39 g/m*3 14.3 C 4.8 km/h
Sensor: Nr:Datum:Temp:Abs-Feuchte:Windchill:Wind:
Aussen-T/F 1976 25-04-2020 20:35:00 14 C 6.63 g/m*3 14 C 3.2 km/h
1977 25-04-2020 20:40:00 13.7 C 6.63 g/m*3 13.7 C 6.4 km/h
1978 25-04-2020 20:45:00 13.2 C 6.77 g/m*3 13.2 C 4.8 km/h
1979 25-04-2020 20:50:00 12.9 C 6.31 g/m*3 12.9 C 3.2 km/h
1980 25-04-2020 20:55:00 12.8 C 6.5 g/m*3 12.8 C 6.4 km/h
1981 25-04-2020 21:00:00 12.7 C 6.57 g/m*3 12.7 C 4.8 km/h
1982 25-04-2020 21:05:00 12.4 C 6.45 g/m*3 12.4 C 6.4 km/h
1983 25-04-2020 21:10:00 12.2 C 6.37 g/m*3 12.2 C 4.8 km/h
1984 25-04-2020 21:15:00 12.1 C 6.54 g/m*3 12.1 C 4.8 km/h
1985 25-04-2020 21:20:00 11.8 C 6.42 g/m*3 11.8 C 4.8 km/h
1986 25-04-2020 21:25:00 11.6 C 6.44 g/m*3 11.6 C 4.8 km/h
1987 25-04-2020 21:30:00 11.4 C 6.47 g/m*3 11.4 C 1.6 km/h
1988 25-04-2020 21:35:00 11.2 C 6.39 g/m*3 11.2 C 3.2 km/h
1989 25-04-2020 21:40:00 11.1 C 6.35 g/m*3 11.1 C 1.6 km/h
1990 25-04-2020 21:45:00 11.1 C 6.45 g/m*3 11.1 C 1.6 km/h
1991 25-04-2020 21:50:00 11.1 C 6.35 g/m*3 11.1 C 3.2 km/h
1992 25-04-2020 21:55:00 11.1 C 6.35 g/m*3 11.1 C 3.2 km/h
1993 25-04-2020 22:00:00 11 C 6.21 g/m*3 9.63 C 11.3 km/h
1994 25-04-2020 22:05:00 11.1 C 6.35 g/m*3 11.1 C 9.7 km/h
1995 25-04-2020 22:10:00 11.1 C 6.45 g/m*3 11.1 C 3.2 km/h
1996 25-04-2020 22:15:00 10.9 C 6.37 g/m*3 10.9 C 3.2 km/h
1997 25-04-2020 22:20:00 10.7 C 6.38 g/m*3 10.18 C 6.4 km/h
1998 25-04-2020 22:25:00 10.5 C 6.4 g/m*3 9.95 C 6.4 km/h
1999 25-04-2020 22:30:00 10.3 C 6.22 g/m*3 9.72 C 6.4 km/h
2000 25-04-2020 22:35:00 10.3 C 6.42 g/m*3 10.3 C 4.8 km/h
Sensor: Nr:Datum:Temp:Abs-Feuchte:Windchill:Wind:
Aussen-T/F 2001 25-04-2020 22:40:00 10.2 C 6.38 g/m*3 10.2 C 3.2 km/h
2002 25-04-2020 22:45:00 10.1 C 6.43 g/m*3 10.1 C 4.8 km/h
2003 25-04-2020 22:50:00 9.9 C 6.35 g/m*3 9.9 C 1.6 km/h
2004 25-04-2020 22:55:00 9.8 C 6.4 g/m*3 9.8 C 3.2 km/h
2005 25-04-2020 23:00:00 9.7 C 6.36 g/m*3 9.7 C 3.2 km/h
2006 25-04-2020 23:05:00 9.6 C 6.32 g/m*3 8.91 C 6.4 km/h
2007 25-04-2020 23:10:00 9.6 C 6.41 g/m*3 8.91 C 6.4 km/h
2008 25-04-2020 23:15:00 9.5 C 6.37 g/m*3 8.79 C 6.4 km/h
2009 25-04-2020 23:20:00 9.4 C 6.42 g/m*3 9.4 C 3.2 km/h
2010 25-04-2020 23:25:00 9.3 C 6.38 g/m*3 9.3 C 3.2 km/h
2011 25-04-2020 23:30:00 9.2 C 6.43 g/m*3 9.2 C 1.6 km/h
2012 25-04-2020 23:35:00 9.1 C 6.39 g/m*3 9.1 C 0 km/h
2013 25-04-2020 23:40:00 9 C 6.35 g/m*3 9 C 0 km/h
2014 25-04-2020 23:45:00 8.8 C 6.35 g/m*3 8.8 C 0 km/h
2015 25-04-2020 23:50:00 8.6 C 6.36 g/m*3 8.6 C 0 km/h
2016 25-04-2020 23:55:00 8.4 C 6.28 g/m*3 8.4 C 0 km/h

Legende:
   Min
   Max


Maximal/Minimal-Werte vom 19.04.2020 - 25.04.2020

Sensor Min Max Avg
Temp
(Aussen-T/F)
5.9 °C
23-04-2020  07:20:00
25.8 °C
23-04-2020  18:30:00
13.39 °C
Abs-Feuchte
(Aussen-T/F)
4.66 g/m*3
21-04-2020  00:15:00
11.85 g/m*3
23-04-2020  19:35:00
6.48 g/m*3
Windchill
(Aussen-T/F)
4.98 C
22-04-2020  06:45:00
25.8 C
23-04-2020  18:30:00
13.29 C

Die Daten stammen von einer Davis Vantage Pro 2 Wetter-Station und werden unter Linux mit der Software wview2wettercgi und aufbereitet. Alle Angaben erfolgen ohne Gewähr für ihre Vollständigkeit oder Richtigkeit.
Kontakt: Rainer Krienke krienke@uni-koblenz.de . Meine Webseiten an der Uni Koblenz oder privat.
Version: $Revision: 0.78 $